Provisional Data: West Creek near Weber City, PA


Please select a monitoring station.
Please select start date.
Please select start date.

Toggle Unit: C/F Toggle Unit: C/F
Sample Time Temperature (C) Temperature (F) Specific Conductivity (mS/cm) pH   Turbidity (NTU+) DO (mg/L)
12/4/2020 12:00:00 AM 1.91 35.438 0.089 6.98 1.91 13.61
12/4/2020 12:15:00 AM 1.91 35.438 0.089 6.98 1.95 13.61
12/4/2020 12:30:00 AM 1.92 35.456 0.089 6.98 1.85 13.61
12/4/2020 12:45:00 AM 1.92 35.456 0.089 6.98 1.93 13.61
12/4/2020 1:00:00 AM 1.92 35.456 0.089 6.98 1.92 13.61
12/4/2020 1:15:00 AM 1.93 35.474 0.089 6.98 1.93 13.61
12/4/2020 1:30:00 AM 1.93 35.474 0.089 6.98 1.96 13.62
12/4/2020 1:45:00 AM 1.93 35.474 0.089 6.98 1.99 13.61
12/4/2020 2:00:00 AM 1.92 35.456 0.089 6.98 1.94 13.61
12/4/2020 2:15:00 AM 1.91 35.438 0.089 6.98 1.89 13.61
12/4/2020 2:30:00 AM 1.89 35.402 0.089 6.98 1.91 13.62
12/4/2020 2:45:00 AM 1.88 35.384 0.089 6.97 1.92 13.61
12/4/2020 3:00:00 AM 1.87 35.366 0.088 6.97 1.89 13.62
12/4/2020 3:15:00 AM 1.86 35.348 0.088 6.97 1.89 13.63
12/4/2020 3:30:00 AM 1.85 35.33 0.088 6.97 1.95 13.63
12/4/2020 3:45:00 AM 1.85 35.33 0.088 6.97 1.87 13.63
12/4/2020 4:00:00 AM 1.84 35.312 0.088 6.97 1.84 13.63
12/4/2020 4:15:00 AM 1.84 35.312 0.088 6.97 1.89 13.63
12/4/2020 4:30:00 AM 1.84 35.312 0.088 6.97 1.87 13.63
12/4/2020 4:45:00 AM 1.83 35.294 0.088 6.97 1.87 13.64
12/4/2020 5:00:00 AM 1.82 35.276 0.088 6.98 2.04 13.63
12/4/2020 5:15:00 AM 1.82 35.276 0.088 6.97 1.86 13.63
12/4/2020 5:30:00 AM 1.82 35.276 0.088 6.97 1.94 13.64
12/4/2020 5:45:00 AM 1.83 35.294 0.088 6.97 1.85 13.63
12/4/2020 6:00:00 AM 1.83 35.294 0.088 6.97 1.8 13.64
12/4/2020 6:15:00 AM 1.84 35.312 0.088 6.98 1.86 13.63
12/4/2020 6:30:00 AM 1.84 35.312 0.087 6.98 1.83 13.63
12/4/2020 6:45:00 AM 1.84 35.312 0.087 6.97 1.85 13.63
12/4/2020 7:00:00 AM 1.86 35.348 0.087 6.97 1.79 13.62
12/4/2020 7:15:00 AM 1.87 35.366 0.087 6.97 1.85 13.62
12/4/2020 7:30:00 AM 1.88 35.384 0.087 6.98 1.84 13.63
12/4/2020 7:45:00 AM 1.89 35.402 0.087 6.98 1.79 13.65
12/4/2020 8:00:00 AM 1.91 35.438 0.087 6.98 1.81 13.68
12/4/2020 8:15:00 AM 1.92 35.456 0.087 6.99 1.8 13.71
12/4/2020 8:30:00 AM 1.94 35.492 0.087 7 1.77 13.75
12/4/2020 8:45:00 AM 1.95 35.51 0.087 7.01 1.74 13.8
12/4/2020 9:00:00 AM 1.95 35.51 0.087 7.02 1.78 13.82
12/4/2020 9:15:00 AM 1.97 35.546 0.086 7.02 1.72 13.85
12/4/2020 9:30:00 AM 1.99 35.582 0.086 7.03 1.77 13.87
12/4/2020 9:45:00 AM 2.02 35.636 0.086 7.04 1.73 13.9
12/4/2020 10:00:00 AM 2.03 35.654 0.086 7.05 1.73 13.91
12/4/2020 10:15:00 AM 2.06 35.708 0.086 7.06 1.7 13.92
12/4/2020 10:30:00 AM 2.09 35.762 0.086 7.06 1.7 13.93
12/4/2020 10:45:00 AM 2.11 35.798 0.086 7.07 1.72 13.94
12/4/2020 11:00:00 AM 2.15 35.87 0.086 7.08 1.7 13.95
12/4/2020 11:15:00 AM 2.31 36.158 0.085 7.09 1.72 13.95
12/4/2020 11:30:00 AM 2.4 36.32 0.085 7.09 1.76 13.95
12/4/2020 11:45:00 AM 2.5 36.5 0.085 7.1 1.71 13.95
12/4/2020 12:00:00 PM 2.6 36.68 0.085 7.11 1.72 13.93
12/4/2020 12:15:00 PM 2.71 36.878 0.085 7.11 1.7 13.92
12/4/2020 12:30:00 PM 2.79 37.022 0.085 7.12 1.66 13.89
12/4/2020 12:45:00 PM 2.87 37.166 0.085 7.12 1.7 13.86
12/4/2020 1:00:00 PM 2.94 37.292 0.084 7.13 1.7 13.83
12/4/2020 1:15:00 PM 3 37.4 0.084 7.13 1.69 13.8
12/4/2020 1:30:00 PM 3.04 37.472 0.084 7.13 1.68 13.76
12/4/2020 1:45:00 PM 3.08 37.544 0.084 7.13 1.66 13.73
12/4/2020 2:00:00 PM 3.1 37.58 0.084 7.13 1.66 13.7
12/4/2020 2:15:00 PM 3.14 37.652 0.084 7.13 1.68 13.69
12/4/2020 2:30:00 PM 3.18 37.724 0.084 7.13 1.75 13.68
12/4/2020 2:45:00 PM 3.22 37.796 0.084 7.14 1.69 13.67
12/4/2020 3:00:00 PM 3.26 37.868 0.084 7.14 1.72 13.64
12/4/2020 3:15:00 PM 3.3 37.94 0.084 7.14 1.66 13.63
12/4/2020 3:30:00 PM 3.3 37.94 0.084 7.14 1.71 13.61
12/4/2020 3:45:00 PM 3.3 37.94 0.084 7.13 1.71 13.56
12/4/2020 4:00:00 PM 3.3 37.94 0.084 7.13 1.67 13.52
12/4/2020 4:15:00 PM 3.3 37.94 0.084 7.12 1.69 13.46
12/4/2020 4:30:00 PM 3.29 37.922 0.084 7.11 1.67 13.41
12/4/2020 4:45:00 PM 3.28 37.904 0.084 7.09 1.7 13.34
12/4/2020 5:00:00 PM 3.27 37.886 0.084 7.08 1.69 13.29
12/4/2020 5:15:00 PM 3.26 37.868 0.084 7.07 1.73 13.25
12/4/2020 5:30:00 PM 3.25 37.85 0.084 7.05 1.77 13.21
12/4/2020 5:45:00 PM 3.23 37.814 0.084 7.04 1.67 13.19
12/4/2020 6:00:00 PM 3.21 37.778 0.084 7.04 1.93 13.16
12/4/2020 6:15:00 PM 3.19 37.742 0.084 7.03 1.72 13.16
12/4/2020 6:30:00 PM 3.16 37.688 0.084 7.03 1.77 13.13
12/4/2020 6:45:00 PM 3.13 37.634 0.084 7.02 1.74 13.14
12/4/2020 7:00:00 PM 3.11 37.598 0.084 7.02 1.74 13.13
12/4/2020 7:15:00 PM 3.08 37.544 0.084 7.01 1.82 13.13
12/4/2020 7:30:00 PM 3.05 37.49 0.084 7.01 1.75 13.13
12/4/2020 7:45:00 PM 3.03 37.454 0.084 7.01 1.76 13.13
12/4/2020 8:00:00 PM 3.02 37.436 0.084 7 1.84 13.14
12/4/2020 8:15:00 PM 3.01 37.418 0.084 7 1.75 13.13
12/4/2020 8:30:00 PM 3 37.4 0.084 7 1.75 13.13
12/4/2020 8:45:00 PM 2.98 37.364 0.084 7 1.76 13.15
12/4/2020 9:00:00 PM 2.96 37.328 0.084 6.99 1.78 13.15
12/4/2020 9:15:00 PM 2.93 37.274 0.084 6.99 1.85 13.15
12/4/2020 9:30:00 PM 2.91 37.238 0.084 6.99 1.72 13.16
12/4/2020 9:45:00 PM 2.91 37.238 0.084 6.99 1.76 13.16
12/4/2020 10:00:00 PM 2.9 37.22 0.084 6.99 1.75 13.16
12/4/2020 10:15:00 PM 2.88 37.184 0.084 6.98 1.76 13.17
12/4/2020 10:30:00 PM 2.88 37.184 0.084 6.98 1.74 13.16
12/4/2020 10:45:00 PM 2.86 37.148 0.084 6.98 1.76 13.17
12/4/2020 11:00:00 PM 2.85 37.13 0.084 6.98 1.8 13.17
12/4/2020 11:15:00 PM 2.84 37.112 0.084 6.98 1.76 13.17
12/4/2020 11:30:00 PM 2.83 37.094 0.084 6.97 1.73 13.18
12/4/2020 11:45:00 PM 2.83 37.094 0.084 6.97 1.73 13.18
12/5/2020 12:00:00 AM 2.82 37.076 0.084 6.97 1.77 13.18
12/5/2020 12:15:00 AM 2.82 37.076 0.084 6.97 1.76 13.18
12/5/2020 12:30:00 AM 2.82 37.076 0.084 6.97 1.72 13.19
12/5/2020 12:45:00 AM 2.82 37.076 0.084 6.97 1.8 13.19
12/5/2020 1:00:00 AM 2.82 37.076 0.084 6.97 1.86 13.19
12/5/2020 1:15:00 AM 2.82 37.076 0.084 6.97 1.81 13.19
12/5/2020 1:30:00 AM 2.82 37.076 0.084 6.96 1.82 13.18
12/5/2020 1:45:00 AM 2.82 37.076 0.084 6.96 1.77 13.18
12/5/2020 2:00:00 AM 2.83 37.094 0.084 6.96 1.78 13.18
12/5/2020 2:15:00 AM 2.83 37.094 0.084 6.96 1.81 13.18
12/5/2020 2:30:00 AM 2.83 37.094 0.084 6.96 1.79 13.17
12/5/2020 2:45:00 AM 2.84 37.112 0.084 6.96 1.81 13.17
12/5/2020 3:00:00 AM 2.85 37.13 0.084 6.96 1.8 13.16
12/5/2020 3:15:00 AM 2.85 37.13 0.084 6.96 1.74 13.16
12/5/2020 3:30:00 AM 2.86 37.148 0.084 6.96 1.71 13.16
12/5/2020 3:45:00 AM 2.87 37.166 0.084 6.96 1.76 13.16
12/5/2020 4:00:00 AM 2.88 37.184 0.084 6.96 1.74 13.15
12/5/2020 4:15:00 AM 2.9 37.22 0.084 6.96 1.76 13.15
12/5/2020 4:30:00 AM 2.91 37.238 0.084 6.95 1.76 13.14
12/5/2020 4:45:00 AM 2.92 37.256 0.084 6.96 1.73 13.14
12/5/2020 5:00:00 AM 2.93 37.274 0.084 6.95 1.77 13.14
12/5/2020 5:15:00 AM 2.94 37.292 0.084 6.95 1.75 13.13
12/5/2020 5:30:00 AM 2.95 37.31 0.083 6.95 1.71 13.13
12/5/2020 5:45:00 AM 2.96 37.328 0.083 6.95 1.81 13.13
12/5/2020 6:00:00 AM 2.97 37.346 0.083 6.95 1.76 13.12
12/5/2020 6:15:00 AM 2.98 37.364 0.083 6.95 1.83 13.11
12/5/2020 6:30:00 AM 2.99 37.382 0.083 6.95 1.76 13.12
12/5/2020 6:45:00 AM 3 37.4 0.083 6.95 1.77 13.1
12/5/2020 7:00:00 AM 3.02 37.436 0.083 6.95 1.77 13.12
12/5/2020 7:15:00 AM 3.02 37.436 0.083 6.95 1.82 13.11
12/5/2020 7:30:00 AM 3.03 37.454 0.083 6.95 1.8 13.12
12/5/2020 7:45:00 AM 3.03 37.454 0.083 6.96 1.78 13.12
12/5/2020 8:00:00 AM 3.04 37.472 0.083 6.97 1.73 13.16
12/5/2020 8:15:00 AM 3.05 37.49 0.083 6.98 1.78 13.21
12/5/2020 8:30:00 AM 3.07 37.526 0.083 6.98 1.74 13.22
12/5/2020 8:45:00 AM 3.08 37.544 0.083 6.99 1.74 13.26
12/5/2020 9:00:00 AM 3.1 37.58 0.083 7 1.75 13.31
12/5/2020 9:15:00 AM 3.12 37.616 0.083 7.01 1.8 13.33
12/5/2020 9:30:00 AM 3.16 37.688 0.083 7.03 1.71 13.39
12/5/2020 9:45:00 AM 3.18 37.724 0.083 7.04 1.67 13.41
12/5/2020 10:00:00 AM 3.2 37.76 0.083 7.05 1.71 13.44
12/5/2020 10:15:00 AM 3.22 37.796 0.083 7.06 1.73 13.44
12/5/2020 10:30:00 AM 3.24 37.832 0.083 7.07 1.67 13.46
12/5/2020 10:45:00 AM 3.25 37.85 0.083 7.07 1.7 13.48
12/5/2020 11:00:00 AM 3.27 37.886 0.083 7.08 1.68 13.47
12/5/2020 11:15:00 AM 3.31 37.958 0.083 7.09 1.7 13.49
12/5/2020 11:30:00 AM 3.34 38.012 0.083 7.1 1.68 13.5
12/5/2020 11:45:00 AM 3.38 38.084 0.083 7.11 1.66 13.53
12/5/2020 12:00:00 PM 3.44 38.192 0.083 7.12 1.73 13.53
12/5/2020 12:15:00 PM 3.44 38.192 0.083 7.12 1.69 13.52
12/5/2020 12:30:00 PM 3.46 38.228 0.083 7.13 1.68 13.52
12/5/2020 12:45:00 PM 3.49 38.282 0.083 7.13 1.66 13.51
12/5/2020 1:00:00 PM 3.51 38.318 0.083 7.13 1.64 13.5
12/5/2020 1:15:00 PM 3.53 38.354 0.083 7.14 1.63 13.5
12/5/2020 1:30:00 PM 3.54 38.372 0.083 7.13 1.71 13.47
12/5/2020 1:45:00 PM 3.55 38.39 0.083 7.13 1.69 13.47
12/5/2020 2:00:00 PM 3.58 38.444 0.083 7.14 1.71 13.48
12/5/2020 2:15:00 PM 3.6 38.48 0.083 7.14 1.75 13.47
12/5/2020 2:30:00 PM 3.6 38.48 0.083 7.14 1.72 13.47
12/5/2020 2:45:00 PM 3.62 38.516 0.083 7.15 1.71 13.45
12/5/2020 3:00:00 PM 3.61 38.498 0.083 7.14 1.71 13.39
12/5/2020 3:15:00 PM 3.62 38.516 0.083 7.14 1.74 13.41
12/5/2020 3:30:00 PM 3.63 38.534 0.083 7.14 1.73 13.42
12/5/2020 3:45:00 PM 3.63 38.534 0.083 7.14 1.78 13.36
12/5/2020 4:00:00 PM 3.62 38.516 0.083 7.13 1.73 13.31
12/5/2020 4:15:00 PM 3.62 38.516 0.084 7.12 1.7 13.27
12/5/2020 4:30:00 PM 3.61 38.498 0.084 7.11 1.75 13.23
12/5/2020 4:45:00 PM 3.61 38.498 0.084 7.09 1.74 13.19
12/5/2020 5:00:00 PM 3.59 38.462 0.084 7.08 1.8 13.15
12/5/2020 5:15:00 PM 3.58 38.444 0.084 7.07 1.83 13.12
12/5/2020 5:30:00 PM 3.56 38.408 0.084 7.06 1.79 13.09
12/5/2020 5:45:00 PM 3.55 38.39 0.084 7.05 1.82 13.07
12/5/2020 6:00:00 PM 3.54 38.372 0.084 7.04 1.94 13.06
12/5/2020 6:15:00 PM 3.52 38.336 0.084 7.04 1.84 13.04
12/5/2020 6:30:00 PM 3.51 38.318 0.084 7.03 1.81 13.03
12/5/2020 6:45:00 PM 3.5 38.3 0.084 7.03 1.89 13.03
12/5/2020 7:00:00 PM 3.49 38.282 0.084 7.02 1.88 13.02
12/5/2020 7:15:00 PM 3.47 38.246 0.084 7.02 1.77 13.01
12/5/2020 7:30:00 PM 3.45 38.21 0.084 7.02 1.83 13.02
12/5/2020 7:45:00 PM 3.44 38.192 0.084 7.01 1.88 13.02
12/5/2020 8:00:00 PM 3.43 38.174 0.084 7.01 1.9 13.01
12/5/2020 8:15:00 PM 3.42 38.156 0.084 7.01 1.88 13.01
12/5/2020 8:30:00 PM 3.4 38.12 0.084 7.01 1.93 13.02
12/5/2020 8:45:00 PM 3.38 38.084 0.084 7 1.84 13.02
12/5/2020 9:00:00 PM 3.37 38.066 0.085 7 1.87 13.02
12/5/2020 9:15:00 PM 3.35 38.03 0.085 7 1.83 13.03
12/5/2020 9:30:00 PM 3.34 38.012 0.084 7 1.89 13.03
12/5/2020 9:45:00 PM 3.33 37.994 0.084 7 1.86 13.03
12/5/2020 10:00:00 PM 3.32 37.976 0.084 7 1.9 13.04
12/5/2020 10:15:00 PM 3.31 37.958 0.084 7 1.87 13.03
12/5/2020 10:30:00 PM 3.3 37.94 0.084 7 1.88 13.03
12/5/2020 10:45:00 PM 3.28 37.904 0.084 7 1.93 13.04
12/5/2020 11:00:00 PM 3.27 37.886 0.084 7 1.85 13.05
12/5/2020 11:15:00 PM 3.25 37.85 0.084 7 1.87 13.05
12/5/2020 11:30:00 PM 3.24 37.832 0.084 6.99 1.86 13.06
12/5/2020 11:45:00 PM 3.23 37.814 0.084 6.99 1.88 13.06
12/6/2020 12:00:00 AM 3.21 37.778 0.084 6.99 1.82 13.06
12/6/2020 12:15:00 AM 3.2 37.76 0.084 6.99 1.81 13.07
12/6/2020 12:30:00 AM 3.19 37.742 0.084 6.99 1.87 13.06
12/6/2020 12:45:00 AM 3.18 37.724 0.084 6.99 1.81 13.07
12/6/2020 1:00:00 AM 3.16 37.688 0.084 6.99 1.84 13.08
12/6/2020 1:15:00 AM 3.14 37.652 0.084 6.99 1.84 13.09
12/6/2020 1:30:00 AM 3.12 37.616 0.084 6.99 1.83 13.1
12/6/2020 1:45:00 AM 3.11 37.598 0.084 6.99 1.82 13.09
12/6/2020 2:00:00 AM 3.09 37.562 0.084 6.99 1.78 13.11
12/6/2020 2:15:00 AM 3.07 37.526 0.084 6.99 1.81 13.11
12/6/2020 2:30:00 AM 3.05 37.49 0.084 6.99 1.81 13.12
12/6/2020 2:45:00 AM 3.03 37.454 0.084 6.99 1.85 13.13
12/6/2020 3:00:00 AM 3.01 37.418 0.084 6.99 1.87 13.12
12/6/2020 3:15:00 AM 3 37.4 0.084 6.99 1.78 13.14
12/6/2020 3:30:00 AM 2.98 37.364 0.084 6.98 1.83 13.15
12/6/2020 3:45:00 AM 2.97 37.346 0.084 6.98 1.85 13.16
12/6/2020 4:00:00 AM 2.94 37.292 0.084 6.98 1.79 13.16
12/6/2020 4:15:00 AM 2.91 37.238 0.084 6.98 1.8 13.16
12/6/2020 4:30:00 AM 2.87 37.166 0.084 6.99 1.83 13.18
12/6/2020 4:45:00 AM 2.84 37.112 0.084 6.98 1.78 13.19
12/6/2020 5:00:00 AM 2.81 37.058 0.084 6.98 1.85 13.19
12/6/2020 5:15:00 AM 2.79 37.022 0.084 6.99 1.78 13.2
12/6/2020 5:30:00 AM 2.77 36.986 0.084 6.99 1.82 13.22
12/6/2020 5:45:00 AM 2.74 36.932 0.084 6.99 1.77 13.23
12/6/2020 6:00:00 AM 2.7 36.86 0.084 6.99 1.78 13.24
12/6/2020 6:15:00 AM 2.67 36.806 0.084 6.99 1.82 13.26
12/6/2020 6:30:00 AM 2.64 36.752 0.084 6.99 1.8 13.27
12/6/2020 6:45:00 AM 2.61 36.698 0.084 6.99 1.75 13.29
12/6/2020 7:00:00 AM 2.59 36.662 0.084 6.99 1.84 13.29
12/6/2020 7:15:00 AM 2.56 36.608 0.084 6.99 1.82 13.31
12/6/2020 7:30:00 AM 2.53 36.554 0.084 6.99 1.77 13.33
12/6/2020 7:45:00 AM 2.5 36.5 0.084 6.99 1.83 13.36
12/6/2020 8:00:00 AM 2.46 36.428 0.084 7 1.88 13.4
12/6/2020 8:15:00 AM 2.43 36.374 0.084 7 1.83 13.45
12/6/2020 8:30:00 AM 2.41 36.338 0.084 7.01 1.76 13.51
12/6/2020 8:45:00 AM 2.39 36.302 0.084 7.03 1.83 13.56
12/6/2020 9:00:00 AM 2.38 36.284 0.083 7.04 1.89 13.63
12/6/2020 9:15:00 AM 2.38 36.284 0.083 7.05 1.8 13.68
12/6/2020 9:30:00 AM 2.37 36.266 0.083 7.06 1.78 13.74
12/6/2020 9:45:00 AM 2.38 36.284 0.083 7.08 1.74 13.78
12/6/2020 10:00:00 AM 2.41 36.338 0.083 7.09 1.72 13.82
12/6/2020 10:15:00 AM 2.43 36.374 0.083 7.09 1.72 13.84
12/6/2020 10:30:00 AM 2.44 36.392 0.083 7.1 1.71 13.88
12/6/2020 10:45:00 AM 2.45 36.41 0.083 7.11 1.69 13.89
12/6/2020 11:00:00 AM 2.48 36.464 0.083 7.12 1.72 13.91
12/6/2020 11:15:00 AM 2.52 36.536 0.083 7.13 1.65 13.92
12/6/2020 11:30:00 AM 2.56 36.608 0.082 7.14 1.68 13.93
12/6/2020 11:45:00 AM 2.61 36.698 0.082 7.14 1.73 13.93
12/6/2020 12:00:00 PM 2.62 36.716 0.082 7.15 1.7 13.93
12/6/2020 12:15:00 PM 2.66 36.788 0.082 7.15 1.66 13.92
12/6/2020 12:30:00 PM 2.7 36.86 0.082 7.15 1.66 13.92
12/6/2020 12:45:00 PM 2.72 36.896 0.082 7.15 1.67 13.91
12/6/2020 1:00:00 PM 2.75 36.95 0.082 7.16 1.64 13.9
12/6/2020 1:15:00 PM 2.78 37.004 0.082 7.16 1.67 13.89
12/6/2020 1:30:00 PM 2.82 37.076 0.082 7.16 1.67 13.88
12/6/2020 1:45:00 PM 2.84 37.112 0.082 7.17 1.66 13.87
12/6/2020 2:00:00 PM 2.85 37.13 0.082 7.17 1.72 13.86
12/6/2020 2:15:00 PM 2.86 37.148 0.082 7.17 1.69 13.85
12/6/2020 2:30:00 PM 2.86 37.148 0.082 7.17 1.72 13.83
12/6/2020 2:45:00 PM 2.88 37.184 0.082 7.18 1.7 13.81
12/6/2020 3:00:00 PM 2.91 37.238 0.081 7.18 1.69 13.81
12/6/2020 3:15:00 PM 2.92 37.256 0.081 7.18 1.69 13.79
12/6/2020 3:30:00 PM 2.92 37.256 0.081 7.18 1.69 13.78
12/6/2020 3:45:00 PM 2.93 37.274 0.081 7.17 1.68 13.75
12/6/2020 4:00:00 PM 2.92 37.256 0.081 7.17 1.62 13.72
12/6/2020 4:15:00 PM 2.91 37.238 0.081 7.16 1.69 13.66
12/6/2020 4:30:00 PM 2.89 37.202 0.081 7.15 1.65 13.6
12/6/2020 4:45:00 PM 2.87 37.166 0.081 7.13 1.68 13.55
12/6/2020 5:00:00 PM 2.84 37.112 0.082 7.11 1.72 13.5
12/6/2020 5:15:00 PM 2.81 37.058 0.082 7.1 1.73 13.46
12/6/2020 5:30:00 PM 2.77 36.986 0.082 7.09 1.73 13.43
12/6/2020 5:45:00 PM 2.72 36.896 0.082 7.07 1.73 13.41
12/6/2020 6:00:00 PM 2.69 36.842 0.082 7.06 1.77 13.4
12/6/2020 6:15:00 PM 2.66 36.788 0.082 7.06 1.72 13.38
12/6/2020 6:30:00 PM 2.62 36.716 0.082 7.06 1.7 13.38
12/6/2020 6:45:00 PM 2.58 36.644 0.082 7.05 1.87 13.38
12/6/2020 7:00:00 PM 2.54 36.572 0.082 7.03 1.72 13.38
12/6/2020 7:15:00 PM 2.51 36.518 0.082 7.01 1.78 13.39
12/6/2020 7:30:00 PM 2.48 36.464 0.082 7.01 1.76 13.39
12/6/2020 7:45:00 PM 2.46 36.428 0.082 7 1.73 13.39
12/6/2020 8:00:00 PM 2.44 36.392 0.082 6.99 1.71 13.4
12/6/2020 8:15:00 PM 2.42 36.356 0.082 6.99 1.76 13.4
12/6/2020 8:30:00 PM 2.4 36.32 0.082 6.98 1.74 13.41
12/6/2020 8:45:00 PM 2.37 36.266 0.082 6.98 1.72 13.41
12/6/2020 9:00:00 PM 2.35 36.23 0.082 6.98 1.75 13.41
12/6/2020 9:15:00 PM 2.33 36.194 0.082 6.98 1.76 13.42
12/6/2020 9:30:00 PM 2.31 36.158 0.082 6.98 1.73 13.42
12/6/2020 9:45:00 PM 2.29 36.122 0.082 6.98 1.73 13.42
12/6/2020 10:00:00 PM 2.27 36.086 0.082 6.98 1.79 13.43
12/6/2020 10:15:00 PM 2.24 36.032 0.082 6.98 1.7 13.43
12/6/2020 10:30:00 PM 2.22 35.996 0.082 6.98 1.75 13.44
12/6/2020 10:45:00 PM 2.2 35.96 0.082 6.98 1.71 13.45
12/6/2020 11:00:00 PM 2.18 35.924 0.082 6.98 1.76 13.45
12/6/2020 11:15:00 PM 2.16 35.888 0.082 6.98 1.71 13.46
12/6/2020 11:30:00 PM 2.14 35.852 0.083 6.98 1.64 13.47
12/6/2020 11:45:00 PM 2.12 35.816 0.083 6.98 1.7 13.48
12/7/2020 12:00:00 AM 2.1 35.78 0.083 6.98 1.69 13.48
12/7/2020 12:15:00 AM 2.09 35.762 0.083 6.98 1.77 13.49
12/7/2020 12:30:00 AM 2.07 35.726 0.083 6.98 1.71 13.49
12/7/2020 12:45:00 AM 2.05 35.69 0.083 6.98 1.76 13.5
12/7/2020 1:00:00 AM 2.04 35.672 0.083 6.98 1.75 13.5
12/7/2020 1:15:00 AM 2.02 35.636 0.083 6.98 1.72 13.5
12/7/2020 1:30:00 AM 2.01 35.618 0.083 6.98 1.71 13.51
12/7/2020 1:45:00 AM 1.99 35.582 0.082 6.98 1.75 13.52
12/7/2020 2:00:00 AM 1.97 35.546 0.082 6.98 1.68 13.53
12/7/2020 2:15:00 AM 1.96 35.528 0.082 6.98 1.69 13.52
12/7/2020 2:30:00 AM 1.94 35.492 0.082 6.98 1.67 13.53
12/7/2020 2:45:00 AM 1.92 35.456 0.082 6.98 1.66 13.53
12/7/2020 3:00:00 AM 1.91 35.438 0.082 6.98 1.65 13.54
12/7/2020 3:15:00 AM 1.9 35.42 0.082 6.98 1.61 13.54
12/7/2020 3:30:00 AM 1.88 35.384 0.082 6.98 1.68 13.55
12/7/2020 3:45:00 AM 1.88 35.384 0.082 6.98 1.62 13.56
12/7/2020 4:00:00 AM 1.86 35.348 0.082 6.98 1.61 13.56
12/7/2020 4:15:00 AM 1.85 35.33 0.082 6.98 1.62 13.56
12/7/2020 4:30:00 AM 1.83 35.294 0.082 6.98 1.6 13.58
12/7/2020 4:45:00 AM 1.81 35.258 0.082 6.98 1.64 13.58
12/7/2020 5:00:00 AM 1.8 35.24 0.082 6.98 1.65 13.59
12/7/2020 5:15:00 AM 1.79 35.222 0.082 6.98 1.57 13.59
12/7/2020 5:30:00 AM 1.79 35.222 0.082 6.98 1.64 13.59
12/7/2020 5:45:00 AM 1.78 35.204 0.082 6.98 1.62 13.6
12/7/2020 6:00:00 AM 1.77 35.186 0.082 6.98 1.65 13.59
12/7/2020 6:15:00 AM 1.74 35.132 0.082 6.98 1.64 13.61
12/7/2020 6:30:00 AM 1.73 35.114 0.082 6.98 1.6 13.61
12/7/2020 6:45:00 AM 1.72 35.096 0.082 6.98 1.59 13.61
12/7/2020 7:00:00 AM 1.71 35.078 0.082 6.98 1.59 13.62
12/7/2020 7:15:00 AM 1.69 35.042 0.082 6.98 1.57 13.63
12/7/2020 7:30:00 AM 1.68 35.024 0.082 6.98 1.62 13.63
12/7/2020 7:45:00 AM 1.67 35.006 0.082 6.98 1.57 13.65
12/7/2020 8:00:00 AM 1.66 34.988 0.082 6.98 1.56 13.68
12/7/2020 8:15:00 AM 1.65 34.97 0.082 6.99 1.58 13.72
12/7/2020 8:30:00 AM 1.64 34.952 0.082 7 1.62 13.75
12/7/2020 8:45:00 AM 1.63 34.934 0.082 7.01 1.58 13.81
12/7/2020 9:00:00 AM 1.63 34.934 0.082 7.02 1.58 13.87
12/7/2020 9:15:00 AM 1.65 34.97 0.081 7.03 1.55 13.92
12/7/2020 9:30:00 AM 1.65 34.97 0.081 7.04 1.6 13.98
12/7/2020 9:45:00 AM 1.66 34.988 0.081 7.06 1.55 14.01
12/7/2020 10:00:00 AM 1.69 35.042 0.081 7.07 1.57 14.05
12/7/2020 10:15:00 AM 1.73 35.114 0.081 7.08 1.53 14.07
12/7/2020 10:30:00 AM 1.77 35.186 0.081 7.09 1.59 14.09
12/7/2020 10:45:00 AM 1.77 35.186 0.081 7.09 1.54 14.11
12/7/2020 11:00:00 AM 1.77 35.186 0.081 7.1 1.53 14.12
12/7/2020 11:15:00 AM 1.8 35.24 0.081 7.11 1.54 14.13
12/7/2020 11:30:00 AM 1.83 35.294 0.081 7.12 1.52 14.13
12/7/2020 11:45:00 AM 1.87 35.366 0.081 7.12 1.53 14.14
12/7/2020 12:00:00 PM 1.93 35.474 0.081 7.12 1.49 14.12
12/7/2020 12:15:00 PM 1.97 35.546 0.08 7.13 1.54 14.12
12/7/2020 12:30:00 PM 2.04 35.672 0.08 7.13 1.47 14.11
12/7/2020 12:45:00 PM 2.13 35.834 0.08 7.14 1.52 14.11
12/7/2020 1:00:00 PM 2.22 35.996 0.08 7.14 1.51 14.08
12/7/2020 1:15:00 PM 2.29 36.122 0.08 7.15 1.5 14.07
12/7/2020 1:30:00 PM 2.29 36.122 0.08 7.15 1.5 14.05
12/7/2020 1:45:00 PM 2.32 36.176 0.08 7.15 1.53 14.03
12/7/2020 2:00:00 PM 2.32 36.176 0.08 7.15 1.5 14.01
12/7/2020 2:15:00 PM 2.35 36.23 0.08 7.15 1.51 13.98
12/7/2020 2:30:00 PM 2.36 36.248 0.08 7.15 1.53 13.96
12/7/2020 2:45:00 PM 2.36 36.248 0.08 7.15 1.51 13.94
12/7/2020 3:00:00 PM 2.36 36.248 0.08 7.16 1.54 13.94
12/7/2020 3:15:00 PM 2.35 36.23 0.08 7.15 1.52 13.92
12/7/2020 3:30:00 PM 2.33 36.194 0.08 7.15 1.52 13.91
12/7/2020 3:45:00 PM 2.32 36.176 0.08 7.15 1.53 13.89
12/7/2020 4:00:00 PM 2.3 36.14 0.08 7.15 1.5 13.86
12/7/2020 4:15:00 PM 2.3 36.14 0.08 7.14 1.55 13.83
12/7/2020 4:30:00 PM 2.28 36.104 0.08 7.13 1.56 13.79
12/7/2020 4:45:00 PM 2.25 36.05 0.08 7.12 1.52 13.73
12/7/2020 5:00:00 PM 2.22 35.996 0.08 7.1 1.54 13.68
12/7/2020 5:15:00 PM 2.2 35.96 0.08 7.08 1.56 13.63
12/7/2020 5:30:00 PM 2.18 35.924 0.08 7.07 1.53 13.6
12/7/2020 5:45:00 PM 2.15 35.87 0.08 7.06 1.54 13.57
12/7/2020 6:00:00 PM 2.12 35.816 0.08 7.05 1.55 13.56
12/7/2020 6:15:00 PM 2.08 35.744 0.08 7.04 1.58 13.55
12/7/2020 6:30:00 PM 2.04 35.672 0.08 7.03 1.56 13.54
12/7/2020 6:45:00 PM 1.99 35.582 0.08 7.03 1.54 13.55
12/7/2020 7:00:00 PM 1.92 35.456 0.08 7.02 1.62 13.55
12/7/2020 7:15:00 PM 1.86 35.348 0.08 7.02 1.55 13.56
12/7/2020 7:30:00 PM 1.8 35.24 0.08 7.01 1.56 13.58
12/7/2020 7:45:00 PM 1.75 35.15 0.08 7.01 1.6 13.59
12/7/2020 8:00:00 PM 1.69 35.042 0.08 7 1.55 13.61
12/7/2020 8:15:00 PM 1.64 34.952 0.08 7 1.53 13.63
12/7/2020 8:30:00 PM 1.58 34.844 0.08 7 1.54 13.64
12/7/2020 8:45:00 PM 1.53 34.754 0.08 7 1.56 13.66
12/7/2020 9:00:00 PM 1.48 34.664 0.08 6.99 1.57 13.68
12/7/2020 9:15:00 PM 1.44 34.592 0.08 6.99 1.58 13.69
12/7/2020 9:30:00 PM 1.39 34.502 0.08 6.99 1.53 13.7
12/7/2020 9:45:00 PM 1.34 34.412 0.08 6.99 1.55 13.72
12/7/2020 10:00:00 PM 1.3 34.34 0.08 6.99 1.53 13.74
12/7/2020 10:15:00 PM 1.25 34.25 0.08 6.98 1.54 13.76
12/7/2020 10:30:00 PM 1.2 34.16 0.08 6.98 1.52 13.77
12/7/2020 10:45:00 PM 1.16 34.088 0.08 6.99 1.51 13.79
12/7/2020 11:00:00 PM 1.14 34.052 0.08 6.98 1.51 13.81
12/7/2020 11:15:00 PM 1.12 34.016 0.08 6.98 1.58 13.82
12/7/2020 11:30:00 PM 1.11 33.998 0.08 6.98 1.56 13.83
12/7/2020 11:45:00 PM 1.09 33.962 0.08 6.98 1.63 13.84
12/8/2020 12:00:00 AM 1.07 33.926 0.08 6.98 1.59 13.85
12/8/2020 12:15:00 AM 1.06 33.908 0.08 6.98 1.6 13.86
12/8/2020 12:30:00 AM 1.05 33.89 0.08 6.98 1.57 13.87
12/8/2020 12:45:00 AM 1.04 33.872 0.08 6.98 1.52 13.87
12/8/2020 1:00:00 AM 1.03 33.854 0.08 6.98 1.58 13.88
12/8/2020 1:15:00 AM 1.02 33.836 0.08 6.98 1.59 13.88
12/8/2020 1:30:00 AM 1.02 33.836 0.08 6.98 1.55 13.89
12/8/2020 1:45:00 AM 1 33.8 0.08 6.97 1.49 13.9
12/8/2020 2:00:00 AM 0.98 33.764 0.08 6.98 1.54 13.9
12/8/2020 2:15:00 AM 0.96 33.728 0.08 6.98 1.51 13.92
12/8/2020 2:30:00 AM 0.92 33.656 0.08 6.98 1.49 13.92
12/8/2020 2:45:00 AM 0.88 33.584 0.08 6.98 1.53 13.95
12/8/2020 3:00:00 AM 0.86 33.548 0.08 6.98 1.51 13.96
12/8/2020 3:15:00 AM 0.84 33.512 0.08 6.98 1.5 13.96
12/8/2020 3:30:00 AM 0.81 33.458 0.08 6.98 1.48 13.98
12/8/2020 3:45:00 AM 0.76 33.368 0.08 6.98 1.46 14
12/8/2020 4:00:00 AM 0.73 33.314 0.08 6.98 1.49 14
12/8/2020 4:15:00 AM 0.71 33.278 0.08 6.98 1.46 14.01
12/8/2020 4:30:00 AM 0.69 33.242 0.08 6.98 1.48 14.03
12/8/2020 4:45:00 AM 0.66 33.188 0.08 6.97 1.49 14.04
12/8/2020 5:00:00 AM 0.64 33.152 0.08 6.98 1.44 14.05
12/8/2020 5:15:00 AM 0.62 33.116 0.08 6.97 1.45 14.06
12/8/2020 5:30:00 AM 0.59 33.062 0.08 6.98 1.42 14.07
12/8/2020 5:45:00 AM 0.56 33.008 0.08 6.98 1.5 14.08
12/8/2020 6:00:00 AM 0.54 32.972 0.08 6.98 1.46 14.08
12/8/2020 6:15:00 AM 0.5 32.9 0.08 6.97 1.47 14.09
12/8/2020 6:30:00 AM 0.47 32.846 0.08 6.97 1.5 14.11
12/8/2020 6:45:00 AM 0.43 32.774 0.08 6.97 1.46 14.13
12/8/2020 7:00:00 AM 0.4 32.72 0.08 6.97 1.45 14.12
12/8/2020 7:15:00 AM 0.38 32.684 0.08 6.97 1.46 14.14
12/8/2020 7:30:00 AM 0.35 32.63 0.08 6.97 1.48 14.16
12/8/2020 7:45:00 AM 0.32 32.576 0.08 6.97 1.5 14.2
12/8/2020 8:00:00 AM 0.29 32.522 0.079 6.98 1.48 14.25
12/8/2020 8:15:00 AM 0.27 32.486 0.079 6.99 1.44 14.31
12/8/2020 8:30:00 AM 0.27 32.486 0.079 7 1.46 14.37
12/8/2020 8:45:00 AM 0.26 32.468 0.079 7.01 1.43 14.43
12/8/2020 9:00:00 AM 0.26 32.468 0.079 7.02 1.46 14.47
12/8/2020 9:15:00 AM 0.27 32.486 0.079 7.03 1.44 14.51
12/8/2020 9:30:00 AM 0.28 32.504 0.079 7.04 1.46 14.56
12/8/2020 9:45:00 AM 0.29 32.522 0.079 7.05 1.46 14.58
12/8/2020 10:00:00 AM 0.3 32.54 0.079 7.05 1.44 14.61
12/8/2020 10:15:00 AM 0.32 32.576 0.079 7.06 1.43 14.62
12/8/2020 10:30:00 AM 0.33 32.594 0.079 7.06 1.41 14.63
12/8/2020 10:45:00 AM 0.35 32.63 0.079 7.06 1.43 14.65
12/8/2020 11:00:00 AM 0.36 32.648 0.079 7.07 1.39 14.65
12/8/2020 11:15:00 AM 0.39 32.702 0.079 7.07 1.44 14.64
12/8/2020 11:30:00 AM 0.41 32.738 0.079 7.07 1.36 14.65
12/8/2020 11:45:00 AM 0.44 32.792 0.079 7.08 1.39 14.65
12/8/2020 12:00:00 PM 0.46 32.828 0.079 7.08 1.4 14.64
12/8/2020 12:15:00 PM 0.5 32.9 0.079 7.08 1.39 14.65
12/8/2020 12:30:00 PM 0.54 32.972 0.078 7.08 1.4 14.64
12/8/2020 12:45:00 PM 0.58 33.044 0.078 7.08 1.42 14.63
12/8/2020 1:00:00 PM 0.62 33.116 0.078 7.08 1.43 14.6
12/8/2020 1:15:00 PM 0.66 33.188 0.078 7.09 1.38 14.6
12/8/2020 1:30:00 PM 0.7 33.26 0.078 7.08 1.37 14.59
12/8/2020 1:45:00 PM 0.73 33.314 0.078 7.08 1.41 14.57
12/8/2020 2:00:00 PM 0.77 33.386 0.078 7.08 1.37 14.54
12/8/2020 2:15:00 PM 0.8 33.44 0.078 7.08 1.41 14.52
12/8/2020 2:30:00 PM 0.82 33.476 0.078 7.08 1.39 14.51
12/8/2020 2:45:00 PM 0.85 33.53 0.078 7.08 1.37 14.49
12/8/2020 3:00:00 PM 0.87 33.566 0.078 7.08 1.41 14.47
12/8/2020 3:15:00 PM 0.9 33.62 0.078 7.08 1.41 14.45
12/8/2020 3:30:00 PM 0.92 33.656 0.078 7.08 1.43 14.41
12/8/2020 3:45:00 PM 0.95 33.71 0.078 7.08 1.4 14.38
12/8/2020 4:00:00 PM 0.97 33.746 0.078 7.08 1.41 14.35
12/8/2020 4:15:00 PM 0.99 33.782 0.078 7.07 1.37 14.33
12/8/2020 4:30:00 PM 1.02 33.836 0.078 7.07 1.39 14.29
12/8/2020 4:45:00 PM 1.04 33.872 0.078 7.06 1.39 14.23
12/8/2020 5:00:00 PM 1.07 33.926 0.078 7.05 1.42 14.17
12/8/2020 5:15:00 PM 1.09 33.962 0.078 7.04 1.38 14.11
12/8/2020 5:30:00 PM 1.1 33.98 0.078 7.03 1.43 14.07
12/8/2020 5:45:00 PM 1.1 33.98 0.078 7.02 1.41 14.04
12/8/2020 6:00:00 PM 1.12 34.016 0.078 7.01 1.44 14.02
12/8/2020 6:15:00 PM 1.14 34.052 0.078 7.01 1.43 13.99
12/8/2020 6:30:00 PM 1.15 34.07 0.078 7 1.41 13.97
12/8/2020 6:45:00 PM 1.16 34.088 0.078 7 1.47 13.95
12/8/2020 7:00:00 PM 1.17 34.106 0.078 6.99 1.48 13.94
12/8/2020 7:15:00 PM 1.17 34.106 0.078 6.99 1.48 13.93
12/8/2020 7:30:00 PM 1.16 34.088 0.078 6.99 1.46 13.93
12/8/2020 7:45:00 PM 1.16 34.088 0.078 6.98 1.5 13.93
12/8/2020 8:00:00 PM 1.15 34.07 0.078 6.98 1.5 13.93
12/8/2020 8:15:00 PM 1.14 34.052 0.078 6.98 1.48 13.93
12/8/2020 8:30:00 PM 1.12 34.016 0.078 6.98 1.48 13.94
12/8/2020 8:45:00 PM 1.11 33.998 0.078 6.98 1.44 13.94
12/8/2020 9:00:00 PM 1.09 33.962 0.078 6.98 1.46 13.94
12/8/2020 9:15:00 PM 1.08 33.944 0.078 6.98 1.49 13.95
12/8/2020 9:30:00 PM 1.07 33.926 0.078 6.97 1.47 13.95
12/8/2020 9:45:00 PM 1.06 33.908 0.078 6.97 1.47 13.95
12/8/2020 10:00:00 PM 1.05 33.89 0.078 6.97 1.46 13.96
12/8/2020 10:15:00 PM 1.04 33.872 0.078 6.97 1.41 13.97
12/8/2020 10:30:00 PM 1.03 33.854 0.078 6.97 1.45 13.96
12/8/2020 10:45:00 PM 1.03 33.854 0.078 6.97 1.49 13.97
12/8/2020 11:00:00 PM 1.02 33.836 0.078 6.97 1.46 13.97
12/8/2020 11:15:00 PM 1.01 33.818 0.078 6.97 1.49 13.97
12/8/2020 11:30:00 PM 1 33.8 0.078 6.97 1.45 13.97
12/8/2020 11:45:00 PM 1 33.8 0.078 6.96 1.43 13.97
12/9/2020 12:00:00 AM 0.99 33.782 0.078 6.96 1.6 13.98
12/9/2020 12:15:00 AM 0.98 33.764 0.078 6.96 1.43 13.98
12/9/2020 12:30:00 AM 0.97 33.746 0.078 6.96 1.41 13.98
12/9/2020 12:45:00 AM 0.97 33.746 0.078 6.96 1.43 13.98
12/9/2020 1:00:00 AM 0.97 33.746 0.078 6.95 1.42 13.97
12/9/2020 1:15:00 AM 0.96 33.728 0.078 6.95 1.44 13.97
12/9/2020 1:30:00 AM 0.96 33.728 0.078 6.95 1.45 13.97
12/9/2020 1:45:00 AM 0.96 33.728 0.078 6.96 1.42 13.97
12/9/2020 2:00:00 AM 0.96 33.728 0.078 6.95 1.48 13.96
12/9/2020 2:15:00 AM 0.95 33.71 0.078 6.96 1.46 13.96
12/9/2020 2:30:00 AM 0.95 33.71 0.078 6.95 1.44 13.95
12/9/2020 2:45:00 AM 0.96 33.728 0.078 6.95 1.41 13.96
12/9/2020 3:00:00 AM 0.96 33.728 0.078 6.95 1.47 13.95
12/9/2020 3:15:00 AM 0.96 33.728 0.078 6.96 1.41 13.95
12/9/2020 3:30:00 AM 0.95 33.71 0.078 6.96 1.44 13.94
12/9/2020 3:45:00 AM 0.96 33.728 0.078 6.96 1.42 13.94
12/9/2020 4:00:00 AM 0.96 33.728 0.078 6.96 1.41 13.94
12/9/2020 4:15:00 AM 0.95 33.71 0.078 6.96 1.44 13.94
12/9/2020 4:30:00 AM 0.95 33.71 0.078 6.95 1.37 13.95
12/9/2020 4:45:00 AM 0.95 33.71 0.078 6.95 1.41 13.94
12/9/2020 5:00:00 AM 0.95 33.71 0.078 6.95 1.41 13.94
12/9/2020 5:15:00 AM 0.94 33.692 0.078 6.95 1.41 13.93
12/9/2020 5:30:00 AM 0.94 33.692 0.078 6.95 1.37 13.94
12/9/2020 5:45:00 AM 0.94 33.692 0.078 6.96 1.4 13.94
12/9/2020 6:00:00 AM 0.94 33.692 0.078 6.95 1.44 13.93
12/9/2020 6:15:00 AM 0.94 33.692 0.078 6.95 1.38 13.93
12/9/2020 6:30:00 AM 0.93 33.674 0.078 6.95 1.39 13.94
12/9/2020 6:45:00 AM 0.93 33.674 0.078 6.95 1.4 13.93
12/9/2020 7:00:00 AM 0.93 33.674 0.078 6.95 1.42 13.94
12/9/2020 7:15:00 AM 0.92 33.656 0.078 6.95 1.42 13.93
12/9/2020 7:30:00 AM 0.92 33.656 0.078 6.95 1.44 13.94
12/9/2020 7:45:00 AM 0.91 33.638 0.078 6.95 1.42 13.95
12/9/2020 8:00:00 AM 0.91 33.638 0.078 6.95 1.39 13.95
12/9/2020 8:15:00 AM 0.91 33.638 0.078 6.96 1.38 13.97
12/9/2020 8:30:00 AM 0.91 33.638 0.078 6.96 1.43 13.99
12/9/2020 8:45:00 AM 0.91 33.638 0.078 6.97 1.4 14.02
12/9/2020 9:00:00 AM 0.92 33.656 0.078 6.97 1.41 14.06
12/9/2020 9:15:00 AM 0.93 33.674 0.078 6.99 1.39 14.12
12/9/2020 9:30:00 AM 0.96 33.728 0.078 7 1.38 14.18
12/9/2020 9:45:00 AM 0.99 33.782 0.078 7.01 1.39 14.21
12/9/2020 10:00:00 AM 1 33.8 0.077 7.02 1.36 14.22
12/9/2020 10:15:00 AM 1.01 33.818 0.077 7.02 1.37 14.23
12/9/2020 10:30:00 AM 1.02 33.836 0.077 7.03 1.38 14.24
12/9/2020 10:45:00 AM 1.04 33.872 0.077 7.03 1.36 14.26
12/9/2020 11:00:00 AM 1.06 33.908 0.077 7.03 1.37 14.26
12/9/2020 11:15:00 AM 1.09 33.962 0.077 7.04 1.32 14.26
12/9/2020 11:30:00 AM 1.11 33.998 0.077 7.05 1.35 14.25
12/9/2020 11:45:00 AM 1.12 34.016 0.077 7.05 1.35 14.25
12/9/2020 12:00:00 PM 1.15 34.07 0.077 7.05 1.33 14.26
12/9/2020 12:15:00 PM 1.18 34.124 0.077 7.06 1.35 14.26
12/9/2020 12:30:00 PM 1.2 34.16 0.077 7.06 1.33 14.25
12/9/2020 12:45:00 PM 1.23 34.214 0.077 7.06 1.33 14.25
12/9/2020 1:00:00 PM 1.25 34.25 0.077 7.07 1.36 14.24
12/9/2020 1:15:00 PM 1.28 34.304 0.077 7.07 1.32 14.23
12/9/2020 1:30:00 PM 1.29 34.322 0.077 7.07 1.35 14.21
12/9/2020 1:45:00 PM 1.32 34.376 0.077 7.07 1.41 14.18
12/9/2020 2:00:00 PM 1.33 34.394 0.077 7.06 1.36 14.17
12/9/2020 2:15:00 PM 1.35 34.43 0.077 7.06 1.38 14.14
12/9/2020 2:30:00 PM 1.37 34.466 0.077 7.06 1.34 14.13
12/9/2020 2:45:00 PM 1.39 34.502 0.077 7.06 1.39 14.11
12/9/2020 3:00:00 PM 1.41 34.538 0.077 7.06 1.36 14.1
12/9/2020 3:15:00 PM 1.43 34.574 0.077 7.06 1.36 14.08
12/9/2020 3:30:00 PM 1.45 34.61 0.077 7.05 1.38 14.06
12/9/2020 3:45:00 PM 1.46 34.628 0.077 7.05 1.35 14.03
12/9/2020 4:00:00 PM 1.48 34.664 0.077 7.04 1.35 13.99
12/9/2020 4:15:00 PM 1.49 34.682 0.077 7.04 1.35 13.96
12/9/2020 4:30:00 PM 1.5 34.7 0.077 7.03 1.36 13.92
12/9/2020 4:45:00 PM 1.52 34.736 0.077 7.02 1.37 13.89
12/9/2020 5:00:00 PM 1.53 34.754 0.077 7.01 1.38 13.85
12/9/2020 5:15:00 PM 1.54 34.772 0.077 7 1.36 13.83
12/9/2020 5:30:00 PM 1.55 34.79 0.077 7 1.36 13.8
12/9/2020 5:45:00 PM 1.56 34.808 0.077 6.99 1.41 13.78
12/9/2020 6:00:00 PM 1.57 34.826 0.077 6.98 1.38 13.76
12/9/2020 6:15:00 PM 1.57 34.826 0.077 6.98 1.37 13.75
12/9/2020 6:30:00 PM 1.58 34.844 0.077 6.98 1.39 13.74
12/9/2020 6:45:00 PM 1.59 34.862 0.077 6.97 1.4 13.73
12/9/2020 7:00:00 PM 1.6 34.88 0.077 6.97 1.37 13.72
12/9/2020 7:15:00 PM 1.61 34.898 0.077 6.97 1.36 13.71
12/9/2020 7:30:00 PM 1.62 34.916 0.077 6.96 1.38 13.71
12/9/2020 7:45:00 PM 1.62 34.916 0.077 6.96 1.41 13.7
12/9/2020 8:00:00 PM 1.63 34.934 0.077 6.96 1.4 13.7
12/9/2020 8:15:00 PM 1.64 34.952 0.077 6.96 1.43 13.69
12/9/2020 8:30:00 PM 1.65 34.97 0.077 6.96 1.46 13.69
12/9/2020 8:45:00 PM 1.66 34.988 0.077 6.96 1.38 13.68
12/9/2020 9:00:00 PM 1.67 35.006 0.077 6.95 1.4 13.68
12/9/2020 9:15:00 PM 1.68 35.024 0.077 6.95 1.38 13.68
12/9/2020 9:30:00 PM 1.69 35.042 0.077 6.95 1.43 13.68
12/9/2020 9:45:00 PM 1.7 35.06 0.077 6.95 1.43 13.67
12/9/2020 10:00:00 PM 1.71 35.078 0.077 6.95 1.47 13.67
12/9/2020 10:15:00 PM 1.72 35.096 0.077 6.95 1.43 13.67
12/9/2020 10:30:00 PM 1.73 35.114 0.077 6.95 1.44 13.66
12/9/2020 10:45:00 PM 1.75 35.15 0.077 6.95 1.43 13.66
12/9/2020 11:00:00 PM 1.76 35.168 0.077 6.95 1.42 13.65
12/9/2020 11:15:00 PM 1.77 35.186 0.077 6.95 1.41 13.65
12/9/2020 11:30:00 PM 1.78 35.204 0.077 6.95 1.43 13.65
12/9/2020 11:45:00 PM 1.79 35.222 0.077 6.95 1.45 13.64
12/10/2020 12:00:00 AM 1.8 35.24 0.077 6.95 1.43 13.64
12/10/2020 12:15:00 AM 1.79 35.222 0.077 6.95 1.43 13.65
12/10/2020 12:30:00 AM 1.78 35.204 0.077 6.95 1.37 13.64
12/10/2020 12:45:00 AM 1.8 35.24 0.077 6.95 1.35 13.63
12/10/2020 1:00:00 AM 1.82 35.276 0.077 6.95 1.35 13.64
12/10/2020 1:15:00 AM 1.83 35.294 0.077 6.95 1.37 13.64
12/10/2020 1:30:00 AM 1.84 35.312 0.077 6.95 1.35 13.63
12/10/2020 1:45:00 AM 1.85 35.33 0.077 6.95 1.35 13.63
12/10/2020 2:00:00 AM 1.84 35.312 0.077 6.95 1.37 13.63
12/10/2020 2:15:00 AM 1.84 35.312 0.077 6.95 1.38 13.63
12/10/2020 2:30:00 AM 1.86 35.348 0.077 6.95 1.38 13.63
12/10/2020 2:45:00 AM 1.87 35.366 0.077 6.95 1.38 13.63
12/10/2020 3:00:00 AM 1.88 35.384 0.078 6.95 1.41 13.62
12/10/2020 3:15:00 AM 1.88 35.384 0.078 6.95 1.4 13.63
12/10/2020 3:30:00 AM 1.89 35.402 0.078 6.94 1.39 13.63
12/10/2020 3:45:00 AM 1.89 35.402 0.078 6.94 1.38 13.63
12/10/2020 4:00:00 AM 1.89 35.402 0.078 6.95 1.38 13.63
12/10/2020 4:15:00 AM 1.89 35.402 0.078 6.94 1.43 13.64
12/10/2020 4:30:00 AM 1.9 35.42 0.078 6.94 1.45 13.63
12/10/2020 4:45:00 AM 1.91 35.438 0.078 6.94 1.42 13.63
12/10/2020 5:00:00 AM 1.92 35.456 0.078 6.94 1.48 13.63
12/10/2020 5:15:00 AM 1.93 35.474 0.078 6.94 1.4 13.63
12/10/2020 5:30:00 AM 1.94 35.492 0.078 6.94 1.43 13.62
12/10/2020 5:45:00 AM 1.95 35.51 0.078 6.94 1.44 13.63
12/10/2020 6:00:00 AM 1.96 35.528 0.078 6.94 1.39 13.62
12/10/2020 6:15:00 AM 1.97 35.546 0.078 6.94 1.38 13.62
12/10/2020 6:30:00 AM 1.97 35.546 0.078 6.94 1.39 13.61
12/10/2020 6:45:00 AM 1.98 35.564 0.078 6.94 1.37 13.62
12/10/2020 7:00:00 AM 1.99 35.582 0.078 6.94 1.37 13.61
12/10/2020 7:15:00 AM 2 35.6 0.077 6.94 1.34 13.61
12/10/2020 7:30:00 AM 2 35.6 0.077 6.94 1.36 13.62
12/10/2020 7:45:00 AM 2.01 35.618 0.077 6.94 1.37 13.63
12/10/2020 8:00:00 AM 2.02 35.636 0.077 6.94 1.35 13.65
12/10/2020 8:15:00 AM 2.03 35.654 0.077 6.95 1.39 13.67
12/10/2020 8:30:00 AM 2.05 35.69 0.077 6.95 1.35 13.71
12/10/2020 8:45:00 AM 2.07 35.726 0.077 6.96 1.35 13.76
12/10/2020 9:00:00 AM 2.09 35.762 0.077 6.98 1.37 13.8
12/10/2020 9:15:00 AM 2.11 35.798 0.077 6.99 1.35 13.85
12/10/2020 9:30:00 AM 2.14 35.852 0.077 7 1.32 13.88
12/10/2020 9:45:00 AM 2.18 35.924 0.077 7.01 1.28 13.92
12/10/2020 10:00:00 AM 2.21 35.978 0.077 7.03 1.33 13.96
12/10/2020 10:15:00 AM 2.24 36.032 0.077 7.04 1.36 13.99
12/10/2020 10:30:00 AM 2.28 36.104 0.077 7.05 1.35 14
12/10/2020 10:45:00 AM 2.32 36.176 0.077 7.06 1.35 14.02
12/10/2020 11:00:00 AM 2.36 36.248 0.077 7.07 1.33 14.04
12/10/2020 11:15:00 AM 2.41 36.338 0.077 7.08 1.31 14.05
12/10/2020 11:30:00 AM 2.46 36.428 0.076 7.09 1.38 14.06
12/10/2020 11:45:00 AM 2.51 36.518 0.076 7.1 1.34 14.06
12/10/2020 12:00:00 PM 2.56 36.608 0.076 7.11 1.32 14.06
12/10/2020 12:15:00 PM 2.62 36.716 0.076 7.11 1.31 14.06
12/10/2020 12:30:00 PM 2.67 36.806 0.076 7.12 1.33 14.06
12/10/2020 12:45:00 PM 2.72 36.896 0.076 7.12 1.36 14.04
12/10/2020 1:00:00 PM 2.77 36.986 0.076 7.13 1.37 14.03
12/10/2020 1:15:00 PM 2.83 37.094 0.076 7.13 1.33 14.03
12/10/2020 1:30:00 PM 2.88 37.184 0.076 7.13 1.33 14.01
12/10/2020 1:45:00 PM 2.94 37.292 0.076 7.14 1.31 14
12/10/2020 2:00:00 PM 2.99 37.382 0.076 7.14 1.36 13.99
12/10/2020 2:15:00 PM 3.04 37.472 0.076 7.14 1.34 13.96
12/10/2020 2:30:00 PM 3.08 37.544 0.076 7.15 1.35 13.95
12/10/2020 2:45:00 PM 3.08 37.544 0.076 7.15 1.34 13.93
12/10/2020 3:00:00 PM 3.09 37.562 0.076 7.15 1.36 13.9
12/10/2020 3:15:00 PM 3.05 37.49 0.076 7.15 1.36 13.88
12/10/2020 3:30:00 PM 3.02 37.436 0.076 7.14 1.35 13.85
12/10/2020 3:45:00 PM 2.99 37.382 0.076 7.13 1.34 13.81
12/10/2020 4:00:00 PM 2.97 37.346 0.076 7.12 1.44 13.79
12/10/2020 4:15:00 PM 2.94 37.292 0.076 7.11 1.37 13.75
12/10/2020 4:30:00 PM 2.91 37.238 0.076 7.09 1.43 13.7
12/10/2020 4:45:00 PM 2.86 37.148 0.076 7.08 1.45 13.65
12/10/2020 5:00:00 PM 2.82 37.076 0.076 7.06 1.43 13.6
12/10/2020 5:15:00 PM 2.78 37.004 0.076 7.05 1.47 13.55
12/10/2020 5:30:00 PM 2.75 36.95 0.076 7.03 1.47 13.52
12/10/2020 5:45:00 PM 2.72 36.896 0.076 7.02 1.43 13.49
12/10/2020 6:00:00 PM 2.7 36.86 0.076 7.01 1.46 13.47
12/10/2020 6:15:00 PM 2.67 36.806 0.076 7 1.44 13.46
12/10/2020 6:30:00 PM 2.64 36.752 0.076 6.99 1.5 13.44
12/10/2020 6:45:00 PM 2.6 36.68 0.076 6.99 1.62 13.45
12/10/2020 7:00:00 PM 2.56 36.608 0.076 6.98 1.43 13.44
12/10/2020 7:15:00 PM 2.51 36.518 0.076 6.98 1.46 13.44
12/10/2020 7:30:00 PM 2.47 36.446 0.077 6.97 1.46 13.45
12/10/2020 7:45:00 PM 2.42 36.356 0.077 6.97 1.46 13.46
12/10/2020 8:00:00 PM 2.37 36.266 0.077 6.97 1.48 13.47
12/10/2020 8:15:00 PM 2.32 36.176 0.077 6.96 1.45 13.48
12/10/2020 8:30:00 PM 2.27 36.086 0.077 6.96 1.54 13.49
12/10/2020 8:45:00 PM 2.22 35.996 0.077 6.96 1.48 13.51
12/10/2020 9:00:00 PM 2.17 35.906 0.077 6.96 1.46 13.53
12/10/2020 9:15:00 PM 2.11 35.798 0.077 6.96 1.43 13.54
12/10/2020 9:30:00 PM 2.05 35.69 0.077 6.95 1.45 13.57
12/10/2020 9:45:00 PM 2 35.6 0.077 6.95 1.49 13.58
12/10/2020 10:00:00 PM 1.95 35.51 0.077 6.95 1.44 13.6
12/10/2020 10:15:00 PM 1.9 35.42 0.077 6.95 1.42 13.62
12/10/2020 10:30:00 PM 1.85 35.33 0.077 6.95 1.46 13.65
12/10/2020 10:45:00 PM 1.81 35.258 0.077 6.95 1.42 13.66
12/10/2020 11:00:00 PM 1.76 35.168 0.077 6.95 1.44 13.68
12/10/2020 11:15:00 PM 1.72 35.096 0.077 6.95 1.45 13.69
12/10/2020 11:30:00 PM 1.68 35.024 0.077 6.95 1.41 13.7
12/10/2020 11:45:00 PM 1.66 34.988 0.077 6.95 1.43 13.71
12/11/2020 12:00:00 AM 1.65 34.97 0.078 6.95 1.41 13.73
12/11/2020 12:15:00 AM 1.63 34.934 0.078 6.94 1.43 13.74
12/11/2020 12:30:00 AM 1.63 34.934 0.078 6.95 1.44 13.74
12/11/2020 12:45:00 AM 1.63 34.934 0.078 6.95 1.42 13.74
12/11/2020 1:00:00 AM 1.62 34.916 0.078 6.95 1.41 13.75
12/11/2020 1:15:00 AM 1.62 34.916 0.078 6.95 1.37 13.75
12/11/2020 1:30:00 AM 1.61 34.898 0.078 6.95 1.43 13.76
12/11/2020 1:45:00 AM 1.59 34.862 0.078 6.95 1.41 13.76
12/11/2020 2:00:00 AM 1.58 34.844 0.078 6.95 1.39 13.77
12/11/2020 2:15:00 AM 1.57 34.826 0.078 6.95 1.45 13.78
12/11/2020 2:30:00 AM 1.56 34.808 0.078 6.95 1.54 13.78
12/11/2020 2:45:00 AM 1.55 34.79 0.078 6.95 1.48 13.78
12/11/2020 3:00:00 AM 1.54 34.772 0.078 6.95 1.46 13.79
12/11/2020 3:15:00 AM 1.53 34.754 0.078 6.95 1.41 13.79
12/11/2020 3:30:00 AM 1.51 34.718 0.078 6.95 1.45 13.8
12/11/2020 3:45:00 AM 1.5 34.7 0.078 6.95 1.43 13.8
12/11/2020 4:00:00 AM 1.49 34.682 0.078 6.95 1.4 13.81
12/11/2020 4:15:00 AM 1.47 34.646 0.078 6.95 1.37 13.81
12/11/2020 4:30:00 AM 1.46 34.628 0.078 6.95 1.46 13.81
12/11/2020 4:45:00 AM 1.44 34.592 0.078 6.95 1.41 13.82
12/11/2020 5:00:00 AM 1.43 34.574 0.078 6.95 1.45 13.82
12/11/2020 5:15:00 AM 1.42 34.556 0.078 6.95 1.43 13.83
12/11/2020 5:30:00 AM 1.4 34.52 0.078 6.95 1.38 13.83
12/11/2020 5:45:00 AM 1.39 34.502 0.078 6.95 1.43 13.84
12/11/2020 6:00:00 AM 1.38 34.484 0.078 6.95 1.42 13.85
12/11/2020 6:15:00 AM 1.36 34.448 0.078 6.95 1.4 13.85
12/11/2020 6:30:00 AM 1.35 34.43 0.078 6.95 1.41 13.86
12/11/2020 6:45:00 AM 1.34 34.412 0.078 6.95 1.44 13.86
12/11/2020 7:00:00 AM 1.33 34.394 0.078 6.95 1.38 13.86
12/11/2020 7:15:00 AM 1.31 34.358 0.078 6.95 1.4 13.87
12/11/2020 7:30:00 AM 1.3 34.34 0.078 6.95 1.41 13.88
12/11/2020 7:45:00 AM 1.29 34.322 0.078 6.95 1.41 13.91
12/11/2020 8:00:00 AM 1.28 34.304 0.078 6.96 1.4 13.97
12/11/2020 8:15:00 AM 1.27 34.286 0.078 6.97 1.44 14.04
12/11/2020 8:30:00 AM 1.25 34.25 0.078 6.98 1.4 14.1
12/11/2020 8:45:00 AM 1.24 34.232 0.078 6.99 1.64 14.16
12/11/2020 9:00:00 AM 1.24 34.232 0.078 7.01 1.44 14.22
12/11/2020 9:15:00 AM 1.26 34.268 0.078 7.02 1.38 14.27
12/11/2020 9:30:00 AM 1.3 34.34 0.078 7.03 1.4 14.32
12/11/2020 9:45:00 AM 1.32 34.376 0.078 7.04 1.39 14.34
12/11/2020 10:00:00 AM 1.35 34.43 0.077 7.05 1.37 14.37
12/11/2020 10:15:00 AM 1.37 34.466 0.077 7.06 1.36 14.39
12/11/2020 10:30:00 AM 1.38 34.484 0.077 7.06 1.36 14.4
12/11/2020 10:45:00 AM 1.41 34.538 0.077 7.07 1.35 14.4
12/11/2020 11:00:00 AM 1.44 34.592 0.077 7.07 1.32 14.4
12/11/2020 11:15:00 AM 1.49 34.682 0.077 7.08 1.36 14.41
12/11/2020 11:30:00 AM 1.55 34.79 0.077 7.08 1.34 14.4
12/11/2020 11:45:00 AM 1.6 34.88 0.077 7.09 1.36 14.4
12/11/2020 12:00:00 PM 1.62 34.916 0.077 7.09 1.37 14.39
12/11/2020 12:15:00 PM 1.67 35.006 0.077 7.1 1.42 14.38
12/11/2020 12:30:00 PM 1.75 35.15 0.077 7.1 1.34 14.37
12/11/2020 12:45:00 PM 1.83 35.294 0.077 7.1 1.36 14.36
12/11/2020 1:00:00 PM 1.91 35.438 0.077 7.1 1.4 14.33
12/11/2020 1:15:00 PM 1.97 35.546 0.077 7.11 1.33 14.31
12/11/2020 1:30:00 PM 2.02 35.636 0.077 7.11 1.36 14.27
12/11/2020 1:45:00 PM 2.06 35.708 0.077 7.11 1.37 14.26
12/11/2020 2:00:00 PM 2.11 35.798 0.077 7.11 1.37 14.23
12/11/2020 2:15:00 PM 2.16 35.888 0.077 7.11 1.4 14.2
12/11/2020 2:30:00 PM 2.21 35.978 0.077 7.11 1.41 14.17
12/11/2020 2:45:00 PM 2.25 36.05 0.077 7.12 1.38 14.15
12/11/2020 3:00:00 PM 2.29 36.122 0.077 7.12 1.39 14.12
12/11/2020 3:15:00 PM 2.31 36.158 0.077 7.11 1.38 14.08
12/11/2020 3:30:00 PM 2.33 36.194 0.077 7.11 1.36 14.05
12/11/2020 3:45:00 PM 2.37 36.266 0.077 7.11 1.36 14.03
12/11/2020 4:00:00 PM 2.39 36.302 0.077 7.11 1.34 14.01
12/11/2020 4:15:00 PM 2.4 36.32 0.077 7.1 1.36 13.95
12/11/2020 4:30:00 PM 2.4 36.32 0.077 7.09 1.38 13.89
12/11/2020 4:45:00 PM 2.39 36.302 0.077 7.07 1.38 13.82
12/11/2020 5:00:00 PM 2.38 36.284 0.077 7.05 1.4 13.75
12/11/2020 5:15:00 PM 2.37 36.266 0.077 7.04 1.42 13.69
12/11/2020 5:30:00 PM 2.36 36.248 0.077 7.02 1.39 13.65
12/11/2020 5:45:00 PM 2.35 36.23 0.077 7.01 1.39 13.61
12/11/2020 6:00:00 PM 2.34 36.212 0.077 7 1.38 13.58
12/11/2020 6:15:00 PM 2.34 36.212 0.077 6.99 1.4 13.56
12/11/2020 6:30:00 PM 2.34 36.212 0.077 6.99 1.42 13.54
12/11/2020 6:45:00 PM 2.33 36.194 0.078 6.98 1.42 13.53
12/11/2020 7:00:00 PM 2.33 36.194 0.078 6.98 1.39 13.52
12/11/2020 7:15:00 PM 2.32 36.176 0.078 6.97 1.36 13.51
12/11/2020 7:30:00 PM 2.31 36.158 0.078 6.97 1.42 13.51
12/11/2020 7:45:00 PM 2.28 36.104 0.078 6.96 1.42 13.5
12/11/2020 8:00:00 PM 2.25 36.05 0.078 6.96 1.44 13.51
12/11/2020 8:15:00 PM 2.21 35.978 0.078 6.96 1.46 13.51
12/11/2020 8:30:00 PM 2.18 35.924 0.078 6.96 1.46 13.52
12/11/2020 8:45:00 PM 2.14 35.852 0.078 6.96 1.49 13.52
12/11/2020 9:00:00 PM 2.11 35.798 0.078 6.95 1.53 13.53
12/11/2020 9:15:00 PM 2.06 35.708 0.078 6.95 1.5 13.56
12/11/2020 9:30:00 PM 2.02 35.636 0.078 6.95 1.54 13.57
12/11/2020 9:45:00 PM 1.97 35.546 0.078 6.95 1.52 13.59
12/11/2020 10:00:00 PM 1.93 35.474 0.079 6.95 1.51 13.6
12/11/2020 10:15:00 PM 1.88 35.384 0.079 6.95 1.53 13.62
12/11/2020 10:30:00 PM 1.85 35.33 0.079 6.95 1.54 13.63
12/11/2020 10:45:00 PM 1.82 35.276 0.079 6.95 1.45 13.65
12/11/2020 11:00:00 PM 1.79 35.222 0.079 6.94 1.43 13.66
12/11/2020 11:15:00 PM 1.77 35.186 0.079 6.94 1.42 13.67
12/11/2020 11:30:00 PM 1.77 35.186 0.079 6.94 1.38 13.68
12/11/2020 11:45:00 PM 1.76 35.168 0.079 6.95 1.44 13.69
12/12/2020 12:00:00 AM 1.74 35.132 0.079 6.94 1.38 13.69
12/12/2020 12:15:00 AM 1.73 35.114 0.079 6.95 1.41 13.7
12/12/2020 12:30:00 AM 1.73 35.114 0.079 6.94 1.38 13.71
12/12/2020 12:45:00 AM 1.72 35.096 0.079 6.94 1.43 13.71
12/12/2020 1:00:00 AM 1.71 35.078 0.079 6.95 1.41 13.72
12/12/2020 1:15:00 AM 1.71 35.078 0.079 6.94 1.38 13.72
12/12/2020 1:30:00 AM 1.7 35.06 0.079 6.95 1.42 13.73
12/12/2020 1:45:00 AM 1.69 35.042 0.079 6.95 1.42 13.73
12/12/2020 2:00:00 AM 1.68 35.024 0.079 6.95 1.39 13.73
12/12/2020 2:15:00 AM 1.67 35.006 0.079 6.94 1.39 13.74
12/12/2020 2:30:00 AM 1.66 34.988 0.079 6.95 1.39 13.74
12/12/2020 2:45:00 AM 1.66 34.988 0.079 6.95 1.36 13.75
12/12/2020 3:00:00 AM 1.65 34.97 0.08 6.95 1.34 13.75
12/12/2020 3:15:00 AM 1.63 34.934 0.08 6.95 1.39 13.75
12/12/2020 3:30:00 AM 1.62 34.916 0.08 6.95 1.36 13.76
12/12/2020 3:45:00 AM 1.61 34.898 0.08 6.95 1.4 13.76
12/12/2020 4:00:00 AM 1.6 34.88 0.08 6.95 1.37 13.76
12/12/2020 4:15:00 AM 1.6 34.88 0.08 6.95 1.35 13.76
12/12/2020 4:30:00 AM 1.6 34.88 0.08 6.95 1.37 13.77
12/12/2020 4:45:00 AM 1.59 34.862 0.08 6.95 1.34 13.77
12/12/2020 5:00:00 AM 1.58 34.844 0.08 6.95 1.37 13.77
12/12/2020 5:15:00 AM 1.57 34.826 0.08 6.95 1.39 13.77
12/12/2020 5:30:00 AM 1.56 34.808 0.08 6.95 1.36 13.78
12/12/2020 5:45:00 AM 1.55 34.79 0.08 6.95 1.4 13.78
12/12/2020 6:00:00 AM 1.54 34.772 0.08 6.95 1.39 13.78
12/12/2020 6:15:00 AM 1.53 34.754 0.08 6.95 1.36 13.78
12/12/2020 6:30:00 AM 1.52 34.736 0.08 6.95 1.38 13.78
12/12/2020 6:45:00 AM 1.51 34.718 0.08 6.95 1.36 13.79
12/12/2020 7:00:00 AM 1.51 34.718 0.08 6.95 1.36 13.78
12/12/2020 7:15:00 AM 1.51 34.718 0.08 6.94 1.33 13.79
12/12/2020 7:30:00 AM 1.5 34.7 0.08 6.95 1.34 13.79
12/12/2020 7:45:00 AM 1.5 34.7 0.08 6.95 1.36 13.81
12/12/2020 8:00:00 AM 1.5 34.7 0.08 6.95 1.35 13.84
12/12/2020 8:15:00 AM 1.49 34.682 0.08 6.96 1.32 13.88
12/12/2020 8:30:00 AM 1.5 34.7 0.079 6.97 1.35 13.94
12/12/2020 8:45:00 AM 1.52 34.736 0.079 6.98 1.32 14.01
12/12/2020 9:00:00 AM 1.56 34.808 0.079 6.99 1.3 14.07
12/12/2020 9:15:00 AM 1.59 34.862 0.079 7.01 1.34 14.12
12/12/2020 9:30:00 AM 1.61 34.898 0.079 7.02 1.35 14.16
12/12/2020 9:45:00 AM 1.65 34.97 0.079 7.03 1.33 14.19
12/12/2020 10:00:00 AM 1.71 35.078 0.079 7.04 1.36 14.22
12/12/2020 10:15:00 AM 1.76 35.168 0.079 7.05 1.36 14.24
12/12/2020 10:30:00 AM 1.8 35.24 0.079 7.06 1.32 14.24
12/12/2020 10:45:00 AM 1.86 35.348 0.079 7.07 1.36 14.25
12/12/2020 11:00:00 AM 1.94 35.492 0.078 7.08 1.39 14.25
12/12/2020 11:15:00 AM 2.02 35.636 0.078 7.09 1.34 14.25
12/12/2020 11:30:00 AM 2.1 35.78 0.078 7.09 1.33 14.23
12/12/2020 11:45:00 AM 2.19 35.942 0.078 7.1 1.34 14.21
12/12/2020 12:00:00 PM 2.29 36.122 0.078 7.1 1.38 14.19
12/12/2020 12:15:00 PM 2.4 36.32 0.078 7.11 1.38 14.17
12/12/2020 12:30:00 PM 2.52 36.536 0.078 7.12 1.35 14.14
12/12/2020 12:45:00 PM 2.56 36.608 0.078 7.13 1.36 14.1
12/12/2020 1:00:00 PM 2.59 36.662 0.078 7.13 1.39 14.06
12/12/2020 1:15:00 PM 2.63 36.734 0.078 7.14 1.41 14.02
12/12/2020 1:30:00 PM 2.65 36.77 0.078 7.14 1.37 13.99
12/12/2020 1:45:00 PM 2.74 36.932 0.078 7.14 1.38 13.97
12/12/2020 2:00:00 PM 2.8 37.04 0.078 7.14 1.35 13.92
12/12/2020 2:15:00 PM 2.84 37.112 0.078 7.15 1.34 13.85
12/12/2020 2:30:00 PM 2.89 37.202 0.077 7.14 1.36 13.83
12/12/2020 2:45:00 PM 2.97 37.346 0.077 7.15 1.34 13.8
12/12/2020 3:00:00 PM 3.05 37.49 0.077 7.15 1.36 13.79
12/12/2020 3:15:00 PM 3.11 37.598 0.077 7.15 1.35 13.75
12/12/2020 3:30:00 PM 3.16 37.688 0.077 7.14 1.39 13.67
12/12/2020 3:45:00 PM 3.19 37.742 0.077 7.12 1.38 13.58
12/12/2020 4:00:00 PM 3.21 37.778 0.077 7.11 1.32 13.52
12/12/2020 4:15:00 PM 3.24 37.832 0.077 7.1 1.37 13.47
12/12/2020 4:30:00 PM 3.28 37.904 0.077 7.08 1.39 13.38
12/12/2020 4:45:00 PM 3.32 37.976 0.077 7.06 1.41 13.32
12/12/2020 5:00:00 PM 3.34 38.012 0.077 7.05 1.39 13.26
12/12/2020 5:15:00 PM 3.37 38.066 0.077 7.03 1.39 13.21
12/12/2020 5:30:00 PM 3.39 38.102 0.077 7.02 1.43 13.16
12/12/2020 5:45:00 PM 3.41 38.138 0.078 7.02 1.39 13.13
12/12/2020 6:00:00 PM 3.42 38.156 0.078 7.01 1.43 13.1
12/12/2020 6:15:00 PM 3.43 38.174 0.078 7 1.47 13.08
12/12/2020 6:30:00 PM 3.43 38.174 0.078 7 1.45 13.06
12/12/2020 6:45:00 PM 3.43 38.174 0.078 6.99 1.47 13.05
12/12/2020 7:00:00 PM 3.43 38.174 0.078 6.99 1.43 13.04
12/12/2020 7:15:00 PM 3.43 38.174 0.078 6.98 1.44 13.03
12/12/2020 7:30:00 PM 3.42 38.156 0.078 6.97 1.45 13.02
12/12/2020 7:45:00 PM 3.41 38.138 0.078 6.97 1.47 13.01
12/12/2020 8:00:00 PM 3.4 38.12 0.078 6.97 1.45 13.01
12/12/2020 8:15:00 PM 3.39 38.102 0.078 6.97 1.44 13
12/12/2020 8:30:00 PM 3.4 38.12 0.078 6.96 1.46 13
12/12/2020 8:45:00 PM 3.41 38.138 0.078 6.96 1.42 12.99
12/12/2020 9:00:00 PM 3.42 38.156 0.079 6.96 1.39 12.99
12/12/2020 9:15:00 PM 3.43 38.174 0.079 6.96 1.41 12.98
12/12/2020 9:30:00 PM 3.44 38.192 0.079 6.95 1.43 12.98
12/12/2020 9:45:00 PM 3.45 38.21 0.08 6.95 1.53 12.96
12/12/2020 10:00:00 PM 3.46 38.228 0.08 6.96 1.44 12.96
12/12/2020 10:15:00 PM 3.48 38.264 0.08 6.96 1.45 12.95
12/12/2020 10:30:00 PM 3.49 38.282 0.08 6.96 1.5 12.95
12/12/2020 10:45:00 PM 3.47 38.246 0.08 6.96 1.46 12.94
12/12/2020 11:00:00 PM 3.48 38.264 0.08 6.96 1.5 12.94
12/12/2020 11:15:00 PM 3.5 38.3 0.08 6.96 1.49 12.93
12/12/2020 11:30:00 PM 3.51 38.318 0.08 6.95 1.52 12.93
12/12/2020 11:45:00 PM 3.52 38.336 0.08 6.95 1.56 12.92
12/13/2020 12:00:00 AM 3.54 38.372 0.08 6.95 1.51 12.92
12/13/2020 12:15:00 AM 3.55 38.39 0.08 6.95 1.52 12.91
12/13/2020 12:30:00 AM 3.58 38.444 0.08 6.95 1.54 12.91
12/13/2020 12:45:00 AM 3.6 38.48 0.08 6.96 1.48 12.9
12/13/2020 1:00:00 AM 3.64 38.552 0.08 6.96 1.54 12.89
12/13/2020 1:15:00 AM 3.68 38.624 0.08 6.96 1.54 12.87
12/13/2020 1:30:00 AM 3.72 38.696 0.08 6.96 1.56 12.86
12/13/2020 1:45:00 AM 3.78 38.804 0.079 6.96 1.55 12.85
12/13/2020 2:00:00 AM 3.81 38.858 0.079 6.96 1.52 12.84
12/13/2020 2:15:00 AM 3.83 38.894 0.079 6.96 1.51 12.83
12/13/2020 2:30:00 AM 3.82 38.876 0.079 6.95 1.5 12.83
12/13/2020 2:45:00 AM 3.82 38.876 0.079 6.95 1.67 12.82
12/13/2020 3:00:00 AM 3.82 38.876 0.079 6.95 1.59 12.82
12/13/2020 3:15:00 AM 3.81 38.858 0.079 6.95 1.55 12.82
12/13/2020 3:30:00 AM 3.8 38.84 0.079 6.95 1.51 12.81
12/13/2020 3:45:00 AM 3.79 38.822 0.079 6.95 1.52 12.82
12/13/2020 4:00:00 AM 3.79 38.822 0.079 6.95 1.55 12.82
12/13/2020 4:15:00 AM 3.78 38.804 0.079 6.95 1.48 12.82
12/13/2020 4:30:00 AM 3.78 38.804 0.079 6.95 1.55 12.82
12/13/2020 4:45:00 AM 3.78 38.804 0.079 6.95 1.54 12.82
12/13/2020 5:00:00 AM 3.79 38.822 0.079 6.96 1.61 12.82
12/13/2020 5:15:00 AM 3.81 38.858 0.079 6.96 1.54 12.82
12/13/2020 5:30:00 AM 3.82 38.876 0.079 6.96 1.54 12.82
12/13/2020 5:45:00 AM 3.83 38.894 0.079 6.96 1.57 12.82
12/13/2020 6:00:00 AM 3.84 38.912 0.079 6.96 1.65 12.82
12/13/2020 6:15:00 AM 3.85 38.93 0.08 6.97 1.65 12.82
12/13/2020 6:30:00 AM 3.87 38.966 0.08 6.97 1.74 12.82
12/13/2020 6:45:00 AM 3.89 39.002 0.08 6.97 1.71 12.81
12/13/2020 7:00:00 AM 3.9 39.02 0.08 6.97 1.71 12.81
12/13/2020 7:15:00 AM 3.92 39.056 0.079 6.96 1.73 12.81
12/13/2020 7:30:00 AM 3.93 39.074 0.079 6.97 1.73 12.81
12/13/2020 7:45:00 AM 3.94 39.092 0.079 6.97 1.71 12.82
12/13/2020 8:00:00 AM 3.95 39.11 0.079 6.97 1.72 12.83
12/13/2020 8:15:00 AM 3.96 39.128 0.079 6.97 1.76 12.85
12/13/2020 8:30:00 AM 3.97 39.146 0.079 6.98 1.77 12.87
12/13/2020 8:45:00 AM 3.99 39.182 0.079 6.99 1.8 12.9
12/13/2020 9:00:00 AM 4.01 39.218 0.079 7 1.81 12.97
12/13/2020 9:15:00 AM 4.04 39.272 0.079 7.01 1.79 13.02
12/13/2020 9:30:00 AM 4.06 39.308 0.078 7.02 1.7 13.06
12/13/2020 9:45:00 AM 4.11 39.398 0.078 7.04 1.73 13.13
12/13/2020 10:00:00 AM 4.14 39.452 0.078 7.06 1.69 13.18
12/13/2020 10:15:00 AM 4.16 39.488 0.078 7.07 1.66 13.19
12/13/2020 10:30:00 AM 4.17 39.506 0.078 7.07 1.68 13.19
12/13/2020 10:45:00 AM 4.19 39.542 0.078 7.07 1.68 13.2
12/13/2020 11:00:00 AM 4.21 39.578 0.078 7.08 1.68 13.22
12/13/2020 11:15:00 AM 4.26 39.668 0.078 7.09 1.66 13.25
12/13/2020 11:30:00 AM 4.31 39.758 0.077 7.1 1.72 13.27
12/13/2020 11:45:00 AM 4.33 39.794 0.077 7.11 1.69 13.29
12/13/2020 12:00:00 PM 4.38 39.884 0.077 7.12 1.69 13.31
12/13/2020 12:15:00 PM 4.45 40.01 0.077 7.13 1.74 13.32
12/13/2020 12:30:00 PM 4.5 40.1 0.077 7.14 1.74 13.33
12/13/2020 12:45:00 PM 4.49 40.082 0.077 7.14 1.84 13.3
12/13/2020 1:00:00 PM 4.53 40.154 0.077 7.14 1.73 13.3
12/13/2020 1:15:00 PM 4.6 40.28 0.077 7.15 1.73 13.32
12/13/2020 1:30:00 PM 4.65 40.37 0.077 7.16 1.75 13.31
12/13/2020 1:45:00 PM 4.67 40.406 0.076 7.17 1.78 13.3
12/13/2020 2:00:00 PM 4.68 40.424 0.076 7.17 1.79 13.29
12/13/2020 2:15:00 PM 4.71 40.478 0.076 7.17 1.81 13.29
12/13/2020 2:30:00 PM 4.74 40.532 0.076 7.17 1.85 13.29
12/13/2020 2:45:00 PM 4.74 40.532 0.076 7.17 1.72 13.24
12/13/2020 3:00:00 PM 4.73 40.514 0.076 7.16 1.83 13.2
12/13/2020 3:15:00 PM 4.76 40.568 0.076 7.16 1.78 13.22
12/13/2020 3:30:00 PM 4.76 40.568 0.076 7.16 1.78 13.21
12/13/2020 3:45:00 PM 4.75 40.55 0.076 7.16 1.91 13.17
12/13/2020 4:00:00 PM 4.74 40.532 0.076 7.14 1.89 13.12
12/13/2020 4:15:00 PM 4.73 40.514 0.076 7.13 1.96 13.07
12/13/2020 4:30:00 PM 4.71 40.478 0.076 7.11 1.97 13.01
12/13/2020 4:45:00 PM 4.7 40.46 0.076 7.1 2 12.96
12/13/2020 5:00:00 PM 4.68 40.424 0.076 7.08 2.05 12.89
12/13/2020 5:15:00 PM 4.66 40.388 0.076 7.06 2.08 12.85
12/13/2020 5:30:00 PM 4.64 40.352 0.076 7.04 2.08 12.81
12/13/2020 5:45:00 PM 4.62 40.316 0.076 7.03 2.03 12.78
12/13/2020 6:00:00 PM 4.61 40.298 0.076 7.02 2.04 12.76
12/13/2020 6:15:00 PM 4.59 40.262 0.076 7.01 2.02 12.74
12/13/2020 6:30:00 PM 4.57 40.226 0.076 7 2.03 12.72
12/13/2020 6:45:00 PM 4.54 40.172 0.076 7 2.09 12.72
12/13/2020 7:00:00 PM 4.52 40.136 0.076 6.99 2.06 12.71
12/13/2020 7:15:00 PM 4.51 40.118 0.076 6.98 2.08 12.71
12/13/2020 7:30:00 PM 4.49 40.082 0.076 6.98 2.08 12.7
12/13/2020 7:45:00 PM 4.47 40.046 0.076 6.98 2.12 12.7
12/13/2020 8:00:00 PM 4.45 40.01 0.076 6.97 2.11 12.7
12/13/2020 8:15:00 PM 4.44 39.992 0.076 6.97 2.13 12.7
12/13/2020 8:30:00 PM 4.42 39.956 0.076 6.97 2.15 12.7
12/13/2020 8:45:00 PM 4.41 39.938 0.076 6.96 2.12 12.69
12/13/2020 9:00:00 PM 4.39 39.902 0.076 6.96 2.19 12.7
12/13/2020 9:15:00 PM 4.37 39.866 0.076 6.96 2.35 12.7
12/13/2020 9:30:00 PM 4.34 39.812 0.076 6.96 2.25 12.7
12/13/2020 9:45:00 PM 4.31 39.758 0.076 6.96 2.32 12.71
12/13/2020 10:00:00 PM 4.3 39.74 0.076 6.96 2.33 12.71
12/13/2020 10:15:00 PM 4.29 39.722 0.076 6.96 2.4 12.72
12/13/2020 10:30:00 PM 4.28 39.704 0.076 6.96 2.39 12.72
12/13/2020 10:45:00 PM 4.25 39.65 0.076 6.96 2.46 12.73
12/13/2020 11:00:00 PM 4.22 39.596 0.077 6.96 2.56 12.73
12/13/2020 11:15:00 PM 4.21 39.578 0.077 6.95 2.46 12.74
12/13/2020 11:30:00 PM 4.19 39.542 0.077 6.95 2.55 12.74
12/13/2020 11:45:00 PM 4.16 39.488 0.077 6.95 2.47 12.74
12/14/2020 12:00:00 AM 4.14 39.452 0.077 6.95 2.44 12.75
12/14/2020 12:15:00 AM 4.11 39.398 0.077 6.95 2.45 12.76
12/14/2020 12:30:00 AM 4.08 39.344 0.077 6.95 2.53 12.76
12/14/2020 12:45:00 AM 4.07 39.326 0.077 6.95 2.44 12.77
12/14/2020 1:00:00 AM 4.05 39.29 0.077 6.95 2.48 12.78
12/14/2020 1:15:00 AM 4.03 39.254 0.077 6.95 2.45 12.78
12/14/2020 1:30:00 AM 4.01 39.218 0.077 6.95 2.36 12.79
12/14/2020 1:45:00 AM 3.99 39.182 0.077 6.95 2.35 12.8
12/14/2020 2:00:00 AM 3.97 39.146 0.077 6.95 2.32 12.8
12/14/2020 2:15:00 AM 3.96 39.128 0.077 6.95 2.34 12.81
12/14/2020 2:30:00 AM 3.94 39.092 0.077 6.95 2.34 12.81
12/14/2020 2:45:00 AM 3.92 39.056 0.077 6.95 2.29 12.81
12/14/2020 3:00:00 AM 3.91 39.038 0.077 6.95 2.27 12.81
12/14/2020 3:15:00 AM 3.9 39.02 0.077 6.95 2.29 12.82
12/14/2020 3:30:00 AM 3.88 38.984 0.077 6.95 2.22 12.83
12/14/2020 3:45:00 AM 3.87 38.966 0.077 6.95 2.21 12.83
12/14/2020 4:00:00 AM 3.85 38.93 0.077 6.95 2.19 12.84
12/14/2020 4:15:00 AM 3.84 38.912 0.077 6.95 2.17 12.84
12/14/2020 4:30:00 AM 3.82 38.876 0.077 6.95 2.2 12.84
12/14/2020 4:45:00 AM 3.81 38.858 0.077 6.95 2.3 12.85
12/14/2020 5:00:00 AM 3.79 38.822 0.077 6.95 2.25 12.86
12/14/2020 5:15:00 AM 3.77 38.786 0.078 6.95 2.29 12.86
12/14/2020 5:30:00 AM 3.74 38.732 0.078 6.95 2.24 12.86
12/14/2020 5:45:00 AM 3.72 38.696 0.078 6.95 2.3 12.86
12/14/2020 6:00:00 AM 3.71 38.678 0.078 6.95 2.27 12.88
12/14/2020 6:15:00 AM 3.69 38.642 0.078 6.95 2.28 12.88
12/14/2020 6:30:00 AM 3.68 38.624 0.078 6.95 2.32 12.89
12/14/2020 6:45:00 AM 3.65 38.57 0.078 6.95 2.3 12.89
12/14/2020 7:00:00 AM 3.64 38.552 0.078 6.95 2.35 12.89
12/14/2020 7:15:00 AM 3.62 38.516 0.079 6.95 2.29 12.89
12/14/2020 7:30:00 AM 3.58 38.444 0.079 6.95 2.3 12.9
12/14/2020 7:45:00 AM 3.53 38.354 0.079 6.95 2.29 12.91
12/14/2020 8:00:00 AM 3.5 38.3 0.079 6.95 2.23 12.93
12/14/2020 8:15:00 AM 3.5 38.3 0.079 6.96 2.24 12.98
12/14/2020 8:30:00 AM 3.5 38.3 0.079 6.97 2.21 13.02
12/14/2020 8:45:00 AM 3.49 38.282 0.079 6.98 2.21 13.07
12/14/2020 9:00:00 AM 3.49 38.282 0.079 6.99 2.17 13.15
12/14/2020 9:15:00 AM 3.5 38.3 0.079 7.01 2.19 13.21
12/14/2020 9:30:00 AM 3.51 38.318 0.079 7.02 2.22 13.26
12/14/2020 9:45:00 AM 3.52 38.336 0.079 7.04 2.21 13.3
12/14/2020 10:00:00 AM 3.54 38.372 0.079 7.05 2.16 13.33
12/14/2020 10:15:00 AM 3.54 38.372 0.079 7.06 2.2 13.34
12/14/2020 10:30:00 AM 3.55 38.39 0.079 7.06 2.18 13.35
12/14/2020 10:45:00 AM 3.57 38.426 0.079 7.07 2.2 13.38
12/14/2020 11:00:00 AM 3.58 38.444 0.079 7.08 2.16 13.41
12/14/2020 11:15:00 AM 3.59 38.462 0.079 7.09 2.2 13.41
12/14/2020 11:30:00 AM 3.59 38.462 0.079 7.1 2.25 13.42
12/14/2020 11:45:00 AM 3.63 38.534 0.079 7.11 2.14 13.46
12/14/2020 12:00:00 PM 3.68 38.624 0.079 7.13 2.15 13.49
12/14/2020 12:15:00 PM 3.73 38.714 0.079 7.14 2.18 13.51
12/14/2020 12:30:00 PM 3.74 38.732 0.079 7.15 2.19 13.52
12/14/2020 12:45:00 PM 3.74 38.732 0.079 7.16 2.27 13.51
12/14/2020 1:00:00 PM 3.74 38.732 0.079 7.16 2.18 13.5
12/14/2020 1:15:00 PM 3.76 38.768 0.079 7.16 2.12 13.5
12/14/2020 1:30:00 PM 3.79 38.822 0.079 7.16 2.16 13.5
12/14/2020 1:45:00 PM 3.81 38.858 0.079 7.17 2.07 13.5
12/14/2020 2:00:00 PM 3.81 38.858 0.079 7.17 2.14 13.48
12/14/2020 2:15:00 PM 3.8 38.84 0.079 7.17 2.08 13.46
12/14/2020 2:30:00 PM 3.8 38.84 0.079 7.17 2.1 13.45
12/14/2020 2:45:00 PM 3.79 38.822 0.079 7.16 2.05 13.42
12/14/2020 3:00:00 PM 3.78 38.804 0.079 7.15 2.14 13.36
12/14/2020 3:15:00 PM 3.77 38.786 0.079 7.14 2.12 13.36
12/14/2020 3:30:00 PM 3.76 38.768 0.079 7.14 2.12 13.36
12/14/2020 3:45:00 PM 3.73 38.714 0.079 7.13 2.05 13.28
12/14/2020 4:00:00 PM 3.71 38.678 0.079 7.11 2.08 13.26
12/14/2020 4:15:00 PM 3.69 38.642 0.079 7.1 2.11 13.23
12/14/2020 4:30:00 PM 3.66 38.588 0.079 7.09 2.05 13.19
12/14/2020 4:45:00 PM 3.61 38.498 0.079 7.08 2.03 13.16
12/14/2020 5:00:00 PM 3.57 38.426 0.079 7.07 2.05 13.13
12/14/2020 5:15:00 PM 3.52 38.336 0.079 7.05 2.09 13.11
12/14/2020 5:30:00 PM 3.47 38.246 0.079 7.04 2.02 13.1
12/14/2020 5:45:00 PM 3.43 38.174 0.079 7.04 2.06 13.09
12/14/2020 6:00:00 PM 3.37 38.066 0.079 7.03 2.01 13.1
12/14/2020 6:15:00 PM 3.32 37.976 0.079 7.02 1.97 13.1
12/14/2020 6:30:00 PM 3.28 37.904 0.079 7.02 1.94 13.1
12/14/2020 6:45:00 PM 3.24 37.832 0.079 7.02 1.96 13.11
12/14/2020 7:00:00 PM 3.21 37.778 0.079 7.01 1.97 13.13
12/14/2020 7:15:00 PM 3.18 37.724 0.079 7.01 1.94 13.13
12/14/2020 7:30:00 PM 3.15 37.67 0.079 7.01 1.99 13.14
12/14/2020 7:45:00 PM 3.1 37.58 0.079 7.01 1.92 13.15
12/14/2020 8:00:00 PM 3.05 37.49 0.079 7 1.9 13.17
12/14/2020 8:15:00 PM 3 37.4 0.079 7 1.88 13.19
12/14/2020 8:30:00 PM 2.95 37.31 0.079 7 1.97 13.2
12/14/2020 8:45:00 PM 2.9 37.22 0.079 7 1.95 13.22
12/14/2020 9:00:00 PM 2.86 37.148 0.079 7 1.9 13.24
12/14/2020 9:15:00 PM 2.81 37.058 0.079 7 1.97 13.26
12/14/2020 9:30:00 PM 2.75 36.95 0.079 6.99 1.86 13.28
12/14/2020 9:45:00 PM 2.7 36.86 0.079 6.99 1.83 13.29
12/14/2020 10:00:00 PM 2.64 36.752 0.079 6.99 1.88 13.31
12/14/2020 10:15:00 PM 2.59 36.662 0.079 6.99 1.84 13.33
12/14/2020 10:30:00 PM 2.53 36.554 0.079 6.99 1.84 13.35
12/14/2020 10:45:00 PM 2.47 36.446 0.079 6.99 1.82 13.38
12/14/2020 11:00:00 PM 2.43 36.374 0.079 6.99 1.8 13.4
12/14/2020 11:15:00 PM 2.38 36.284 0.079 6.99 1.82 13.43
12/14/2020 11:30:00 PM 2.33 36.194 0.079 6.99 1.8 13.45
12/14/2020 11:45:00 PM 2.29 36.122 0.079 6.99 1.82 13.47
12/15/2020 12:00:00 AM 2.25 36.05 0.079 6.99 1.76 13.49
12/15/2020 12:15:00 AM 2.22 35.996 0.079 6.99 1.77 13.5
12/15/2020 12:30:00 AM 2.19 35.942 0.079 6.99 1.84 13.52
12/15/2020 12:45:00 AM 2.16 35.888 0.079 6.98 1.81 13.54
12/15/2020 1:00:00 AM 2.14 35.852 0.079 6.99 1.76 13.55
12/15/2020 1:15:00 AM 2.11 35.798 0.079 6.99 1.75 13.56
12/15/2020 1:30:00 AM 2.07 35.726 0.079 6.99 1.73 13.57
12/15/2020 1:45:00 AM 2.04 35.672 0.078 6.99 1.71 13.58
12/15/2020 2:00:00 AM 2.01 35.618 0.078 6.98 1.72 13.6
12/15/2020 2:15:00 AM 1.99 35.582 0.078 6.98 1.74 13.61
12/15/2020 2:30:00 AM 1.96 35.528 0.078 6.98 1.72 13.63
12/15/2020 2:45:00 AM 1.93 35.474 0.078 6.98 1.75 13.65
12/15/2020 3:00:00 AM 1.9 35.42 0.078 6.98 1.74 13.65
12/15/2020 3:15:00 AM 1.87 35.366 0.078 6.98 1.68 13.67
12/15/2020 3:30:00 AM 1.83 35.294 0.078 6.98 1.68 13.68
12/15/2020 3:45:00 AM 1.79 35.222 0.078 6.98 1.68 13.7
12/15/2020 4:00:00 AM 1.77 35.186 0.078 6.98 1.67 13.71
12/15/2020 4:15:00 AM 1.75 35.15 0.078 6.98 1.69 13.72
12/15/2020 4:30:00 AM 1.73 35.114 0.078 6.98 1.67 13.74
12/15/2020 4:45:00 AM 1.68 35.024 0.078 6.98 1.69 13.76
12/15/2020 5:00:00 AM 1.64 34.952 0.078 6.97 1.73 13.77
12/15/2020 5:15:00 AM 1.59 34.862 0.077 6.97 1.72 13.8
12/15/2020 5:30:00 AM 1.57 34.826 0.077 6.97 1.67 13.81
12/15/2020 5:45:00 AM 1.55 34.79 0.077 6.97 1.67 13.82
12/15/2020 6:00:00 AM 1.52 34.736 0.077 6.97 1.7 13.84
12/15/2020 6:15:00 AM 1.49 34.682 0.077 6.97 1.63 13.86
12/15/2020 6:30:00 AM 1.45 34.61 0.077 6.97 1.67 13.88
12/15/2020 6:45:00 AM 1.41 34.538 0.077 6.97 1.67 13.9
12/15/2020 7:00:00 AM 1.37 34.466 0.077 6.97 1.7 13.91
12/15/2020 7:15:00 AM 1.34 34.412 0.077 6.97 1.68 13.92
12/15/2020 7:30:00 AM 1.31 34.358 0.077 6.97 1.6 13.94
12/15/2020 7:45:00 AM 1.3 34.34 0.077 6.97 1.66 13.97
12/15/2020 8:00:00 AM 1.3 34.34 0.077 6.98 1.59 14.01
12/15/2020 8:15:00 AM 1.29 34.322 0.077 6.99 1.6 14.06
12/15/2020 8:30:00 AM 1.27 34.286 0.077 7 1.61 14.13
12/15/2020 8:45:00 AM 1.25 34.25 0.076 7.01 1.56 14.19
12/15/2020 9:00:00 AM 1.26 34.268 0.076 7.02 1.58 14.25
12/15/2020 9:15:00 AM 1.27 34.286 0.076 7.03 1.61 14.3
12/15/2020 9:30:00 AM 1.29 34.322 0.076 7.05 1.57 14.35
12/15/2020 9:45:00 AM 1.34 34.412 0.076 7.06 1.56 14.38
12/15/2020 10:00:00 AM 1.37 34.466 0.076 7.07 1.59 14.42
12/15/2020 10:15:00 AM 1.43 34.574 0.076 7.08 1.53 14.45
12/15/2020 10:30:00 AM 1.48 34.664 0.076 7.09 1.58 14.47
12/15/2020 10:45:00 AM 1.51 34.718 0.075 7.1 1.55 14.47
12/15/2020 11:00:00 AM 1.53 34.754 0.075 7.1 1.53 14.48
12/15/2020 11:15:00 AM 1.58 34.844 0.075 7.11 1.51 14.49
12/15/2020 11:30:00 AM 1.6 34.88 0.075 7.11 1.51 14.48
12/15/2020 11:45:00 AM 1.64 34.952 0.075 7.12 1.53 14.48
12/15/2020 12:00:00 PM 1.66 34.988 0.075 7.12 1.54 14.48
12/15/2020 12:15:00 PM 1.73 35.114 0.075 7.13 1.49 14.48
12/15/2020 12:30:00 PM 1.77 35.186 0.075 7.13 1.51 14.47
12/15/2020 12:45:00 PM 1.79 35.222 0.075 7.13 1.5 14.47
12/15/2020 1:00:00 PM 1.81 35.258 0.075 7.14 1.52 14.46
12/15/2020 1:15:00 PM 1.88 35.384 0.074 7.14 1.46 14.44
12/15/2020 1:30:00 PM 1.92 35.456 0.074 7.14 1.48 14.43
12/15/2020 1:45:00 PM 1.94 35.492 0.074 7.14 1.49 14.42
12/15/2020 2:00:00 PM 1.96 35.528 0.074 7.15 1.51 14.41
12/15/2020 2:15:00 PM 1.97 35.546 0.074 7.15 1.51 14.39
12/15/2020 2:30:00 PM 1.98 35.564 0.074 7.15 1.49 14.39
12/15/2020 2:45:00 PM 1.99 35.582 0.074 7.15 1.51 14.37
12/15/2020 3:00:00 PM 2 35.6 0.074 7.15 1.49 14.37
12/15/2020 3:15:00 PM 1.99 35.582 0.074 7.15 1.47 14.35
12/15/2020 3:30:00 PM 1.97 35.546 0.074 7.15 1.44 14.34
12/15/2020 3:45:00 PM 1.96 35.528 0.074 7.14 1.53 14.32
12/15/2020 4:00:00 PM 1.94 35.492 0.074 7.14 1.46 14.29
12/15/2020 4:15:00 PM 1.92 35.456 0.074 7.13 1.5 14.25
12/15/2020 4:30:00 PM 1.9 35.42 0.074 7.12 1.47 14.2
12/15/2020 4:45:00 PM 1.87 35.366 0.074 7.1 1.45 14.14
12/15/2020 5:00:00 PM 1.83 35.294 0.074 7.08 1.5 14.08
12/15/2020 5:15:00 PM 1.79 35.222 0.074 7.07 1.51 14.03
12/15/2020 5:30:00 PM 1.75 35.15 0.074 7.05 1.5 14.01
12/15/2020 5:45:00 PM 1.71 35.078 0.074 7.04 1.5 14
12/15/2020 6:00:00 PM 1.66 34.988 0.074 7.03 1.5 13.98
12/15/2020 6:15:00 PM 1.61 34.898 0.074 7.02 1.5 13.97
12/15/2020 6:30:00 PM 1.57 34.826 0.074 7.01 1.48 13.97
12/15/2020 6:45:00 PM 1.52 34.736 0.074 7.01 1.44 13.97
12/15/2020 7:00:00 PM 1.47 34.646 0.074 7 1.48 13.98
12/15/2020 7:15:00 PM 1.42 34.556 0.074 7 1.49 13.98
12/15/2020 7:30:00 PM 1.37 34.466 0.074 6.99 1.49 13.99
12/15/2020 7:45:00 PM 1.33 34.394 0.074 6.99 1.55 14.01
12/15/2020 8:00:00 PM 1.28 34.304 0.074 6.98 1.45 14.02
12/15/2020 8:15:00 PM 1.23 34.214 0.074 6.98 1.48 14.02
12/15/2020 8:30:00 PM 1.19 34.142 0.074 6.98 1.49 14.04
12/15/2020 8:45:00 PM 1.14 34.052 0.074 6.98 1.45 14.05
12/15/2020 9:00:00 PM 1.1 33.98 0.074 6.97 1.45 14.06
12/15/2020 9:15:00 PM 1.05 33.89 0.074 6.97 1.47 14.07
12/15/2020 9:30:00 PM 1.01 33.818 0.074 6.97 1.47 14.08
12/15/2020 9:45:00 PM 0.97 33.746 0.074 6.97 1.5 14.1
12/15/2020 10:00:00 PM 0.94 33.692 0.074 6.97 1.51 14.11
12/15/2020 10:15:00 PM 0.9 33.62 0.074 6.97 1.48 14.12
12/15/2020 10:30:00 PM 0.86 33.548 0.074 6.97 1.44 14.15
12/15/2020 10:45:00 PM 0.83 33.494 0.074 6.96 1.47 14.17
12/15/2020 11:00:00 PM 0.81 33.458 0.074 6.96 1.47 14.18
12/15/2020 11:15:00 PM 0.77 33.386 0.074 6.96 1.47 14.18
12/15/2020 11:30:00 PM 0.73 33.314 0.074 6.96 1.47 14.21
12/15/2020 11:45:00 PM 0.69 33.242 0.074 6.96 1.46 14.22
12/16/2020 12:00:00 AM 0.66 33.188 0.074 6.96 1.45 14.24
12/16/2020 12:15:00 AM 0.63 33.134 0.074 6.96 1.44 14.24
12/16/2020 12:30:00 AM 0.61 33.098 0.074 6.96 1.46 14.27
12/16/2020 12:45:00 AM 0.59 33.062 0.074 6.96 1.43 14.27
12/16/2020 1:00:00 AM 0.56 33.008 0.074 6.96 1.45 14.27
12/16/2020 1:15:00 AM 0.53 32.954 0.074 6.96 1.51 14.3
12/16/2020 1:30:00 AM 0.49 32.882 0.074 6.96 1.48 14.32
12/16/2020 1:45:00 AM 0.45 32.81 0.074 6.96 1.46 14.33
12/16/2020 2:00:00 AM 0.42 32.756 0.074 6.96 1.43 14.34
12/16/2020 2:15:00 AM 0.4 32.72 0.074 6.96 1.43 14.35
12/16/2020 2:30:00 AM 0.38 32.684 0.074 6.96 1.39 14.36
12/16/2020 2:45:00 AM 0.34 32.612 0.074 6.96 1.4 14.37
12/16/2020 3:00:00 AM 0.31 32.558 0.074 6.96 1.42 14.38
12/16/2020 3:15:00 AM 0.26 32.468 0.074 6.96 1.39 14.4
12/16/2020 3:30:00 AM 0.22 32.396 0.074 6.96 1.41 14.42
12/16/2020 3:45:00 AM 0.19 32.342 0.074 6.96 1.45 14.44
12/16/2020 4:00:00 AM 0.16 32.288 0.074 6.96 1.41 14.45
12/16/2020 4:15:00 AM 0.13 32.234 0.074 6.95 1.41 14.46
12/16/2020 4:30:00 AM 0.1 32.18 0.074 6.95 1.42 14.48
12/16/2020 4:45:00 AM 0.07 32.126 0.074 6.95 1.42 14.49
12/16/2020 5:00:00 AM 0.05 32.09 0.074 6.95 1.41 14.5
12/16/2020 5:15:00 AM 0.03 32.054 0.074 6.95 1.4 14.51
12/16/2020 5:30:00 AM 0 32 0.074 6.95 1.37 14.52
12/16/2020 5:45:00 AM -0.02 31.964 0.074 6.95 1.41 14.53
12/16/2020 6:00:00 AM -0.03 31.946 0.074 6.95 1.41 14.54
12/16/2020 6:15:00 AM -0.05 31.91 0.074 6.95 1.44 14.55
12/16/2020 6:30:00 AM -0.07 31.874 0.074 6.95 1.4 14.56
12/16/2020 6:45:00 AM -0.09 31.838 0.074 6.95 1.44 14.57
12/16/2020 7:00:00 AM -0.1 31.82 0.073 6.95 1.57 14.58
12/16/2020 7:15:00 AM -0.07 31.874 0.073 6.95 1.6 14.59
12/16/2020 7:30:00 AM -0.07 31.874 0.073 6.93 1.47 14.6
12/16/2020 7:45:00 AM -0.07 31.874 0.074 6.96 1.45 14.61
12/16/2020 8:00:00 AM -0.07 31.874 0.073 6.98 1.42 14.64
12/16/2020 8:15:00 AM -0.07 31.874 0.073 6.98 1.49 14.67
12/16/2020 8:30:00 AM -0.06 31.892 0.073 6.99 1.49 14.71
12/16/2020 8:45:00 AM -0.06 31.892 0.073 6.99 1.44 14.77
12/16/2020 9:00:00 AM -0.06 31.892 0.073 7 1.43 14.82
12/16/2020 9:15:00 AM -0.06 31.892 0.073 7 1.41 14.86
12/16/2020 9:30:00 AM -0.06 31.892 0.073 7.01 1.39 14.89
12/16/2020 9:45:00 AM -0.06 31.892 0.073 7.02 1.45 14.93
12/16/2020 10:00:00 AM -0.05 31.91 0.073 7.02 1.46 14.96
12/16/2020 10:15:00 AM -0.05 31.91 0.073 7.02 1.44 14.98
12/16/2020 10:30:00 AM -0.05 31.91 0.073 7.03 1.39 15
12/16/2020 10:45:00 AM -0.06 31.892 0.072 7.03 1.38 15.01
12/16/2020 11:00:00 AM -0.06 31.892 0.073 7.04 1.43 15
12/16/2020 11:15:00 AM -0.06 31.892 0.073 7.05 1.43 15
12/16/2020 11:30:00 AM -0.06 31.892 0.072 7.05 2.21 14.99
12/16/2020 11:45:00 AM -0.06 31.892 0.072 7.04 2.23 14.99
12/16/2020 12:00:00 PM -0.06 31.892 0.072 7.06 3.61 15.01
12/16/2020 12:15:00 PM -0.06 31.892 0.072 7.06 4.41 15.01
12/16/2020 12:30:00 PM -0.06 31.892 0.072 7.06 4.22 15
12/16/2020 12:45:00 PM -0.06 31.892 0.072 7.06 4.09 15
12/16/2020 1:00:00 PM -0.06 31.892 0.072 7.06 3.93 15.01
12/16/2020 1:15:00 PM -0.06 31.892 0.072 7.07 3.94 15.01
12/16/2020 1:30:00 PM -0.06 31.892 0.072 7.06 3.93 14.99
12/16/2020 1:45:00 PM -0.06 31.892 0.072 7.06 3.79 14.96
12/16/2020 2:00:00 PM -0.06 31.892 0.072 7.05 3.91 14.97
12/16/2020 2:15:00 PM -0.06 31.892 0.072 7.06 3.92 14.95
12/16/2020 2:30:00 PM -0.06 31.892 0.072 7.05 3.94 14.94
12/16/2020 2:45:00 PM -0.06 31.892 0.072 7.05 3.82 14.93
12/16/2020 3:00:00 PM -0.06 31.892 0.072 7.04 4.38 14.91
12/16/2020 3:15:00 PM -0.06 31.892 0.072 7.04 4.73 14.88
12/16/2020 3:30:00 PM -0.06 31.892 0.072 7.03 5.74 14.86
12/16/2020 3:45:00 PM -0.06 31.892 0.072 7.02 6.09 14.84
12/16/2020 4:00:00 PM -0.06 31.892 0.073 7.01 6.31 14.81
12/16/2020 4:15:00 PM -0.06 31.892 0.073 7 8.23 14.76
12/16/2020 4:30:00 PM -0.06 31.892 0.073 6.99 10.75 14.71
12/16/2020 4:45:00 PM -0.06 31.892 0.073 6.99 6.54 14.7
12/16/2020 5:00:00 PM -0.06 31.892 0.073 6.99 6.05 14.68
12/16/2020 5:15:00 PM -0.06 31.892 0.073 6.99 6.04 14.66
12/16/2020 5:30:00 PM -0.06 31.892 0.073 6.98 5.8 14.64
12/16/2020 5:45:00 PM -0.06 31.892 0.073 6.97 8.75 14.62
12/16/2020 6:00:00 PM -0.06 31.892 0.073 6.97 15.56 14.6
12/16/2020 6:15:00 PM -0.06 31.892 0.073 6.96 8.23 14.58
12/16/2020 6:30:00 PM -0.06 31.892 0.073 6.95 6.58 14.57
12/16/2020 6:45:00 PM -0.06 31.892 0.073 6.95 6.3 14.56
12/16/2020 7:00:00 PM -0.06 31.892 0.073 6.95 7.27 14.53
12/16/2020 7:15:00 PM -0.06 31.892 0.073 6.95 6.48 14.52
12/16/2020 7:30:00 PM -0.06 31.892 0.073 6.94 6.38 14.51
12/16/2020 7:45:00 PM -0.06 31.892 0.073 6.94 6.33 14.51
12/16/2020 8:00:00 PM -0.06 31.892 0.073 6.94 8.46 14.5
12/16/2020 8:15:00 PM -0.06 31.892 0.073 6.94 7.44 14.48
12/16/2020 8:30:00 PM -0.06 31.892 0.073 6.93 6.9 14.47
12/16/2020 8:45:00 PM -0.06 31.892 0.073 6.93 6.81 14.46
12/16/2020 9:00:00 PM -0.06 31.892 0.073 6.93 6.67 14.46
12/16/2020 9:15:00 PM -0.06 31.892 0.073 6.93 6.67 14.46
12/16/2020 9:30:00 PM -0.06 31.892 0.073 6.93 6.41 14.47
12/16/2020 9:45:00 PM -0.06 31.892 0.073 6.93 6.32 14.47
12/16/2020 10:00:00 PM -0.06 31.892 0.073 6.93 6.1 14.46
12/16/2020 10:15:00 PM -0.06 31.892 0.073 6.93 6.14 14.46
12/16/2020 10:30:00 PM -0.06 31.892 0.073 6.93 6.79 14.45
12/16/2020 10:45:00 PM -0.06 31.892 0.073 6.93 6.47 14.45
12/16/2020 11:00:00 PM -0.06 31.892 0.073 6.93 6.97 14.45
12/16/2020 11:15:00 PM -0.06 31.892 0.073 6.93 6.38 14.44
12/16/2020 11:30:00 PM -0.06 31.892 0.073 6.92 6.13 14.43
12/16/2020 11:45:00 PM -0.06 31.892 0.073 6.92 6.23 14.43
12/17/2020 12:00:00 AM -0.06 31.892 0.073 6.93 7.41 14.43
12/17/2020 12:15:00 AM -0.06 31.892 0.073 6.92 6.55 14.44
12/17/2020 12:30:00 AM -0.06 31.892 0.073 6.93 5.38 14.43
12/17/2020 12:45:00 AM -0.06 31.892 0.073 6.92 5.26 14.42
12/17/2020 1:00:00 AM -0.06 31.892 0.073 6.92 5.46 14.41
12/17/2020 1:15:00 AM -0.06 31.892 0.073 6.92 5.47 14.42
12/17/2020 1:30:00 AM -0.06 31.892 0.073 6.92 5.72 14.42
12/17/2020 1:45:00 AM -0.06 31.892 0.074 6.9 6.95 14.43
12/17/2020 2:00:00 AM -0.06 31.892 0.073 6.91 6.75 14.46
12/17/2020 2:15:00 AM -0.06 31.892 0.074 6.91 7.53 14.45
12/17/2020 2:30:00 AM -0.06 31.892 0.074 6.9 7.94 14.43
12/17/2020 2:45:00 AM -0.06 31.892 0.074 6.89 8.01 14.39
12/17/2020 3:00:00 AM -0.06 31.892 0.075 6.89 7.74 14.36
12/17/2020 3:15:00 AM -0.06 31.892 0.074 6.89 7.45 14.34
12/17/2020 3:30:00 AM -0.06 31.892 0.074 6.88 7.9 14.34
12/17/2020 3:45:00 AM -0.06 31.892 0.074 6.88 8.5 14.33
12/17/2020 4:00:00 AM -0.06 31.892 0.074 6.89 8.1 14.34
12/17/2020 4:15:00 AM -0.06 31.892 0.074 6.89 7.57 14.33
12/17/2020 4:30:00 AM -0.06 31.892 0.074 6.89 7.46 14.33
12/17/2020 4:45:00 AM -0.06 31.892 0.074 6.89 7.5 14.33
12/17/2020 5:00:00 AM -0.06 31.892 0.074 6.89 7.21 14.32
12/17/2020 5:15:00 AM -0.06 31.892 0.074 6.88 7.36 14.32
12/17/2020 5:30:00 AM -0.06 31.892 0.075 6.88 6.91 14.31
12/17/2020 5:45:00 AM -0.06 31.892 0.075 6.88 6.63 14.31
12/17/2020 6:00:00 AM -0.06 31.892 0.075 6.88 6.63 14.32
12/17/2020 6:15:00 AM -0.06 31.892 0.075 6.88 6.58 14.31
12/17/2020 6:30:00 AM -0.06 31.892 0.075 6.87 6.58 14.31
12/17/2020 6:45:00 AM -0.06 31.892 0.075 6.87 6.44 14.3
12/17/2020 7:00:00 AM -0.06 31.892 0.075 6.87 6.43 14.3
12/17/2020 7:15:00 AM -0.06 31.892 0.075 6.87 6.43 14.3
12/17/2020 7:30:00 AM -0.06 31.892 0.075 6.87 6.51 14.3
12/17/2020 7:45:00 AM -0.06 31.892 0.075 6.87 6.83 14.3
12/17/2020 8:00:00 AM -0.06 31.892 0.075 6.88 6.35 14.33
12/17/2020 8:15:00 AM -0.06 31.892 0.075 6.88 6.47 14.35
12/17/2020 8:30:00 AM -0.06 31.892 0.075 6.89 5.95 14.38
12/17/2020 8:45:00 AM -0.06 31.892 0.074 6.89 6.24 14.42
12/17/2020 9:00:00 AM -0.06 31.892 0.074 6.89 6.44 14.44
12/17/2020 9:15:00 AM -0.06 31.892 0.074 6.9 6.83 14.46
12/17/2020 9:30:00 AM -0.06 31.892 0.074 6.9 6.25 14.47
12/17/2020 9:45:00 AM -0.06 31.892 0.075 6.89 7.97 14.48
12/17/2020 10:00:00 AM -0.05 31.91 0.075 6.89 7.19 14.47
12/17/2020 10:15:00 AM -0.05 31.91 0.075 6.89 7.02 14.47
12/17/2020 10:30:00 AM -0.05 31.91 0.075 6.9 6.92 14.48
12/17/2020 10:45:00 AM -0.05 31.91 0.075 6.91 7.19 14.47
12/17/2020 11:00:00 AM -0.05 31.91 0.074 6.89 5.74 14.48
12/17/2020 11:15:00 AM -0.06 31.892 0.074 6.91 6.36 14.49
12/17/2020 11:30:00 AM -0.06 31.892 0.074 6.91 5.66 14.49
12/17/2020 11:45:00 AM -0.06 31.892 0.074 6.91 5.02 14.5
12/17/2020 12:00:00 PM -0.06 31.892 0.074 6.91 5.28 14.5
12/17/2020 12:15:00 PM -0.06 31.892 0.074 6.91 5.98 14.51
12/17/2020 12:30:00 PM -0.06 31.892 0.074 6.91 5.51 14.51
12/17/2020 12:45:00 PM -0.06 31.892 0.074 6.91 6.59 14.53
12/17/2020 1:00:00 PM -0.06 31.892 0.074 6.92 5.4 14.55
12/17/2020 1:15:00 PM -0.06 31.892 0.074 6.93 5.48 14.57
12/17/2020 1:30:00 PM -0.06 31.892 0.073 6.93 5.71 14.6
12/17/2020 1:45:00 PM -0.06 31.892 0.073 6.94 6.34 14.61
12/17/2020 2:00:00 PM -0.06 31.892 0.073 6.93 7.92 14.62
12/17/2020 2:15:00 PM -0.06 31.892 0.073 6.95 9.13 14.63
12/17/2020 2:30:00 PM -0.06 31.892 0.073 6.96 7.98 14.64
12/17/2020 2:45:00 PM -0.06 31.892 0.073 6.94 7.96 14.65
12/17/2020 3:00:00 PM -0.06 31.892 0.093 6.89 147.47 14.22
12/17/2020 3:15:00 PM -0.06 31.892 0.072 6.92 48.23 14.57
12/17/2020 3:30:00 PM -0.06 31.892 0.073 6.88 42.2 14.45
12/17/2020 3:45:00 PM -0.05 31.91 0.073 6.79 26.55 14.45
12/17/2020 4:00:00 PM -0.05 31.91 0.073 6.82 14.53 14.46
12/17/2020 4:15:00 PM -0.05 31.91 0.073 6.81 9.83 14.48
12/17/2020 4:30:00 PM -0.05 31.91 0.072 6.83 8.15 14.49
12/17/2020 4:45:00 PM -0.05 31.91 0.072 6.8 6.66 14.5
12/17/2020 5:00:00 PM -0.06 31.892 0.072 6.81 5.89 14.5
12/17/2020 5:15:00 PM -0.06 31.892 0.072 6.82 5.19 14.5
12/17/2020 5:30:00 PM -0.06 31.892 0.071 6.82 5.18 14.49
12/17/2020 5:45:00 PM -0.06 31.892 0.071 6.81 4.08 14.5
12/17/2020 6:00:00 PM -0.06 31.892 0.071 6.83 3.91 14.5
12/17/2020 6:15:00 PM -0.06 31.892 0.071 6.86 3.59 14.51
12/17/2020 6:30:00 PM -0.06 31.892 0.07 6.86 3.14 14.5
12/17/2020 6:45:00 PM -0.06 31.892 0.07 6.87 3.46 14.5
12/17/2020 7:00:00 PM -0.06 31.892 0.07 6.89 3.18 14.51
12/17/2020 7:15:00 PM -0.06 31.892 0.07 6.91 2.98 14.51
12/17/2020 7:30:00 PM -0.06 31.892 0.069 6.92 3.09 14.51
12/17/2020 7:45:00 PM -0.06 31.892 0.069 6.91 2.91 14.51
12/17/2020 8:00:00 PM -0.06 31.892 0.069 6.89 2.81 14.51
12/17/2020 8:15:00 PM -0.06 31.892 0.069 6.88 2.78 14.51
12/17/2020 8:30:00 PM -0.06 31.892 0.068 6.88 2.8 14.51
12/17/2020 8:45:00 PM -0.06 31.892 0.068 6.88 2.75 14.51
12/17/2020 9:00:00 PM -0.06 31.892 0.068 6.88 2.57 14.51
12/17/2020 9:15:00 PM -0.06 31.892 0.068 6.89 2.49 14.51
12/17/2020 9:30:00 PM -0.06 31.892 0.068 6.88 2.6 14.51
12/17/2020 9:45:00 PM -0.06 31.892 0.067 6.88 2.49 14.51
12/17/2020 10:00:00 PM -0.06 31.892 0.067 6.88 2.57 14.51
12/17/2020 10:15:00 PM -0.06 31.892 0.067 6.87 2.43 14.51
12/17/2020 10:30:00 PM -0.06 31.892 0.067 6.88 2.49 14.51
12/17/2020 10:45:00 PM -0.06 31.892 0.067 6.87 2.41 14.51
12/17/2020 11:00:00 PM -0.06 31.892 0.066 6.88 2.45 14.51
12/17/2020 11:15:00 PM -0.06 31.892 0.066 6.87 2.43 14.51
12/17/2020 11:30:00 PM -0.06 31.892 0.066 6.88 2.46 14.51
12/17/2020 11:45:00 PM -0.06 31.892 0.066 6.88 2.35 14.51
12/18/2020 12:00:00 AM -0.06 31.892 0.066 6.88 2.42 14.51
12/18/2020 12:15:00 AM -0.06 31.892 0.066 6.87 2.38 14.52
12/18/2020 12:30:00 AM -0.06 31.892 0.066 6.88 2.3 14.52
12/18/2020 12:45:00 AM -0.06 31.892 0.066 6.87 2.31 14.52
12/18/2020 1:00:00 AM -0.06 31.892 0.066 6.88 2.28 14.52
12/18/2020 1:15:00 AM -0.06 31.892 0.065 6.88 2.31 14.52
12/18/2020 1:30:00 AM -0.06 31.892 0.065 6.87 2.32 14.52
12/18/2020 1:45:00 AM -0.06 31.892 0.065 6.86 2.23 14.52
12/18/2020 2:00:00 AM -0.06 31.892 0.065 6.86 2.2 14.52
12/18/2020 2:15:00 AM -0.06 31.892 0.065 6.85 2.23 14.53
12/18/2020 2:30:00 AM -0.06 31.892 0.065 6.86 2.26 14.53
12/18/2020 2:45:00 AM -0.06 31.892 0.065 6.86 2.19 14.53
12/18/2020 3:00:00 AM -0.06 31.892 0.065 6.86 2.26 14.54
12/18/2020 3:15:00 AM -0.06 31.892 0.065 6.86 2.3 14.53
12/18/2020 3:30:00 AM -0.06 31.892 0.065 6.87 2.31 14.54
12/18/2020 3:45:00 AM -0.06 31.892 0.065 6.87 2.28 14.55
12/18/2020 4:00:00 AM -0.06 31.892 0.065 6.87 2.33 14.54
12/18/2020 4:15:00 AM -0.06 31.892 0.065 6.87 2.29 14.55
12/18/2020 4:30:00 AM -0.06 31.892 0.065 6.87 2.2 14.55
12/18/2020 4:45:00 AM -0.06 31.892 0.065 6.87 2.23 14.55
12/18/2020 5:00:00 AM -0.06 31.892 0.065 6.87 2.24 14.55
12/18/2020 5:15:00 AM -0.06 31.892 0.066 6.87 2.28 14.55
12/18/2020 5:30:00 AM -0.06 31.892 0.066 6.88 2.27 14.55
12/18/2020 5:45:00 AM -0.06 31.892 0.066 6.88 2.24 14.56
12/18/2020 6:00:00 AM -0.06 31.892 0.066 6.88 2.32 14.56
12/18/2020 6:15:00 AM -0.06 31.892 0.066 6.88 2.27 14.56
12/18/2020 6:30:00 AM -0.06 31.892 0.066 6.88 2.48 14.57
12/18/2020 6:45:00 AM -0.06 31.892 0.066 6.89 2.46 14.57
12/18/2020 7:00:00 AM -0.06 31.892 0.066 6.89 2.66 14.57
12/18/2020 7:15:00 AM -0.06 31.892 0.066 6.89 2.68 14.58
12/18/2020 7:30:00 AM -0.06 31.892 0.066 6.89 2.59 14.59
12/18/2020 7:45:00 AM -0.06 31.892 0.066 6.89 2.65 14.59
12/18/2020 8:00:00 AM -0.06 31.892 0.067 6.89 2.87 14.6
12/18/2020 8:15:00 AM -0.06 31.892 0.067 6.9 3 14.62
12/18/2020 8:30:00 AM -0.06 31.892 0.067 6.9 2.66 14.63
12/18/2020 8:45:00 AM -0.06 31.892 0.067 6.9 2.82 14.66
12/18/2020 9:00:00 AM -0.06 31.892 0.067 6.9 3.31 14.68
12/18/2020 9:15:00 AM -0.06 31.892 0.067 6.91 3.39 14.71
12/18/2020 9:30:00 AM -0.06 31.892 0.067 6.92 3.03 14.73
12/18/2020 9:45:00 AM -0.06 31.892 0.068 6.92 2.97 14.75
12/18/2020 10:00:00 AM -0.06 31.892 0.068 6.93 3.28 14.78
12/18/2020 10:15:00 AM -0.06 31.892 0.068 6.93 3.47 14.8
12/18/2020 10:30:00 AM -0.06 31.892 0.068 6.95 4 14.82
12/18/2020 10:45:00 AM -0.06 31.892 0.068 6.95 3.86 14.84
12/18/2020 11:00:00 AM -0.06 31.892 0.069 6.95 4.11 14.85
12/18/2020 11:15:00 AM -0.06 31.892 0.069 6.94 3.79 14.86
12/18/2020 11:30:00 AM -0.06 31.892 0.069 6.95 3.94 14.87
12/18/2020 11:45:00 AM -0.06 31.892 0.069 6.95 3.85 14.88
12/18/2020 12:00:00 PM -0.06 31.892 0.069 6.95 3.76 14.89
12/18/2020 12:15:00 PM -0.06 31.892 0.07 6.95 3.8 14.89
12/18/2020 12:30:00 PM -0.06 31.892 0.07 6.95 3.87 14.9
12/18/2020 12:45:00 PM -0.06 31.892 0.07 6.95 3.93 14.9
12/18/2020 1:00:00 PM -0.06 31.892 0.07 6.96 4.05 14.91
12/18/2020 1:15:00 PM -0.06 31.892 0.07 6.96 3.61 14.91
12/18/2020 1:30:00 PM -0.06 31.892 0.071 6.96 3.57 14.93
12/18/2020 1:45:00 PM -0.06 31.892 0.071 6.97 3.61 14.93
12/18/2020 2:00:00 PM -0.06 31.892 0.071 6.97 3.66 14.94
12/18/2020 2:15:00 PM -0.06 31.892 0.071 6.97 3.73 14.93
12/18/2020 2:30:00 PM -0.06 31.892 0.071 6.97 3.54 14.91
12/18/2020 2:45:00 PM -0.06 31.892 0.072 6.97 3.56 14.91
12/18/2020 3:00:00 PM -0.06 31.892 0.072 6.97 3.26 14.92
12/18/2020 3:15:00 PM -0.06 31.892 0.072 6.97 3.15 14.92
12/18/2020 3:30:00 PM -0.06 31.892 0.072 6.97 3.27 14.91
12/18/2020 3:45:00 PM -0.06 31.892 0.072 6.97 3.13 14.91
12/18/2020 4:00:00 PM -0.06 31.892 0.072 6.97 3.16 14.91
12/18/2020 4:15:00 PM -0.06 31.892 0.073 6.97 3.15 14.9
12/18/2020 4:30:00 PM -0.06 31.892 0.073 6.97 3.12 14.87
12/18/2020 4:45:00 PM -0.06 31.892 0.073 6.97 3.09 14.85
12/18/2020 5:00:00 PM -0.06 31.892 0.073 6.96 3.09 14.83
12/18/2020 5:15:00 PM -0.06 31.892 0.073 6.96 2.99 14.81
12/18/2020 5:30:00 PM -0.06 31.892 0.073 6.95 2.93 14.79
12/18/2020 5:45:00 PM -0.06 31.892 0.073 6.95 2.93 14.79
12/18/2020 6:00:00 PM -0.06 31.892 0.073 6.95 2.83 14.77
12/18/2020 6:15:00 PM -0.06 31.892 0.073 6.95 2.82 14.77
12/18/2020 6:30:00 PM -0.06 31.892 0.073 6.94 2.76 14.76
12/18/2020 6:45:00 PM -0.06 31.892 0.074 6.94 2.76 14.75
12/18/2020 7:00:00 PM -0.06 31.892 0.074 6.94 2.75 14.75
12/18/2020 7:15:00 PM -0.06 31.892 0.074 6.93 2.75 14.75
12/18/2020 7:30:00 PM -0.06 31.892 0.074 6.93 2.7 14.74
12/18/2020 7:45:00 PM -0.06 31.892 0.074 6.93 2.71 14.75
12/18/2020 8:00:00 PM -0.06 31.892 0.074 6.93 2.7 14.75
12/18/2020 8:15:00 PM -0.06 31.892 0.074 6.93 2.68 14.75
12/18/2020 8:30:00 PM -0.06 31.892 0.074 6.92 2.74 14.75
12/18/2020 8:45:00 PM -0.06 31.892 0.074 6.92 2.75 14.76
12/18/2020 9:00:00 PM -0.06 31.892 0.074 6.92 2.73 14.76
12/18/2020 9:15:00 PM -0.06 31.892 0.074 6.92 2.72 14.75
12/18/2020 9:30:00 PM -0.06 31.892 0.074 6.92 2.73 14.75
12/18/2020 9:45:00 PM -0.06 31.892 0.075 6.92 2.71 14.75
12/18/2020 10:00:00 PM -0.06 31.892 0.075 6.92 2.66 14.74
12/18/2020 10:15:00 PM -0.05 31.91 0.075 6.92 2.71 14.74
12/18/2020 10:30:00 PM -0.06 31.892 0.075 6.92 2.76 14.74
12/18/2020 10:45:00 PM -0.06 31.892 0.075 6.92 2.76 14.74
12/18/2020 11:00:00 PM -0.05 31.91 0.075 6.91 2.73 14.74
12/18/2020 11:15:00 PM -0.06 31.892 0.075 6.91 2.72 14.74
12/18/2020 11:30:00 PM -0.06 31.892 0.075 6.91 2.69 14.74
12/18/2020 11:45:00 PM -0.06 31.892 0.075 6.91 2.67 14.74
12/19/2020 12:00:00 AM -0.06 31.892 0.075 6.91 2.67 14.74
12/19/2020 12:15:00 AM -0.05 31.91 0.075 6.91 2.68 14.73
12/19/2020 12:30:00 AM -0.05 31.91 0.075 6.91 2.66 14.73
12/19/2020 12:45:00 AM -0.06 31.892 0.075 6.91 2.66 14.73
12/19/2020 1:00:00 AM -0.05 31.91 0.075 6.91 2.61 14.72
12/19/2020 1:15:00 AM -0.05 31.91 0.075 6.91 2.58 14.72
12/19/2020 1:30:00 AM -0.05 31.91 0.075 6.91 2.59 14.72
12/19/2020 1:45:00 AM -0.06 31.892 0.076 6.91 2.55 14.72
12/19/2020 2:00:00 AM -0.06 31.892 0.076 6.91 2.57 14.72
12/19/2020 2:15:00 AM -0.05 31.91 0.076 6.91 2.56 14.71
12/19/2020 2:30:00 AM -0.06 31.892 0.076 6.91 2.56 14.71
12/19/2020 2:45:00 AM -0.06 31.892 0.076 6.93 2.53 14.71
12/19/2020 3:00:00 AM -0.05 31.91 0.076 6.91 2.55 14.7
12/19/2020 3:15:00 AM -0.05 31.91 0.076 6.91 2.52 14.7
12/19/2020 3:30:00 AM -0.06 31.892 0.076 6.91 2.5 14.7
12/19/2020 3:45:00 AM -0.05 31.91 0.076 6.91 2.5 14.69
12/19/2020 4:00:00 AM -0.05 31.91 0.076 6.91 2.53 14.69
12/19/2020 4:15:00 AM -0.06 31.892 0.076 6.91 2.46 14.69
12/19/2020 4:30:00 AM -0.05 31.91 0.077 6.91 2.49 14.69
12/19/2020 4:45:00 AM -0.05 31.91 0.077 6.91 2.46 14.68
12/19/2020 5:00:00 AM -0.06 31.892 0.077 6.91 2.46 14.68
12/19/2020 5:15:00 AM -0.05 31.91 0.077 6.91 2.45 14.68
12/19/2020 5:30:00 AM -0.05 31.91 0.077 6.91 2.43 14.67
12/19/2020 5:45:00 AM -0.05 31.91 0.078 6.91 2.43 14.67
12/19/2020 6:00:00 AM -0.05 31.91 0.078 6.91 2.44 14.67
12/19/2020 6:15:00 AM -0.05 31.91 0.078 6.91 2.4 14.66
12/19/2020 6:30:00 AM -0.05 31.91 0.078 6.9 2.42 14.65
12/19/2020 6:45:00 AM -0.05 31.91 0.078 6.9 2.46 14.65
12/19/2020 7:00:00 AM -0.05 31.91 0.078 6.9 2.42 14.63
12/19/2020 7:15:00 AM -0.05 31.91 0.078 6.9 2.43 14.61
12/19/2020 7:30:00 AM -0.05 31.91 0.078 6.9 2.39 14.61
12/19/2020 7:45:00 AM -0.05 31.91 0.078 6.9 2.41 14.61
12/19/2020 8:00:00 AM -0.05 31.91 0.078 6.9 2.42 14.6
12/19/2020 8:15:00 AM -0.05 31.91 0.079 6.91 2.38 14.62
12/19/2020 8:30:00 AM -0.05 31.91 0.078 6.91 2.34 14.65
12/19/2020 8:45:00 AM -0.05 31.91 0.078 6.91 2.31 14.67
12/19/2020 9:00:00 AM -0.05 31.91 0.078 6.91 2.33 14.7
12/19/2020 9:15:00 AM -0.05 31.91 0.078 6.92 2.36 14.72
12/19/2020 9:30:00 AM -0.05 31.91 0.078 6.92 2.32 14.73
12/19/2020 9:45:00 AM -0.05 31.91 0.078 6.93 2.32 14.75
12/19/2020 10:00:00 AM -0.05 31.91 0.078 6.93 2.32 14.76
12/19/2020 10:15:00 AM -0.05 31.91 0.078 6.93 2.35 14.78
12/19/2020 10:30:00 AM -0.05 31.91 0.077 6.93 2.34 14.8
12/19/2020 10:45:00 AM -0.05 31.91 0.077 6.93 2.34 14.8
12/19/2020 11:00:00 AM -0.05 31.91 0.077 6.94 2.37 14.82
12/19/2020 11:15:00 AM -0.05 31.91 0.077 6.94 2.39 14.82
12/19/2020 11:30:00 AM -0.06 31.892 0.077 6.94 2.45 14.81
12/19/2020 11:45:00 AM -0.05 31.91 0.077 6.94 2.41 14.81
12/19/2020 12:00:00 PM -0.05 31.91 0.076 6.94 2.34 14.82
12/19/2020 12:15:00 PM -0.05 31.91 0.076 6.94 2.35 14.83
12/19/2020 12:30:00 PM -0.05 31.91 0.076 6.95 2.5 14.83
12/19/2020 12:45:00 PM -0.05 31.91 0.076 6.95 2.45 14.83
12/19/2020 1:00:00 PM -0.05 31.91 0.076 6.95 2.42 14.83
12/19/2020 1:15:00 PM -0.05 31.91 0.076 6.95 2.45 14.83
12/19/2020 1:30:00 PM -0.05 31.91 0.076 6.96 2.41 14.83
12/19/2020 1:45:00 PM -0.05 31.91 0.076 6.97 1.92 14.84
12/19/2020 2:00:00 PM -0.05 31.91 0.076 6.96 2.01 14.84
12/19/2020 2:15:00 PM -0.05 31.91 0.075 6.96 1.8 14.83
12/19/2020 2:30:00 PM -0.05 31.91 0.075 6.96 1.85 14.83
12/19/2020 2:45:00 PM -0.05 31.91 0.075 6.95 1.85 14.83
12/19/2020 3:00:00 PM -0.05 31.91 0.075 6.95 1.72 14.82
12/19/2020 3:15:00 PM -0.05 31.91 0.075 6.95 1.75 14.82
12/19/2020 3:30:00 PM -0.05 31.91 0.075 6.95 1.74 14.82
12/19/2020 3:45:00 PM -0.05 31.91 0.075 6.95 1.8 14.81
12/19/2020 4:00:00 PM -0.05 31.91 0.075 6.95 1.77 14.8
12/19/2020 4:15:00 PM -0.06 31.892 0.075 6.95 1.69 14.79
12/19/2020 4:30:00 PM -0.06 31.892 0.075 6.95 1.73 14.76
12/19/2020 4:45:00 PM -0.06 31.892 0.075 6.95 1.68 14.74
12/19/2020 5:00:00 PM -0.06 31.892 0.075 6.95 1.66 14.72
12/19/2020 5:15:00 PM -0.06 31.892 0.075 6.95 1.67 14.7
12/19/2020 5:30:00 PM -0.06 31.892 0.075 6.95 1.66 14.68
12/19/2020 5:45:00 PM -0.06 31.892 0.075 6.94 1.64 14.66
12/19/2020 6:00:00 PM -0.06 31.892 0.075 6.94 1.66 14.65
12/19/2020 6:15:00 PM -0.06 31.892 0.075 6.93 1.66 14.63
12/19/2020 6:30:00 PM -0.06 31.892 0.075 6.93 1.55 14.62
12/19/2020 6:45:00 PM -0.06 31.892 0.075 6.93 1.52 14.61
12/19/2020 7:00:00 PM -0.06 31.892 0.075 6.93 1.55 14.6
12/19/2020 7:15:00 PM -0.06 31.892 0.075 6.92 1.51 14.6
12/19/2020 7:30:00 PM -0.06 31.892 0.075 6.92 1.55 14.59
12/19/2020 7:45:00 PM -0.06 31.892 0.075 6.91 1.51 14.58
12/19/2020 8:00:00 PM -0.06 31.892 0.075 6.91 1.49 14.58
12/19/2020 8:15:00 PM -0.06 31.892 0.074 6.9 1.48 14.58
12/19/2020 8:30:00 PM -0.06 31.892 0.074 6.91 1.47 14.57
12/19/2020 8:45:00 PM -0.06 31.892 0.074 6.9 1.49 14.57
12/19/2020 9:00:00 PM -0.06 31.892 0.074 6.9 1.48 14.56
12/19/2020 9:15:00 PM -0.06 31.892 0.074 6.91 1.47 14.56
12/19/2020 9:30:00 PM -0.06 31.892 0.074 6.9 1.53 14.55
12/19/2020 9:45:00 PM -0.06 31.892 0.074 6.9 1.5 14.55
12/19/2020 10:00:00 PM -0.06 31.892 0.074 6.89 1.46 14.54
12/19/2020 10:15:00 PM -0.06 31.892 0.074 6.89 1.55 14.54
12/19/2020 10:30:00 PM -0.06 31.892 0.074 6.88 1.53 14.53
12/19/2020 10:45:00 PM -0.06 31.892 0.074 6.87 1.52 14.53
12/19/2020 11:00:00 PM -0.06 31.892 0.074 6.87 1.48 14.52
12/19/2020 11:15:00 PM -0.06 31.892 0.074 6.88 1.5 14.52
12/19/2020 11:30:00 PM -0.06 31.892 0.074 6.88 1.42 14.52
12/19/2020 11:45:00 PM -0.06 31.892 0.074 6.88 1.49 14.52
12/20/2020 12:00:00 AM -0.06 31.892 0.074 6.87 1.49 14.52
12/20/2020 12:15:00 AM -0.06 31.892 0.073 6.88 1.43 14.51
12/20/2020 12:30:00 AM -0.06 31.892 0.074 6.88 1.44 14.51
12/20/2020 12:45:00 AM -0.06 31.892 0.073 6.88 1.42 14.52
12/20/2020 1:00:00 AM -0.06 31.892 0.073 6.88 1.46 14.51
12/20/2020 1:15:00 AM -0.06 31.892 0.073 6.87 1.44 14.51
12/20/2020 1:30:00 AM -0.06 31.892 0.073 6.87 1.49 14.51
12/20/2020 1:45:00 AM -0.06 31.892 0.073 6.87 1.41 14.51
12/20/2020 2:00:00 AM -0.05 31.91 0.073 6.87 1.46 14.5
12/20/2020 2:15:00 AM -0.06 31.892 0.073 6.87 1.46 14.5
12/20/2020 2:30:00 AM -0.06 31.892 0.073 6.87 1.43 14.5
12/20/2020 2:45:00 AM -0.06 31.892 0.073 6.87 1.44 14.49
12/20/2020 3:00:00 AM -0.05 31.91 0.073 6.87 1.46 14.49
12/20/2020 3:15:00 AM -0.05 31.91 0.073 6.87 1.45 14.49
12/20/2020 3:30:00 AM -0.05 31.91 0.073 6.87 1.42 14.49
12/20/2020 3:45:00 AM -0.06 31.892 0.074 6.87 1.44 14.49
12/20/2020 4:00:00 AM -0.05 31.91 0.074 6.87 1.42 14.49
12/20/2020 4:15:00 AM -0.05 31.91 0.074 6.87 1.42 14.49
12/20/2020 4:30:00 AM -0.05 31.91 0.074 6.87 1.51 14.48
12/20/2020 4:45:00 AM -0.06 31.892 0.074 6.88 1.51 14.48
12/20/2020 5:00:00 AM -0.05 31.91 0.074 6.88 1.42 14.48
12/20/2020 5:15:00 AM -0.06 31.892 0.074 6.88 1.47 14.48
12/20/2020 5:30:00 AM -0.06 31.892 0.074 6.87 1.49 14.48
12/20/2020 5:45:00 AM -0.06 31.892 0.074 6.87 1.52 14.48
12/20/2020 6:00:00 AM -0.06 31.892 0.074 6.88 1.5 14.48
12/20/2020 6:15:00 AM -0.06 31.892 0.074 6.88 1.4 14.48
12/20/2020 6:30:00 AM -0.06 31.892 0.074 6.88 1.43 14.48
12/20/2020 6:45:00 AM -0.05 31.91 0.074 6.88 1.45 14.48
12/20/2020 7:00:00 AM -0.06 31.892 0.074 6.88 1.44 14.48
12/20/2020 7:15:00 AM -0.06 31.892 0.074 6.88 1.47 14.48
12/20/2020 7:30:00 AM -0.06 31.892 0.075 6.88 1.53 14.48
12/20/2020 7:45:00 AM -0.06 31.892 0.075 6.88 1.45 14.48
12/20/2020 8:00:00 AM -0.06 31.892 0.075 6.87 1.57 14.49
12/20/2020 8:15:00 AM -0.06 31.892 0.075 6.88 1.64 14.49
12/20/2020 8:30:00 AM -0.06 31.892 0.075 6.88 1.55 14.51
12/20/2020 8:45:00 AM -0.06 31.892 0.075 6.89 1.64 14.52
12/20/2020 9:00:00 AM -0.06 31.892 0.075 6.9 2.35 14.55
12/20/2020 9:15:00 AM -0.06 31.892 0.075 6.9 1.57 14.56
12/20/2020 9:30:00 AM -0.06 31.892 0.075 6.91 1.72 14.58
12/20/2020 9:45:00 AM -0.05 31.91 0.075 6.91 1.96 14.6
12/20/2020 10:00:00 AM -0.05 31.91 0.074 6.92 2.21 14.62
12/20/2020 10:15:00 AM -0.05 31.91 0.074 6.93 1.5 14.64
12/20/2020 10:30:00 AM -0.05 31.91 0.074 6.93 1.48 14.64
12/20/2020 10:45:00 AM -0.05 31.91 0.074 6.93 1.46 14.65
12/20/2020 11:00:00 AM -0.05 31.91 0.074 6.93 1.52 14.66
12/20/2020 11:15:00 AM -0.04 31.928 0.074 6.93 1.55 14.66
12/20/2020 11:30:00 AM -0.04 31.928 0.074 6.93 1.53 14.66
12/20/2020 11:45:00 AM -0.04 31.928 0.074 6.93 1.52 14.67
12/20/2020 12:00:00 PM -0.04 31.928 0.074 6.94 1.62 14.67
12/20/2020 12:15:00 PM -0.04 31.928 0.074 6.94 1.49 14.67
12/20/2020 12:30:00 PM -0.04 31.928 0.074 6.94 1.54 14.66
12/20/2020 12:45:00 PM -0.04 31.928 0.074 6.94 1.49 14.65
12/20/2020 1:00:00 PM -0.04 31.928 0.074 6.94 1.43 14.65
12/20/2020 1:15:00 PM -0.04 31.928 0.074 6.94 1.59 14.65
12/20/2020 1:30:00 PM -0.04 31.928 0.074 6.94 1.54 14.65
12/20/2020 1:45:00 PM -0.04 31.928 0.074 6.94 1.53 14.65
12/20/2020 2:00:00 PM -0.04 31.928 0.074 6.95 1.5 14.65
12/20/2020 2:15:00 PM -0.04 31.928 0.074 6.95 1.55 14.64
12/20/2020 2:30:00 PM -0.04 31.928 0.074 6.95 1.46 14.64
12/20/2020 2:45:00 PM -0.04 31.928 0.074 6.95 1.61 14.64
12/20/2020 3:00:00 PM -0.04 31.928 0.074 6.95 1.5 14.64
12/20/2020 3:15:00 PM -0.05 31.91 0.074 6.95 1.61 14.63
12/20/2020 3:30:00 PM -0.05 31.91 0.074 6.95 1.78 14.62
12/20/2020 3:45:00 PM -0.05 31.91 0.074 6.95 1.51 14.61
12/20/2020 4:00:00 PM -0.05 31.91 0.074 6.94 1.49 14.6
12/20/2020 4:15:00 PM -0.05 31.91 0.074 6.94 1.57 14.57
12/20/2020 4:30:00 PM -0.05 31.91 0.074 6.93 1.43 14.55
12/20/2020 4:45:00 PM -0.05 31.91 0.074 6.93 1.51 14.53
12/20/2020 5:00:00 PM -0.05 31.91 0.074 6.92 1.47 14.51
12/20/2020 5:15:00 PM -0.05 31.91 0.074 6.92 1.51 14.49
12/20/2020 5:30:00 PM -0.05 31.91 0.074 6.92 1.55 14.48
12/20/2020 5:45:00 PM -0.05 31.91 0.074 6.91 1.52 14.46
12/20/2020 6:00:00 PM -0.05 31.91 0.074 6.91 1.57 14.45
12/20/2020 6:15:00 PM -0.05 31.91 0.074 6.91 1.56 14.44
12/20/2020 6:30:00 PM -0.05 31.91 0.074 6.91 1.59 14.43
12/20/2020 6:45:00 PM -0.05 31.91 0.074 6.9 1.58 14.43
12/20/2020 7:00:00 PM -0.05 31.91 0.074 6.91 1.5 14.42
12/20/2020 7:15:00 PM -0.05 31.91 0.074 6.9 1.5 14.41
12/20/2020 7:30:00 PM -0.05 31.91 0.074 6.9 1.5 14.41
12/20/2020 7:45:00 PM -0.05 31.91 0.074 6.9 1.46 14.4
12/20/2020 8:00:00 PM -0.05 31.91 0.074 6.89 1.57 14.4
12/20/2020 8:15:00 PM -0.05 31.91 0.074 6.89 1.48 14.39
12/20/2020 8:30:00 PM -0.05 31.91 0.074 6.89 1.53 14.39
12/20/2020 8:45:00 PM -0.05 31.91 0.074 6.89 1.57 14.39
12/20/2020 9:00:00 PM -0.05 31.91 0.074 6.88 1.48 14.38
12/20/2020 9:15:00 PM -0.05 31.91 0.074 6.88 1.53 14.38
12/20/2020 9:30:00 PM -0.05 31.91 0.074 6.88 1.55 14.38
12/20/2020 9:45:00 PM -0.05 31.91 0.074 6.88 1.51 14.37
12/20/2020 10:00:00 PM -0.05 31.91 0.074 6.88 1.49 14.37
12/20/2020 10:15:00 PM -0.05 31.91 0.074 6.88 1.53 14.37
12/20/2020 10:30:00 PM -0.05 31.91 0.074 6.88 1.45 14.37
12/20/2020 10:45:00 PM -0.05 31.91 0.074 6.88 1.56 14.36
12/20/2020 11:00:00 PM -0.05 31.91 0.074 6.89 1.54 14.36
12/20/2020 11:15:00 PM -0.05 31.91 0.074 6.89 1.52 14.36
12/20/2020 11:30:00 PM -0.05 31.91 0.074 6.89 1.6 14.36
12/20/2020 11:45:00 PM -0.05 31.91 0.074 6.88 1.57 14.36
12/21/2020 12:00:00 AM -0.05 31.91 0.074 6.89 1.53 14.36
12/21/2020 12:15:00 AM -0.05 31.91 0.074 6.88 1.51 14.36
12/21/2020 12:30:00 AM -0.05 31.91 0.074 6.88 1.51 14.36
12/21/2020 12:45:00 AM -0.05 31.91 0.074 6.88 1.53 14.36
12/21/2020 1:00:00 AM -0.05 31.91 0.074 6.88 1.56 14.35
12/21/2020 1:15:00 AM -0.05 31.91 0.074 6.88 1.56 14.35
12/21/2020 1:30:00 AM -0.05 31.91 0.074 6.88 1.46 14.35
12/21/2020 1:45:00 AM -0.05 31.91 0.074 6.88 1.54 14.35
12/21/2020 2:00:00 AM -0.05 31.91 0.074 6.88 1.49 14.35
12/21/2020 2:15:00 AM -0.05 31.91 0.074 6.88 1.51 14.35
12/21/2020 2:30:00 AM -0.06 31.892 0.074 6.87 1.52 14.35
12/21/2020 2:45:00 AM -0.05 31.91 0.074 6.87 1.47 14.35
12/21/2020 3:00:00 AM -0.05 31.91 0.074 6.88 1.48 14.35
12/21/2020 3:15:00 AM -0.05 31.91 0.074 6.87 1.53 14.35
12/21/2020 3:30:00 AM -0.05 31.91 0.074 6.87 1.42 14.35
12/21/2020 3:45:00 AM -0.05 31.91 0.074 6.88 1.55 14.35
12/21/2020 4:00:00 AM -0.05 31.91 0.074 6.88 1.53 14.35
12/21/2020 4:15:00 AM -0.05 31.91 0.074 6.87 1.48 14.35
12/21/2020 4:30:00 AM -0.05 31.91 0.074 6.88 1.48 14.35
12/21/2020 4:45:00 AM -0.05 31.91 0.074 6.87 1.46 14.34
12/21/2020 5:00:00 AM -0.05 31.91 0.074 6.88 1.52 14.34
12/21/2020 5:15:00 AM -0.05 31.91 0.074 6.87 1.49 14.34
12/21/2020 5:30:00 AM -0.05 31.91 0.074 6.87 1.54 14.34
12/21/2020 5:45:00 AM -0.05 31.91 0.074 6.87 1.47 14.34
12/21/2020 6:00:00 AM -0.05 31.91 0.074 6.87 1.48 14.34
12/21/2020 6:15:00 AM -0.05 31.91 0.074 6.87 1.61 14.34
12/21/2020 6:30:00 AM -0.05 31.91 0.074 6.87 1.49 14.34
12/21/2020 6:45:00 AM -0.05 31.91 0.074 6.87 1.5 14.34
12/21/2020 7:00:00 AM -0.05 31.91 0.074 6.86 1.51 14.33
12/21/2020 7:15:00 AM -0.05 31.91 0.074 6.87 1.5 14.34
12/21/2020 7:30:00 AM -0.05 31.91 0.074 6.87 1.45 14.34
12/21/2020 7:45:00 AM -0.05 31.91 0.074 6.86 1.44 14.35
12/21/2020 8:00:00 AM -0.05 31.91 0.074 6.87 1.45 14.37
12/21/2020 8:15:00 AM -0.04 31.928 0.074 6.87 1.46 14.39
12/21/2020 8:30:00 AM -0.03 31.946 0.073 6.88 1.44 14.42
12/21/2020 8:45:00 AM -0.03 31.946 0.073 6.88 1.51 14.45
12/21/2020 9:00:00 AM -0.03 31.946 0.073 6.89 1.55 14.47
12/21/2020 9:15:00 AM -0.03 31.946 0.073 6.89 1.68 14.49
12/21/2020 9:30:00 AM -0.03 31.946 0.073 6.9 1.69 14.51
12/21/2020 9:45:00 AM -0.03 31.946 0.073 6.9 1.6 14.53
12/21/2020 10:00:00 AM -0.03 31.946 0.073 6.91 1.77 14.54
12/21/2020 10:15:00 AM -0.03 31.946 0.073 6.92 1.83 14.54
12/21/2020 10:30:00 AM -0.02 31.964 0.073 6.92 1.91 14.56
12/21/2020 10:45:00 AM -0.02 31.964 0.073 6.92 1.95 14.56
12/21/2020 11:00:00 AM -0.02 31.964 0.073 6.93 1.92 14.57
12/21/2020 11:15:00 AM -0.02 31.964 0.073 6.92 2.02 14.57
12/21/2020 11:30:00 AM -0.02 31.964 0.073 6.92 1.93 14.58
12/21/2020 11:45:00 AM -0.01 31.982 0.073 6.93 2.09 14.58
12/21/2020 12:00:00 PM -0.02 31.964 0.073 6.93 2.32 14.58
12/21/2020 12:15:00 PM -0.02 31.964 0.073 6.94 2.35 14.58
12/21/2020 12:30:00 PM -0.01 31.982 0.073 6.94 2.27 14.58
12/21/2020 12:45:00 PM -0.01 31.982 0.073 6.94 2.31 14.58
12/21/2020 1:00:00 PM 0 32 0.073 6.94 2.95 14.58
12/21/2020 1:15:00 PM 0.03 32.054 0.073 6.95 2.52 14.58
12/21/2020 1:30:00 PM 0.06 32.108 0.073 6.95 2.44 14.58
12/21/2020 1:45:00 PM 0.08 32.144 0.073 6.95 2.25 14.57
12/21/2020 2:00:00 PM 0.07 32.126 0.073 6.95 2.15 14.57
12/21/2020 2:15:00 PM 0.06 32.108 0.072 6.96 2.24 14.57
12/21/2020 2:30:00 PM 0.05 32.09 0.072 6.96 2.13 14.57
12/21/2020 2:45:00 PM 0.05 32.09 0.072 6.96 2.04 14.55
12/21/2020 3:00:00 PM 0.04 32.072 0.072 6.96 2 14.54
12/21/2020 3:15:00 PM 0.03 32.054 0.072 6.96 2.17 14.54
12/21/2020 3:30:00 PM 0.03 32.054 0.072 6.96 1.99 14.53
12/21/2020 3:45:00 PM 0.02 32.036 0.072 6.94 1.91 14.52
12/21/2020 4:00:00 PM 0.01 32.018 0.072 6.96 1.94 14.5
12/21/2020 4:15:00 PM 0 32 0.073 6.96 1.86 14.48
12/21/2020 4:30:00 PM 0 32 0.073 6.96 1.84 14.46
12/21/2020 4:45:00 PM -0.01 31.982 0.073 6.95 1.93 14.43
12/21/2020 5:00:00 PM -0.01 31.982 0.073 6.95 1.77 14.41
12/21/2020 5:15:00 PM -0.01 31.982 0.073 6.95 1.96 14.39
12/21/2020 5:30:00 PM -0.01 31.982 0.073 6.93 1.78 14.37
12/21/2020 5:45:00 PM -0.01 31.982 0.073 6.93 1.84 14.36
12/21/2020 6:00:00 PM -0.01 31.982 0.073 6.93 1.78 14.34
12/21/2020 6:15:00 PM -0.01 31.982 0.073 6.92 1.78 14.34
12/21/2020 6:30:00 PM -0.02 31.964 0.073 6.92 1.75 14.33
12/21/2020 6:45:00 PM -0.01 31.982 0.073 6.92 1.78 14.32
12/21/2020 7:00:00 PM -0.01 31.982 0.073 6.91 1.78 14.32
12/21/2020 7:15:00 PM -0.01 31.982 0.073 6.91 1.71 14.32
12/21/2020 7:30:00 PM -0.01 31.982 0.073 6.91 1.7 14.31
12/21/2020 7:45:00 PM -0.01 31.982 0.073 6.9 1.79 14.31
12/21/2020 8:00:00 PM -0.01 31.982 0.073 6.9 1.79 14.31
12/21/2020 8:15:00 PM -0.01 31.982 0.073 6.9 1.69 14.3
12/21/2020 8:30:00 PM -0.01 31.982 0.074 6.91 1.64 14.29
12/21/2020 8:45:00 PM -0.01 31.982 0.074 6.9 1.66 14.3
12/21/2020 9:00:00 PM -0.01 31.982 0.074 6.9 1.6 14.29
12/21/2020 9:15:00 PM -0.01 31.982 0.074 6.89 1.61 14.29
12/21/2020 9:30:00 PM -0.01 31.982 0.074 6.89 1.78 14.29
12/21/2020 9:45:00 PM -0.01 31.982 0.074 6.89 1.62 14.29
12/21/2020 10:00:00 PM -0.01 31.982 0.074 6.89 1.58 14.28
12/21/2020 10:15:00 PM -0.01 31.982 0.074 6.88 1.61 14.28
12/21/2020 10:30:00 PM -0.01 31.982 0.074 6.89 1.62 14.28
12/21/2020 10:45:00 PM -0.01 31.982 0.074 6.88 1.59 14.28
12/21/2020 11:00:00 PM -0.01 31.982 0.074 6.88 1.65 14.28
12/21/2020 11:15:00 PM -0.01 31.982 0.074 6.88 1.71 14.28
12/21/2020 11:30:00 PM -0.01 31.982 0.074 6.88 1.59 14.27
12/21/2020 11:45:00 PM -0.01 31.982 0.074 6.88 1.8 14.27
12/22/2020 12:00:00 AM -0.01 31.982 0.074 6.88 1.68 14.27
12/22/2020 12:15:00 AM -0.01 31.982 0.074 6.87 1.67 14.27
12/22/2020 12:30:00 AM -0.01 31.982 0.074 6.87 1.72 14.27
12/22/2020 12:45:00 AM -0.01 31.982 0.074 6.87 1.64 14.27
12/22/2020 1:00:00 AM -0.01 31.982 0.074 6.87 1.62 14.27
12/22/2020 1:15:00 AM -0.02 31.964 0.074 6.87 1.68 14.27
12/22/2020 1:30:00 AM -0.05 31.91 0.074 6.87 1.73 14.26
12/22/2020 1:45:00 AM -0.05 31.91 0.074 6.87 1.81 14.27
12/22/2020 2:00:00 AM -0.05 31.91 0.075 6.87 1.71 14.26
12/22/2020 2:15:00 AM -0.04 31.928 0.075 6.87 1.73 14.27
12/22/2020 2:30:00 AM -0.03 31.946 0.075 6.87 1.64 14.26
12/22/2020 2:45:00 AM -0.02 31.964 0.075 6.87 1.61 14.27
12/22/2020 3:00:00 AM -0.02 31.964 0.075 6.87 1.59 14.26
12/22/2020 3:15:00 AM -0.03 31.946 0.075 6.87 1.65 14.27
12/22/2020 3:30:00 AM -0.02 31.964 0.075 6.87 1.56 14.26
12/22/2020 3:45:00 AM -0.02 31.964 0.075 6.87 1.57 14.26
12/22/2020 4:00:00 AM -0.01 31.982 0.075 6.87 1.6 14.26
12/22/2020 4:15:00 AM -0.01 31.982 0.075 6.87 1.6 14.27
12/22/2020 4:30:00 AM -0.01 31.982 0.075 6.87 1.56 14.27
12/22/2020 4:45:00 AM -0.01 31.982 0.075 6.87 1.64 14.27
12/22/2020 5:00:00 AM -0.01 31.982 0.075 6.87 1.62 14.27
12/22/2020 5:15:00 AM -0.01 31.982 0.075 6.87 1.62 14.27
12/22/2020 5:30:00 AM -0.01 31.982 0.075 6.87 1.65 14.27
12/22/2020 5:45:00 AM -0.01 31.982 0.075 6.87 1.62 14.28
12/22/2020 6:00:00 AM -0.02 31.964 0.075 6.88 1.59 14.28
12/22/2020 6:15:00 AM -0.03 31.946 0.075 6.88 1.6 14.28
12/22/2020 6:30:00 AM -0.04 31.928 0.075 6.88 1.62 14.28
12/22/2020 6:45:00 AM -0.05 31.91 0.076 6.87 1.72 14.29
12/22/2020 7:00:00 AM -0.03 31.946 0.076 6.87 1.64 14.29
12/22/2020 7:15:00 AM -0.02 31.964 0.076 6.88 1.58 14.29
12/22/2020 7:30:00 AM -0.02 31.964 0.076 6.87 1.61 14.3
12/22/2020 7:45:00 AM -0.01 31.982 0.076 6.87 1.62 14.31
12/22/2020 8:00:00 AM -0.01 31.982 0.076 6.87 1.56 14.32
12/22/2020 8:15:00 AM -0.02 31.964 0.076 6.86 1.62 14.36
12/22/2020 8:30:00 AM -0.01 31.982 0.076 6.87 1.53 14.39
12/22/2020 8:45:00 AM 0.01 32.018 0.076 6.88 1.59 14.42
12/22/2020 9:00:00 AM 0.03 32.054 0.076 6.89 1.59 14.44
12/22/2020 9:15:00 AM 0.03 32.054 0.076 6.89 1.57 14.47
12/22/2020 9:30:00 AM 0.03 32.054 0.076 6.9 1.59 14.48
12/22/2020 9:45:00 AM 0.04 32.072 0.076 6.91 1.61 14.5
12/22/2020 10:00:00 AM 0.06 32.108 0.077 6.91 1.69 14.53
12/22/2020 10:15:00 AM 0.1 32.18 0.077 6.92 1.69 14.55
12/22/2020 10:30:00 AM 0.12 32.216 0.077 6.93 1.65 14.56
12/22/2020 10:45:00 AM 0.16 32.288 0.077 6.93 1.72 14.58
12/22/2020 11:00:00 AM 0.15 32.27 0.077 6.94 1.69 14.59
12/22/2020 11:15:00 AM 0.19 32.342 0.077 6.94 1.82 14.6
12/22/2020 11:30:00 AM 0.21 32.378 0.077 6.95 1.79 14.6
12/22/2020 11:45:00 AM 0.21 32.378 0.077 6.95 1.87 14.61
12/22/2020 12:00:00 PM 0.17 32.306 0.077 6.95 1.96 14.59
12/22/2020 12:15:00 PM 0.2 32.36 0.077 6.96 1.98 14.6
12/22/2020 12:30:00 PM 0.21 32.378 0.077 6.96 2.04 14.61
12/22/2020 12:45:00 PM 0.18 32.324 0.077 6.97 2.11 14.6
12/22/2020 1:00:00 PM 0.17 32.306 0.077 6.97 2.08 14.61
12/22/2020 1:15:00 PM 0.14 32.252 0.076 6.97 2.05 14.61
12/22/2020 1:30:00 PM 0.12 32.216 0.076 6.97 2.06 14.6
12/22/2020 1:45:00 PM 0.11 32.198 0.076 6.97 2 14.6
12/22/2020 2:00:00 PM 0.09 32.162 0.076 6.97 2 14.59
12/22/2020 2:15:00 PM 0.08 32.144 0.076 6.97 1.95 14.6
12/22/2020 2:30:00 PM 0.08 32.144 0.076 6.97 1.92 14.6
12/22/2020 2:45:00 PM 0.08 32.144 0.076 6.97 2.01 14.6
12/22/2020 3:00:00 PM 0.08 32.144 0.076 6.98 2.02 14.6
12/22/2020 3:15:00 PM 0.07 32.126 0.076 6.97 1.98 14.6
12/22/2020 3:30:00 PM 0.07 32.126 0.076 6.97 1.91 14.6
12/22/2020 3:45:00 PM 0.07 32.126 0.076 6.97 1.86 14.6
12/22/2020 4:00:00 PM 0.06 32.108 0.076 6.98 2.06 14.59
12/22/2020 4:15:00 PM 0.06 32.108 0.077 6.97 1.88 14.59
12/22/2020 4:30:00 PM 0.05 32.09 0.077 6.96 1.94 14.57
12/22/2020 4:45:00 PM 0.03 32.054 0.077 6.95 1.94 14.55
12/22/2020 5:00:00 PM 0.03 32.054 0.077 6.95 1.91 14.54
12/22/2020 5:15:00 PM 0.02 32.036 0.077 6.94 2.07 14.52
12/22/2020 5:30:00 PM 0.02 32.036 0.077 6.93 1.96 14.52
12/22/2020 5:45:00 PM 0.02 32.036 0.077 6.93 1.96 14.51
12/22/2020 6:00:00 PM 0.02 32.036 0.077 6.92 2.03 14.5
12/22/2020 6:15:00 PM 0.02 32.036 0.077 6.92 2 14.5
12/22/2020 6:30:00 PM 0.01 32.018 0.078 6.92 1.99 14.5
12/22/2020 6:45:00 PM 0.01 32.018 0.078 6.92 1.99 14.49
12/22/2020 7:00:00 PM 0.01 32.018 0.078 6.92 1.92 14.49
12/22/2020 7:15:00 PM 0.01 32.018 0.078 6.92 1.85 14.49
12/22/2020 7:30:00 PM 0 32 0.078 6.92 2.01 14.49
12/22/2020 7:45:00 PM -0.03 31.946 0.078 6.92 2.05 14.49
12/22/2020 8:00:00 PM -0.02 31.964 0.078 6.91 2.09 14.5
12/22/2020 8:15:00 PM 0 32 0.079 6.91 2.07 14.5
12/22/2020 8:30:00 PM 0 32 0.079 6.91 1.98 14.49
12/22/2020 8:45:00 PM 0 32 0.079 6.91 1.97 14.5
12/22/2020 9:00:00 PM 0 32 0.079 6.9 2.02 14.5
12/22/2020 9:15:00 PM 0 32 0.079 6.9 1.98 14.5
12/22/2020 9:30:00 PM 0 32 0.079 6.9 2 14.5
12/22/2020 9:45:00 PM 0 32 0.079 6.9 1.87 14.5
12/22/2020 10:00:00 PM 0 32 0.079 6.9 1.95 14.5
12/22/2020 10:15:00 PM 0 32 0.079 6.9 1.91 14.51
12/22/2020 10:30:00 PM 0 32 0.079 6.9 1.88 14.5
12/22/2020 10:45:00 PM -0.01 31.982 0.079 6.9 1.96 14.51
12/22/2020 11:00:00 PM -0.02 31.964 0.079 6.9 1.89 14.5
12/22/2020 11:15:00 PM -0.03 31.946 0.079 6.89 1.85 14.51
12/22/2020 11:30:00 PM -0.04 31.928 0.079 6.9 1.92 14.52
12/22/2020 11:45:00 PM -0.03 31.946 0.08 6.9 1.85 14.51
12/23/2020 12:00:00 AM -0.02 31.964 0.08 6.9 1.85 14.51
12/23/2020 12:15:00 AM -0.02 31.964 0.08 6.9 1.83 14.51
12/23/2020 12:30:00 AM -0.02 31.964 0.08 6.89 1.95 14.51
12/23/2020 12:45:00 AM -0.02 31.964 0.08 6.9 1.99 14.52
12/23/2020 1:00:00 AM -0.02 31.964 0.08 6.9 1.88 14.52
12/23/2020 1:15:00 AM -0.01 31.982 0.08 6.89 1.87 14.52
12/23/2020 1:30:00 AM -0.01 31.982 0.08 6.88 1.88 14.52
12/23/2020 1:45:00 AM -0.02 31.964 0.08 6.89 1.89 14.52
12/23/2020 2:00:00 AM -0.02 31.964 0.08 6.89 1.91 14.51
12/23/2020 2:15:00 AM -0.02 31.964 0.08 6.9 1.85 14.52
12/23/2020 2:30:00 AM -0.02 31.964 0.08 6.9 1.85 14.52
12/23/2020 2:45:00 AM -0.01 31.982 0.08 6.89 1.86 14.53
12/23/2020 3:00:00 AM -0.01 31.982 0.081 6.89 1.85 14.52
12/23/2020 3:15:00 AM -0.01 31.982 0.081 6.89 1.83 14.53
12/23/2020 3:30:00 AM -0.02 31.964 0.081 6.88 1.88 14.53
12/23/2020 3:45:00 AM -0.03 31.946 0.081 6.88 1.88 14.53
12/23/2020 4:00:00 AM -0.04 31.928 0.081 6.88 1.86 14.53
12/23/2020 4:15:00 AM -0.06 31.892 0.081 6.88 1.87 14.53
12/23/2020 4:30:00 AM -0.08 31.856 0.081 6.88 1.88 14.54
12/23/2020 4:45:00 AM -0.09 31.838 0.081 6.88 1.94 14.54
12/23/2020 5:00:00 AM -0.08 31.856 0.081 6.87 2 14.56
12/23/2020 5:15:00 AM -0.07 31.874 0.082 6.87 2.12 14.56
12/23/2020 5:30:00 AM -0.07 31.874 0.082 6.88 2.13 14.56
12/23/2020 5:45:00 AM -0.07 31.874 0.082 6.88 2.08 14.57
12/23/2020 6:00:00 AM -0.07 31.874 0.082 6.88 2.21 14.57
12/23/2020 6:15:00 AM -0.07 31.874 0.082 6.88 2.02 14.57
12/23/2020 6:30:00 AM -0.07 31.874 0.082 6.88 2.04 14.57
12/23/2020 6:45:00 AM -0.07 31.874 0.082 6.88 2.13 14.58
12/23/2020 7:00:00 AM -0.07 31.874 0.082 6.88 2.11 14.58
12/23/2020 7:15:00 AM -0.06 31.892 0.083 6.89 2.1 14.58
12/23/2020 7:30:00 AM -0.07 31.874 0.083 6.89 2.11 14.58
12/23/2020 7:45:00 AM -0.06 31.892 0.083 6.89 2.41 14.59
12/23/2020 8:00:00 AM -0.06 31.892 0.083 6.89 2.36 14.6
12/23/2020 8:15:00 AM -0.06 31.892 0.083 6.9 2.49 14.63
12/23/2020 8:30:00 AM -0.06 31.892 0.083 6.91 2.05 14.66
12/23/2020 8:45:00 AM -0.06 31.892 0.083 6.91 1.91 14.68
12/23/2020 9:00:00 AM -0.05 31.91 0.083 6.92 1.9 14.71
12/23/2020 9:15:00 AM -0.05 31.91 0.083 6.93 1.83 14.73
12/23/2020 9:30:00 AM -0.05 31.91 0.083 6.93 1.88 14.75
12/23/2020 9:45:00 AM -0.05 31.91 0.084 6.94 1.73 14.76
12/23/2020 10:00:00 AM -0.04 31.928 0.084 6.94 1.75 14.78
12/23/2020 10:15:00 AM -0.03 31.946 0.084 6.94 1.74 14.79
12/23/2020 10:30:00 AM 0 32 0.084 6.95 1.76 14.8
12/23/2020 10:45:00 AM 0.01 32.018 0.084 6.95 1.74 14.8
12/23/2020 11:00:00 AM 0.01 32.018 0.084 6.95 1.83 14.8
12/23/2020 11:15:00 AM 0.02 32.036 0.084 6.95 1.85 14.8
12/23/2020 11:30:00 AM 0.05 32.09 0.084 6.95 1.84 14.81
12/23/2020 11:45:00 AM 0.07 32.126 0.084 6.95 2.02 14.8
12/23/2020 12:00:00 PM 0.12 32.216 0.084 6.96 1.94 14.79
12/23/2020 12:15:00 PM 0.18 32.324 0.084 6.96 1.86 14.78
12/23/2020 12:30:00 PM 0.22 32.396 0.084 6.97 1.83 14.77
12/23/2020 12:45:00 PM 0.26 32.468 0.084 6.98 1.96 14.76
12/23/2020 1:00:00 PM 0.29 32.522 0.084 6.98 1.87 14.74
12/23/2020 1:15:00 PM 0.3 32.54 0.084 6.98 1.86 14.73
12/23/2020 1:30:00 PM 0.32 32.576 0.084 6.98 1.82 14.72
12/23/2020 1:45:00 PM 0.33 32.594 0.084 6.98 1.92 14.7
12/23/2020 2:00:00 PM 0.34 32.612 0.084 6.98 1.96 14.68
12/23/2020 2:15:00 PM 0.32 32.576 0.084 6.98 1.99 14.67
12/23/2020 2:30:00 PM 0.34 32.612 0.084 6.98 1.96 14.66
12/23/2020 2:45:00 PM 0.35 32.63 0.084 6.98 2.03 14.65
12/23/2020 3:00:00 PM 0.32 32.576 0.084 6.98 2.01 14.63
12/23/2020 3:15:00 PM 0.29 32.522 0.084 6.98 2.12 14.61
12/23/2020 3:30:00 PM 0.26 32.468 0.084 6.98 2.03 14.6
12/23/2020 3:45:00 PM 0.24 32.432 0.085 6.97 1.98 14.58
12/23/2020 4:00:00 PM 0.23 32.414 0.085 6.98 2.05 14.57
12/23/2020 4:15:00 PM 0.22 32.396 0.085 6.98 2.12 14.55
12/23/2020 4:30:00 PM 0.21 32.378 0.085 6.98 2.07 14.52
12/23/2020 4:45:00 PM 0.2 32.36 0.085 6.98 1.99 14.49
12/23/2020 5:00:00 PM 0.18 32.324 0.085 6.97 2.04 14.46
12/23/2020 5:15:00 PM 0.18 32.324 0.085 6.96 2.01 14.43
12/23/2020 5:30:00 PM 0.19 32.342 0.085 6.96 2.04 14.4
12/23/2020 5:45:00 PM 0.19 32.342 0.086 6.96 2.11 14.38
12/23/2020 6:00:00 PM 0.19 32.342 0.086 6.96 2.01 14.36
12/23/2020 6:15:00 PM 0.19 32.342 0.086 6.96 2.01 14.34
12/23/2020 6:30:00 PM 0.2 32.36 0.086 6.95 2 14.32
12/23/2020 6:45:00 PM 0.2 32.36 0.086 6.95 2.01 14.31
12/23/2020 7:00:00 PM 0.21 32.378 0.087 6.95 1.96 14.3
12/23/2020 7:15:00 PM 0.21 32.378 0.087 6.95 1.96 14.29
12/23/2020 7:30:00 PM 0.21 32.378 0.087 6.95 1.98 14.28
12/23/2020 7:45:00 PM 0.21 32.378 0.087 6.94 2.01 14.27
12/23/2020 8:00:00 PM 0.21 32.378 0.087 6.94 1.96 14.27
12/23/2020 8:15:00 PM 0.21 32.378 0.088 6.93 1.99 14.26
12/23/2020 8:30:00 PM 0.23 32.414 0.088 6.94 2.1 14.25
12/23/2020 8:45:00 PM 0.24 32.432 0.088 6.93 1.97 14.25
12/23/2020 9:00:00 PM 0.25 32.45 0.088 6.93 2.08 14.23
12/23/2020 9:15:00 PM 0.27 32.486 0.089 6.94 2 14.23
12/23/2020 9:30:00 PM 0.29 32.522 0.089 6.94 2.05 14.22
12/23/2020 9:45:00 PM 0.29 32.522 0.089 6.94 2.06 14.21
12/23/2020 10:00:00 PM 0.3 32.54 0.089 6.94 2.06 14.21
12/23/2020 10:15:00 PM 0.3 32.54 0.089 6.94 2.08 14.2
12/23/2020 10:30:00 PM 0.31 32.558 0.089 6.94 2 14.2
12/23/2020 10:45:00 PM 0.31 32.558 0.09 6.94 2.02 14.19
12/23/2020 11:00:00 PM 0.31 32.558 0.09 6.94 2.04 14.18
12/23/2020 11:15:00 PM 0.32 32.576 0.09 6.95 1.9 14.19
12/23/2020 11:30:00 PM 0.33 32.594 0.09 6.94 1.99 14.19
12/23/2020 11:45:00 PM 0.33 32.594 0.09 6.94 1.95 14.18
12/24/2020 12:00:00 AM 0.31 32.558 0.09 6.95 1.98 14.18
12/24/2020 12:15:00 AM 0.3 32.54 0.09 6.95 2.05 14.19
12/24/2020 12:30:00 AM 0.31 32.558 0.091 6.94 1.96 14.18
12/24/2020 12:45:00 AM 0.31 32.558 0.091 6.94 1.95 14.18
12/24/2020 1:00:00 AM 0.31 32.558 0.091 6.94 2 14.18
12/24/2020 1:15:00 AM 0.3 32.54 0.091 6.94 1.95 14.17
12/24/2020 1:30:00 AM 0.31 32.558 0.091 6.94 2.04 14.17
12/24/2020 1:45:00 AM 0.33 32.594 0.091 6.94 2.01 14.16
12/24/2020 2:00:00 AM 0.36 32.648 0.091 6.95 1.91 14.15
12/24/2020 2:15:00 AM 0.38 32.684 0.091 6.94 1.89 14.15
12/24/2020 2:30:00 AM 0.38 32.684 0.092 6.95 1.91 14.14
12/24/2020 2:45:00 AM 0.38 32.684 0.092 6.95 2.02 14.13
12/24/2020 3:00:00 AM 0.42 32.756 0.092 6.95 1.9 14.13
12/24/2020 3:15:00 AM 0.44 32.792 0.092 6.95 1.89 14.1
12/24/2020 3:30:00 AM 0.46 32.828 0.092 6.95 1.91 14.1
12/24/2020 3:45:00 AM 0.49 32.882 0.092 6.95 1.9 14.09
12/24/2020 4:00:00 AM 0.51 32.918 0.092 6.95 1.92 14.08
12/24/2020 4:15:00 AM 0.51 32.918 0.092 6.95 1.82 14.07
12/24/2020 4:30:00 AM 0.52 32.936 0.092 6.95 1.92 14.08
12/24/2020 4:45:00 AM 0.53 32.954 0.093 6.95 1.96 14.07
12/24/2020 5:00:00 AM 0.54 32.972 0.093 6.95 1.86 14.05
12/24/2020 5:15:00 AM 0.58 33.044 0.093 6.95 1.94 14.03
12/24/2020 5:30:00 AM 0.62 33.116 0.093 6.95 1.91 14.03
12/24/2020 5:45:00 AM 0.65 33.17 0.093 6.95 1.97 14.01
12/24/2020 6:00:00 AM 0.68 33.224 0.093 6.95 2.02 14
12/24/2020 6:15:00 AM 0.71 33.278 0.093 6.95 1.9 13.99
12/24/2020 6:30:00 AM 0.74 33.332 0.093 6.95 1.84 13.97
12/24/2020 6:45:00 AM 0.77 33.386 0.093 6.95 1.93 13.98
12/24/2020 7:00:00 AM 0.79 33.422 0.093 6.95 1.89 13.95
12/24/2020 7:15:00 AM 0.82 33.476 0.093 6.95 1.89 13.96
12/24/2020 7:30:00 AM 0.84 33.512 0.092 6.95 1.8 13.95
12/24/2020 7:45:00 AM 0.87 33.566 0.092 6.95 1.88 13.94
12/24/2020 8:00:00 AM 0.89 33.602 0.092 6.94 1.93 13.94
12/24/2020 8:15:00 AM 0.9 33.62 0.092 6.94 1.89 13.92
12/24/2020 8:30:00 AM 0.91 33.638 0.092 6.94 1.97 13.92
12/24/2020 8:45:00 AM 0.93 33.674 0.092 6.95 2.03 13.93
12/24/2020 9:00:00 AM 0.95 33.71 0.092 6.95 2.04 13.95
12/24/2020 9:15:00 AM 0.98 33.764 0.092 6.96 2.08 13.96
12/24/2020 9:30:00 AM 1.01 33.818 0.091 6.96 2.15 13.97
12/24/2020 9:45:00 AM 1.03 33.854 0.091 6.96 2.21 13.98
12/24/2020 10:00:00 AM 1.03 33.854 0.091 6.96 2.44 13.98
12/24/2020 10:15:00 AM 1.03 33.854 0.091 6.96 2.59 13.99
12/24/2020 10:30:00 AM 1.11 33.998 0.091 6.96 2.65 13.99
12/24/2020 10:45:00 AM 1.15 34.07 0.09 6.96 2.73 13.99
12/24/2020 11:00:00 AM 1.18 34.124 0.091 6.95 3.11 13.98
12/24/2020 11:15:00 AM 1.2 34.16 0.092 6.95 3.45 13.98
12/24/2020 11:30:00 AM 1.23 34.214 0.094 6.95 3.9 13.97
12/24/2020 11:45:00 AM 1.25 34.25 0.095 6.95 4.73 13.95
12/24/2020 12:00:00 PM 1.25 34.25 0.095 6.96 5.52 13.94
12/24/2020 12:15:00 PM 1.26 34.268 0.095 6.96 6.39 13.91
12/24/2020 12:30:00 PM 1.25 34.25 0.094 6.95 9.76 13.9
12/24/2020 12:45:00 PM 1.26 34.268 0.093 6.95 10.58 13.87
12/24/2020 1:00:00 PM 1.27 34.286 0.093 6.95 11.59 13.85
12/24/2020 1:15:00 PM 1.27 34.286 0.092 6.94 13.48 13.82
12/24/2020 1:30:00 PM 1.28 34.304 0.092 6.93 14.93 13.78
12/24/2020 1:45:00 PM 1.31 34.358 0.092 6.92 16.56 13.75
12/24/2020 2:00:00 PM 1.31 34.358 0.091 6.89 20.18 13.7
12/24/2020 2:15:00 PM 1.31 34.358 0.09 6.88 24.93 13.66
12/24/2020 2:30:00 PM 1.37 34.466 0.09 6.87 34.8 13.64
12/24/2020 2:45:00 PM 1.4 34.52 0.089 6.87 30 13.59
12/24/2020 3:00:00 PM 1.41 34.538 0.088 6.88 44.62 13.56
12/24/2020 3:15:00 PM 1.46 34.628 0.088 6.87 28.24 13.53
12/24/2020 3:30:00 PM 1.48 34.664 0.087 6.87 37.2 13.5
12/24/2020 3:45:00 PM 1.5 34.7 0.087 6.87 47.69 13.46
12/24/2020 4:00:00 PM 1.5 34.7 0.087 6.87 38.55 13.43
12/24/2020 4:15:00 PM 1.53 34.754 0.087 6.87 45.5 13.4
12/24/2020 4:30:00 PM 1.54 34.772 0.086 6.86 71.49 13.38
12/24/2020 4:45:00 PM 1.53 34.754 0.086 6.85 53.41 13.36
12/24/2020 5:00:00 PM 1.5 34.7 0.086 6.85 54.34 13.35
12/24/2020 5:15:00 PM 1.52 34.736 0.085 6.83 61 13.33
12/24/2020 5:30:00 PM 1.51 34.718 0.086 6.83 61.14 13.31
12/24/2020 5:45:00 PM 1.53 34.754 0.086 6.79 72.49 13.29
12/24/2020 6:00:00 PM 1.59 34.862 0.087 6.79 96.4 13.25
12/24/2020 6:15:00 PM 1.7 35.06 0.087 6.79 127.76 13.23
12/24/2020 6:30:00 PM 1.8 35.24 0.086 6.77 136.97 13.19
12/24/2020 6:45:00 PM 1.83 35.294 0.085 6.72 107.18 13.14
12/24/2020 7:00:00 PM 1.86 35.348 0.084 6.71 122.91 13.15
12/24/2020 7:15:00 PM 1.89 35.402 0.082 6.7 120.74 13.15
12/24/2020 7:30:00 PM 1.93 35.474 0.081 6.7 158.98 13.14
12/24/2020 7:45:00 PM 2.01 35.618 0.081 6.7 138.79 13.14
12/24/2020 8:00:00 PM 2.07 35.726 0.081 6.69 122.76 13.13
12/24/2020 8:15:00 PM 2.14 35.852 0.081 6.69 128.37 13.12
12/24/2020 8:30:00 PM 2.17 35.906 0.081 6.68 146.63 13.11
12/24/2020 8:45:00 PM 2.22 35.996 0.082 6.66 119.31 13.1
12/24/2020 9:00:00 PM 2.27 36.086 0.082 6.66 139.64 13.09
12/24/2020 9:15:00 PM 2.32 36.176 0.084 6.65 161.85 13.08
12/24/2020 9:30:00 PM 2.37 36.266 0.085 6.65 151.92 13.07
12/24/2020 9:45:00 PM 2.41 36.338 0.087 6.65 151.2 13.06
12/24/2020 10:00:00 PM 2.46 36.428 0.088 6.65 145.89 13.05
12/24/2020 10:15:00 PM 2.51 36.518 0.087 6.67 124.98 13.03
12/24/2020 10:30:00 PM 2.55 36.59 0.086 6.66 146.23 13.01
12/24/2020 10:45:00 PM 2.6 36.68 0.085 6.67 133.92 13
12/24/2020 11:00:00 PM 2.65 36.77 0.084 6.67 144.92 12.98
12/24/2020 11:15:00 PM 2.7 36.86 0.083 6.67 143.32 12.96
12/24/2020 11:30:00 PM 2.75 36.95 0.082 6.69 133.61 12.95
12/24/2020 11:45:00 PM 2.79 37.022 0.081 6.68 131.94 12.93
12/25/2020 12:00:00 AM 2.84 37.112 0.08 6.7 121.79 12.92
12/25/2020 12:15:00 AM 2.89 37.202 0.079 6.68 119.2 12.89
12/25/2020 12:30:00 AM 2.94 37.292 0.078 6.68 118.92 12.88
12/25/2020 12:45:00 AM 3 37.4 0.077 6.66 116.86 12.85
12/25/2020 1:00:00 AM 3.05 37.49 0.076 6.66 103.04 12.84
12/25/2020 1:15:00 AM 3.1 37.58 0.075 6.66 108.58 12.83
12/25/2020 1:30:00 AM 3.18 37.724 0.073 6.66 82.62 12.81
12/25/2020 1:45:00 AM 3.22 37.796 0.072 6.66 84.85 12.79
12/25/2020 2:00:00 AM 3.25 37.85 0.071 6.66 102.78 12.79
12/25/2020 2:15:00 AM 3.29 37.922 0.07 6.65 108.28 12.76
12/25/2020 2:30:00 AM 3.31 37.958 0.07 6.64 88.44 12.77
12/25/2020 2:45:00 AM 3.33 37.994 0.069 6.64 100.26 12.76
12/25/2020 3:00:00 AM 3.35 38.03 0.068 6.64 94.49 12.75
12/25/2020 3:15:00 AM 3.36 38.048 0.067 6.63 82.96 12.74
12/25/2020 3:30:00 AM 3.34 38.012 0.067 6.65 95.03 12.72
12/25/2020 3:45:00 AM 3.31 37.958 0.066 6.62 114.11 12.73
12/25/2020 4:00:00 AM 3.29 37.922 0.065 6.62 106.31 12.73
12/25/2020 4:15:00 AM 3.29 37.922 0.065 6.61 102.68 12.74
12/25/2020 4:30:00 AM 3.27 37.886 0.064 6.61 98.26 12.73
12/25/2020 4:45:00 AM 3.26 37.868 0.063 6.6 135.84 12.74
12/25/2020 5:00:00 AM 3.23 37.814 0.062 6.59 111.07 12.74
12/25/2020 5:15:00 AM 3.23 37.814 0.062 6.58 126.92 12.74
12/25/2020 5:30:00 AM 3.2 37.76 0.061 6.57 105.76 12.74
12/25/2020 5:45:00 AM 3.17 37.706 0.061 6.55 125.42 12.77
12/25/2020 6:00:00 AM 3.14 37.652 0.061 6.53 118.43 12.77
12/25/2020 6:15:00 AM 3.08 37.544 0.06 6.53 117.06 12.8
12/25/2020 6:30:00 AM 3.07 37.526 0.06 6.52 112.81 12.81
12/25/2020 6:45:00 AM 3.09 37.562 0.059 6.53 132.43 12.81
12/25/2020 7:00:00 AM 3.1 37.58 0.059 6.54 101.12 12.82
12/25/2020 7:15:00 AM 3.13 37.634 0.059 6.55 98.78 12.82
12/25/2020 7:30:00 AM 3.18 37.724 0.058 6.55 94.7 12.82
12/25/2020 7:45:00 AM 3.23 37.814 0.058 6.55 73.44 12.82
12/25/2020 8:00:00 AM 3.26 37.868 0.058 6.56 78.05 12.81
12/25/2020 8:15:00 AM 3.3 37.94 0.058 6.56 70.26 12.81
12/25/2020 8:30:00 AM 3.32 37.976 0.058 6.56 54.29 12.79
12/25/2020 8:45:00 AM 3.34 38.012 0.057 6.56 54.81 12.8
12/25/2020 9:00:00 AM 3.35 38.03 0.057 6.56 61.91 12.79
12/25/2020 9:15:00 AM 3.38 38.084 0.057 6.55 52.03 12.8
12/25/2020 9:30:00 AM 3.39 38.102 0.057 6.55 57.16 12.79
12/25/2020 9:45:00 AM 3.41 38.138 0.057 6.54 50.29 12.79
12/25/2020 10:00:00 AM 3.43 38.174 0.056 6.54 47.56 12.79
12/25/2020 10:15:00 AM 3.46 38.228 0.056 6.54 45.63 12.78
12/25/2020 10:30:00 AM 3.48 38.264 0.056 6.53 44.7 12.78
12/25/2020 10:45:00 AM 3.5 38.3 0.056 6.53 39.31 12.78
12/25/2020 11:00:00 AM 3.52 38.336 0.055 6.52 40.22 12.78
12/25/2020 11:15:00 AM 3.54 38.372 0.055 6.53 36.94 12.77
12/25/2020 11:30:00 AM 3.55 38.39 0.055 6.53 39.29 12.77
12/25/2020 11:45:00 AM 3.56 38.408 0.055 6.53 34.71 12.77
12/25/2020 12:00:00 PM 3.56 38.408 0.054 6.53 30.78 12.77
12/25/2020 12:15:00 PM 3.57 38.426 0.054 6.53 33.99 12.77
12/25/2020 12:30:00 PM 3.57 38.426 0.054 6.53 34.12 12.77
12/25/2020 12:45:00 PM 3.57 38.426 0.054 6.53 32.8 12.77
12/25/2020 1:00:00 PM 3.58 38.444 0.053 6.54 30.47 12.77
12/25/2020 1:15:00 PM 3.59 38.462 0.053 6.53 30.08 12.77
12/25/2020 1:30:00 PM 3.6 38.48 0.053 6.53 23.54 12.77
12/25/2020 1:45:00 PM 3.61 38.498 0.053 6.52 38.13 12.77
12/25/2020 2:00:00 PM 3.62 38.516 0.053 6.52 27.34 12.77
12/25/2020 2:15:00 PM 3.62 38.516 0.053 6.53 26.88 12.77
12/25/2020 2:30:00 PM 3.62 38.516 0.052 6.54 24.55 12.77
12/25/2020 2:45:00 PM 3.63 38.534 0.052 6.54 69.8 12.77
12/25/2020 3:00:00 PM 3.63 38.534 0.052 6.55 25.57 12.77
12/25/2020 3:15:00 PM 3.63 38.534 0.052 6.54 22.54 12.78
12/25/2020 3:30:00 PM 3.61 38.498 0.052 6.52 26.99 12.78
12/25/2020 3:45:00 PM 3.6 38.48 0.052 6.53 18.27 12.79
12/25/2020 4:00:00 PM 3.58 38.444 0.051 6.53 32.83 12.79
12/25/2020 4:15:00 PM 3.56 38.408 0.051 6.54 20.37 12.79
12/25/2020 4:30:00 PM 3.54 38.372 0.051 6.54 21.04 12.79
12/25/2020 4:45:00 PM 3.52 38.336 0.051 6.54 20.77 12.8
12/25/2020 5:00:00 PM 3.5 38.3 0.051 6.53 22.72 12.8
12/25/2020 5:15:00 PM 3.48 38.264 0.051 6.51 21.53 12.81
12/25/2020 5:30:00 PM 3.46 38.228 0.051 6.51 21.83 12.81
12/25/2020 5:45:00 PM 3.43 38.174 0.051 6.5 22.06 12.83
12/25/2020 6:00:00 PM 3.4 38.12 0.051 6.5 21.16 12.84
12/25/2020 6:15:00 PM 3.37 38.066 0.051 6.5 25.68 12.84
12/25/2020 6:30:00 PM 3.34 38.012 0.051 6.5 22.87 12.85
12/25/2020 6:45:00 PM 3.31 37.958 0.05 6.5 20.67 12.86
12/25/2020 7:00:00 PM 3.28 37.904 0.05 6.5 20.48 12.87
12/25/2020 7:15:00 PM 3.25 37.85 0.05 6.51 22.85 12.89
12/25/2020 7:30:00 PM 3.23 37.814 0.05 6.5 17.48 12.91
12/25/2020 7:45:00 PM 3.19 37.742 0.05 6.51 18.52 12.91
12/25/2020 8:00:00 PM 3.17 37.706 0.05 6.51 17.35 12.91
12/25/2020 8:15:00 PM 3.14 37.652 0.05 6.52 17.58 12.93
12/25/2020 8:30:00 PM 3.12 37.616 0.05 6.52 16.86 12.95
12/25/2020 8:45:00 PM 3.1 37.58 0.05 6.54 25.35 12.96
12/25/2020 9:00:00 PM 3.06 37.508 0.05 6.56 16.3 12.96
12/25/2020 9:15:00 PM 3.03 37.454 0.05 6.56 16.54 12.98
12/25/2020 9:30:00 PM 3 37.4 0.05 6.56 15.88 12.99
12/25/2020 9:45:00 PM 2.98 37.364 0.05 6.56 16 13
12/25/2020 10:00:00 PM 2.95 37.31 0.05 6.56 15.87 13.01
12/25/2020 10:15:00 PM 2.92 37.256 0.05 6.55 13.45 13.02
12/25/2020 10:30:00 PM 2.89 37.202 0.05 6.56 17.32 13.03
12/25/2020 10:45:00 PM 2.86 37.148 0.05 6.55 15.63 13.04
12/25/2020 11:00:00 PM 2.83 37.094 0.05 6.55 14.69 13.05
12/25/2020 11:15:00 PM 2.8 37.04 0.05 6.54 15.87 13.07
12/25/2020 11:30:00 PM 2.77 36.986 0.05 6.54 15.92 13.08
12/25/2020 11:45:00 PM 2.74 36.932 0.05 6.54 15.55 13.09
12/26/2020 12:00:00 AM 2.71 36.878 0.05 6.54 15.04 13.1
12/26/2020 12:15:00 AM 2.68 36.824 0.05 6.54 14.74 13.11
12/26/2020 12:30:00 AM 2.65 36.77 0.05 6.54 14.64 13.12
12/26/2020 12:45:00 AM 2.62 36.716 0.05 6.54 14.93 13.14
12/26/2020 1:00:00 AM 2.58 36.644 0.05 6.54 14.75 13.15
12/26/2020 1:15:00 AM 2.54 36.572 0.05 6.54 14.42 13.17
12/26/2020 1:30:00 AM 2.5 36.5 0.05 6.55 14.48 13.18
12/26/2020 1:45:00 AM 2.46 36.428 0.05 6.54 14.27 13.2
12/26/2020 2:00:00 AM 2.43 36.374 0.05 6.55 13.59 13.21
12/26/2020 2:15:00 AM 2.4 36.32 0.05 6.55 14.11 13.22
12/26/2020 2:30:00 AM 2.37 36.266 0.05 6.54 14.33 13.23
12/26/2020 2:45:00 AM 2.35 36.23 0.05 6.54 14.92 13.25
12/26/2020 3:00:00 AM 2.32 36.176 0.05 6.54 13.79 13.26
12/26/2020 3:15:00 AM 2.29 36.122 0.05 6.53 13.79 13.27
12/26/2020 3:30:00 AM 2.26 36.068 0.05 6.52 13.53 13.28
12/26/2020 3:45:00 AM 2.23 36.014 0.05 6.53 12.98 13.3
12/26/2020 4:00:00 AM 2.2 35.96 0.05 6.53 13.58 13.31
12/26/2020 4:15:00 AM 2.16 35.888 0.05 6.54 12.5 13.32
12/26/2020 4:30:00 AM 2.13 35.834 0.05 6.54 12.16 13.33
12/26/2020 4:45:00 AM 2.09 35.762 0.05 6.55 11.72 13.35
12/26/2020 5:00:00 AM 2.06 35.708 0.05 6.55 12.07 13.36
12/26/2020 5:15:00 AM 2.04 35.672 0.05 6.55 12.55 13.37
12/26/2020 5:30:00 AM 2.02 35.636 0.05 6.55 11.68 13.37
12/26/2020 5:45:00 AM 2 35.6 0.05 6.55 11.96 13.39
12/26/2020 6:00:00 AM 1.98 35.564 0.05 6.53 11.35 13.4
12/26/2020 6:15:00 AM 1.96 35.528 0.05 6.53 10.6 13.41
12/26/2020 6:30:00 AM 1.94 35.492 0.05 6.55 11.16 13.42
12/26/2020 6:45:00 AM 1.91 35.438 0.05 6.55 10.88 13.44
12/26/2020 7:00:00 AM 1.89 35.402 0.05 6.55 10.78 13.44
12/26/2020 7:15:00 AM 1.87 35.366 0.05 6.56 10.63 13.47
12/26/2020 7:30:00 AM 1.84 35.312 0.05 6.56 10.83 13.47
12/26/2020 7:45:00 AM 1.82 35.276 0.05 6.56 11.01 13.49
12/26/2020 8:00:00 AM 1.8 35.24 0.05 6.56 11.52 13.5
12/26/2020 8:15:00 AM 1.79 35.222 0.05 6.55 10.04 13.51
12/26/2020 8:30:00 AM 1.78 35.204 0.05 6.56 10.87 13.52
12/26/2020 8:45:00 AM 1.76 35.168 0.05 6.56 10.34 13.54
12/26/2020 9:00:00 AM 1.75 35.15 0.05 6.56 9.6 13.55
12/26/2020 9:15:00 AM 1.75 35.15 0.05 6.56 9.67 13.56
12/26/2020 9:30:00 AM 1.75 35.15 0.05 6.56 9.51 13.57
12/26/2020 9:45:00 AM 1.75 35.15 0.05 6.56 9.85 13.59
12/26/2020 10:00:00 AM 1.75 35.15 0.05 6.57 9.27 13.6
12/26/2020 10:15:00 AM 1.76 35.168 0.05 6.58 9.39 13.6
12/26/2020 10:30:00 AM 1.77 35.186 0.05 6.57 9.56 13.62
12/26/2020 10:45:00 AM 1.79 35.222 0.05 6.57 9.12 13.62
12/26/2020 11:00:00 AM 1.8 35.24 0.05 6.57 8.66 13.63
12/26/2020 11:15:00 AM 1.81 35.258 0.05 6.58 9.11 13.62
12/26/2020 11:30:00 AM 1.82 35.276 0.05 6.58 8.93 13.64
12/26/2020 11:45:00 AM 1.84 35.312 0.05 6.58 9.42 13.63
12/26/2020 12:00:00 PM 1.86 35.348 0.05 6.59 9.39 13.64
12/26/2020 12:15:00 PM 1.88 35.384 0.05 6.58 8.81 13.63
12/26/2020 12:30:00 PM 1.9 35.42 0.05 6.58 8.56 13.63
12/26/2020 12:45:00 PM 1.92 35.456 0.05 6.58 8.29 13.63
12/26/2020 1:00:00 PM 1.95 35.51 0.05 6.58 8.83 13.62
12/26/2020 1:15:00 PM 1.98 35.564 0.05 6.58 9.6 13.62
12/26/2020 1:30:00 PM 1.99 35.582 0.05 6.58 9.3 13.61
12/26/2020 1:45:00 PM 2 35.6 0.05 6.59 8.02 13.6
12/26/2020 2:00:00 PM 2.01 35.618 0.05 6.58 8.33 13.6
12/26/2020 2:15:00 PM 2.01 35.618 0.05 6.59 8.65 13.6
12/26/2020 2:30:00 PM 2.01 35.618 0.05 6.59 7.81 13.59
12/26/2020 2:45:00 PM 2.02 35.636 0.05 6.54 8.06 13.6
12/26/2020 3:00:00 PM 2.02 35.636 0.05 6.58 7.92 13.59
12/26/2020 3:15:00 PM 2.01 35.618 0.05 6.59 9.28 13.59
12/26/2020 3:30:00 PM 2.01 35.618 0.05 6.59 8.33 13.57
12/26/2020 3:45:00 PM 2 35.6 0.05 6.58 7.98 13.57
12/26/2020 4:00:00 PM 1.99 35.582 0.05 6.58 7.7 13.56
12/26/2020 4:15:00 PM 1.99 35.582 0.05 6.59 7.71 13.56
12/26/2020 4:30:00 PM 1.97 35.546 0.05 6.58 7.61 13.55
12/26/2020 4:45:00 PM 1.95 35.51 0.05 6.59 7.61 13.56
12/26/2020 5:00:00 PM 1.93 35.474 0.05 6.58 7.67 13.55
12/26/2020 5:15:00 PM 1.92 35.456 0.05 6.59 7.78 13.55
12/26/2020 5:30:00 PM 1.91 35.438 0.05 6.58 7.89 13.56
12/26/2020 5:45:00 PM 1.89 35.402 0.051 6.59 7.96 13.55
12/26/2020 6:00:00 PM 1.88 35.384 0.051 6.59 7.48 13.55
12/26/2020 6:15:00 PM 1.87 35.366 0.05 6.57 7.42 13.55
12/26/2020 6:30:00 PM 1.86 35.348 0.051 6.58 7.02 13.55
12/26/2020 6:45:00 PM 1.85 35.33 0.051 6.58 7.56 13.56
12/26/2020 7:00:00 PM 1.83 35.294 0.051 6.58 7.05 13.56
12/26/2020 7:15:00 PM 1.82 35.276 0.051 6.58 7.74 13.56
12/26/2020 7:30:00 PM 1.81 35.258 0.051 6.58 7.62 13.58
12/26/2020 7:45:00 PM 1.8 35.24 0.051 6.58 7.18 13.57
12/26/2020 8:00:00 PM 1.79 35.222 0.051 6.58 6.66 13.58
12/26/2020 8:15:00 PM 1.78 35.204 0.051 6.57 7.2 13.59
12/26/2020 8:30:00 PM 1.77 35.186 0.051 6.57 7.44 13.58
12/26/2020 8:45:00 PM 1.76 35.168 0.051 6.57 7.5 13.59
12/26/2020 9:00:00 PM 1.75 35.15 0.051 6.58 7.09 13.59
12/26/2020 9:15:00 PM 1.75 35.15 0.051 6.57 7.21 13.6
12/26/2020 9:30:00 PM 1.74 35.132 0.051 6.57 6.85 13.6
12/26/2020 9:45:00 PM 1.73 35.114 0.051 6.58 6.82 13.61
12/26/2020 10:00:00 PM 1.73 35.114 0.051 6.57 7.06 13.62
12/26/2020 10:15:00 PM 1.72 35.096 0.051 6.57 6.64 13.63
12/26/2020 10:30:00 PM 1.71 35.078 0.051 6.57 6.83 13.62
12/26/2020 10:45:00 PM 1.71 35.078 0.051 6.56 6.57 13.63
12/26/2020 11:00:00 PM 1.7 35.06 0.051 6.58 6.71 13.64
12/26/2020 11:15:00 PM 1.7 35.06 0.051 6.56 6.8 13.64
12/26/2020 11:30:00 PM 1.7 35.06 0.051 6.57 6.59 13.64
12/26/2020 11:45:00 PM 1.69 35.042 0.051 6.57 6.62 13.65
12/27/2020 12:00:00 AM 1.69 35.042 0.051 6.57 6.87 13.64
12/27/2020 12:15:00 AM 1.69 35.042 0.051 6.57 6.34 13.65
12/27/2020 12:30:00 AM 1.69 35.042 0.051 6.57 6.55 13.65
12/27/2020 12:45:00 AM 1.69 35.042 0.051 6.56 6.49 13.65
12/27/2020 1:00:00 AM 1.7 35.06 0.051 6.57 6.39 13.66
12/27/2020 1:15:00 AM 1.7 35.06 0.051 6.56 6.48 13.66
12/27/2020 1:30:00 AM 1.7 35.06 0.051 6.57 6.07 13.66
12/27/2020 1:45:00 AM 1.7 35.06 0.051 6.57 6.12 13.66
12/27/2020 2:00:00 AM 1.7 35.06 0.051 6.56 6.11 13.66
12/27/2020 2:15:00 AM 1.7 35.06 0.051 6.56 6.58 13.65
12/27/2020 2:30:00 AM 1.71 35.078 0.051 6.57 5.9 13.66
12/27/2020 2:45:00 AM 1.71 35.078 0.051 6.56 6.01 13.66
12/27/2020 3:00:00 AM 1.71 35.078 0.051 6.55 6.27 13.66
12/27/2020 3:15:00 AM 1.71 35.078 0.051 6.55 6.3 13.67
12/27/2020 3:30:00 AM 1.71 35.078 0.051 6.56 6.08 13.67
12/27/2020 3:45:00 AM 1.71 35.078 0.051 6.55 5.97 13.67
12/27/2020 4:00:00 AM 1.71 35.078 0.052 6.55 5.98 13.67
12/27/2020 4:15:00 AM 1.71 35.078 0.052 6.56 6.09 13.68
12/27/2020 4:30:00 AM 1.71 35.078 0.052 6.56 5.82 13.68
12/27/2020 4:45:00 AM 1.71 35.078 0.052 6.56 6.07 13.68
12/27/2020 5:00:00 AM 1.71 35.078 0.052 6.57 5.81 13.68
12/27/2020 5:15:00 AM 1.71 35.078 0.052 6.57 6.06 13.68
12/27/2020 5:30:00 AM 1.7 35.06 0.052 6.57 6.15 13.69
12/27/2020 5:45:00 AM 1.71 35.078 0.052 6.57 5.99 13.69
12/27/2020 6:00:00 AM 1.71 35.078 0.052 6.57 6.12 13.69
12/27/2020 6:15:00 AM 1.71 35.078 0.052 6.58 6.06 13.69
12/27/2020 6:30:00 AM 1.71 35.078 0.052 6.58 5.74 13.69
12/27/2020 6:45:00 AM 1.71 35.078 0.052 6.58 5.76 13.7
12/27/2020 7:00:00 AM 1.71 35.078 0.052 6.58 5.61 13.7
12/27/2020 7:15:00 AM 1.7 35.06 0.052 6.58 6.01 13.7
12/27/2020 7:30:00 AM 1.69 35.042 0.052 6.58 5.81 13.7
12/27/2020 7:45:00 AM 1.67 35.006 0.052 6.58 5.96 13.71
12/27/2020 8:00:00 AM 1.66 34.988 0.052 6.58 5.51 13.72
12/27/2020 8:15:00 AM 1.66 34.988 0.052 6.59 5.31 13.73
12/27/2020 8:30:00 AM 1.67 35.006 0.052 6.58 5.36 13.75
12/27/2020 8:45:00 AM 1.68 35.024 0.052 6.59 5.29 13.75
12/27/2020 9:00:00 AM 1.69 35.042 0.052 6.58 5.37 13.77
12/27/2020 9:15:00 AM 1.69 35.042 0.052 6.59 5.21 13.78
12/27/2020 9:30:00 AM 1.7 35.06 0.052 6.59 5.03 13.78
12/27/2020 9:45:00 AM 1.71 35.078 0.052 6.59 5.25 13.79
12/27/2020 10:00:00 AM 1.73 35.114 0.052 6.6 5.21 13.8
12/27/2020 10:15:00 AM 1.76 35.168 0.052 6.6 4.99 13.81
12/27/2020 10:30:00 AM 1.79 35.222 0.052 6.6 5.13 13.8
12/27/2020 10:45:00 AM 1.84 35.312 0.052 6.59 5.28 13.81
12/27/2020 11:00:00 AM 1.89 35.402 0.052 6.6 5.19 13.79
12/27/2020 11:15:00 AM 1.91 35.438 0.052 6.6 5.13 13.8
12/27/2020 11:30:00 AM 1.95 35.51 0.052 6.6 5.39 13.79
12/27/2020 11:45:00 AM 2.01 35.618 0.052 6.6 5.25 13.78
12/27/2020 12:00:00 PM 2.07 35.726 0.052 6.6 5.15 13.77
12/27/2020 12:15:00 PM 2.12 35.816 0.052 6.6 4.97 13.75
12/27/2020 12:30:00 PM 2.2 35.96 0.052 6.61 4.75 13.73
12/27/2020 12:45:00 PM 2.23 36.014 0.052 6.6 4.83 13.71
12/27/2020 1:00:00 PM 2.29 36.122 0.053 6.61 5.15 13.69
12/27/2020 1:15:00 PM 2.32 36.176 0.052 6.62 4.67 13.67
12/27/2020 1:30:00 PM 2.37 36.266 0.052 6.61 4.74 13.66
12/27/2020 1:45:00 PM 2.42 36.356 0.052 6.61 4.65 13.64
12/27/2020 2:00:00 PM 2.46 36.428 0.053 6.61 4.74 13.62
12/27/2020 2:15:00 PM 2.5 36.5 0.053 6.62 4.42 13.6
12/27/2020 2:30:00 PM 2.55 36.59 0.053 6.61 4.7 13.59
12/27/2020 2:45:00 PM 2.6 36.68 0.053 6.61 5.16 13.58
12/27/2020 3:00:00 PM 2.63 36.734 0.053 6.62 4.73 13.56
12/27/2020 3:15:00 PM 2.65 36.77 0.053 6.62 4.85 13.54
12/27/2020 3:30:00 PM 2.67 36.806 0.053 6.62 5.38 13.53
12/27/2020 3:45:00 PM 2.69 36.842 0.053 6.62 4.66 13.51
12/27/2020 4:00:00 PM 2.7 36.86 0.053 6.62 4.65 13.5
12/27/2020 4:15:00 PM 2.7 36.86 0.053 6.62 4.44 13.48
12/27/2020 4:30:00 PM 2.69 36.842 0.053 6.62 4.49 13.47
12/27/2020 4:45:00 PM 2.67 36.806 0.053 6.62 4.39 13.45
12/27/2020 5:00:00 PM 2.65 36.77 0.053 6.61 4.7 13.44
12/27/2020 5:15:00 PM 2.62 36.716 0.053 6.61 4.88 13.44
12/27/2020 5:30:00 PM 2.6 36.68 0.053 6.61 4.6 13.43
12/27/2020 5:45:00 PM 2.58 36.644 0.053 6.6 4.73 13.42
12/27/2020 6:00:00 PM 2.56 36.608 0.053 6.6 4.61 13.41
12/27/2020 6:15:00 PM 2.54 36.572 0.053 6.61 4.67 13.41
12/27/2020 6:30:00 PM 2.53 36.554 0.053 6.6 4.78 13.41
12/27/2020 6:45:00 PM 2.51 36.518 0.053 6.6 4.84 13.41
12/27/2020 7:00:00 PM 2.5 36.5 0.053 6.61 4.74 13.4
12/27/2020 7:15:00 PM 2.48 36.464 0.053 6.61 4.73 13.41
12/27/2020 7:30:00 PM 2.46 36.428 0.053 6.6 4.78 13.4
12/27/2020 7:45:00 PM 2.44 36.392 0.053 6.6 4.69 13.4
12/27/2020 8:00:00 PM 2.42 36.356 0.053 6.6 4.87 13.41
12/27/2020 8:15:00 PM 2.41 36.338 0.054 6.61 4.69 13.41
12/27/2020 8:30:00 PM 2.4 36.32 0.054 6.6 4.66 13.41
12/27/2020 8:45:00 PM 2.39 36.302 0.054 6.61 4.48 13.41
12/27/2020 9:00:00 PM 2.37 36.266 0.054 6.61 4.56 13.42
12/27/2020 9:15:00 PM 2.36 36.248 0.054 6.6 4.45 13.42
12/27/2020 9:30:00 PM 2.35 36.23 0.054 6.6 4.99 13.42
12/27/2020 9:45:00 PM 2.35 36.23 0.054 6.6 4.53 13.42
12/27/2020 10:00:00 PM 2.35 36.23 0.054 6.61 4.68 13.42
12/27/2020 10:15:00 PM 2.35 36.23 0.054 6.61 4.71 13.42
12/27/2020 10:30:00 PM 2.35 36.23 0.054 6.61 4.41 13.41
12/27/2020 10:45:00 PM 2.35 36.23 0.054 6.61 4.7 13.42
12/27/2020 11:00:00 PM 2.35 36.23 0.054 6.61 4.43 13.42
12/27/2020 11:15:00 PM 2.35 36.23 0.054 6.61 4.38 13.42
12/27/2020 11:30:00 PM 2.35 36.23 0.054 6.61 4.42 13.41
12/27/2020 11:45:00 PM 2.35 36.23 0.054 6.61 4.34 13.42
12/28/2020 12:00:00 AM 2.34 36.212 0.054 6.61 4.55 13.42
12/28/2020 12:15:00 AM 2.34 36.212 0.054 6.61 4.3 13.41
12/28/2020 12:30:00 AM 2.34 36.212 0.054 6.61 4.29 13.42
12/28/2020 12:45:00 AM 2.33 36.194 0.054 6.61 4.4 13.42
12/28/2020 1:00:00 AM 2.33 36.194 0.055 6.61 4.23 13.41
12/28/2020 1:15:00 AM 2.32 36.176 0.054 6.61 4.32 13.4
12/28/2020 1:30:00 AM 2.32 36.176 0.054 6.61 4.21 13.41
12/28/2020 1:45:00 AM 2.32 36.176 0.054 6.61 4.2 13.41
12/28/2020 2:00:00 AM 2.32 36.176 0.055 6.61 4.01 13.41
12/28/2020 2:15:00 AM 2.32 36.176 0.055 6.61 4.16 13.41
12/28/2020 2:30:00 AM 2.33 36.194 0.055 6.61 4.25 13.41
12/28/2020 2:45:00 AM 2.34 36.212 0.055 6.61 4.13 13.41
12/28/2020 3:00:00 AM 2.35 36.23 0.055 6.61 4.3 13.41
12/28/2020 3:15:00 AM 2.35 36.23 0.055 6.61 4.32 13.41
12/28/2020 3:30:00 AM 2.36 36.248 0.055 6.61 4.38 13.4
12/28/2020 3:45:00 AM 2.38 36.284 0.055 6.62 4.36 13.4
12/28/2020 4:00:00 AM 2.35 36.23 0.055 6.62 4.17 13.4
12/28/2020 4:15:00 AM 2.28 36.104 0.055 6.62 4.2 13.39
12/28/2020 4:30:00 AM 2.23 36.014 0.055 6.62 4.19 13.39
12/28/2020 4:45:00 AM 2.23 36.014 0.055 6.62 4.21 13.39
12/28/2020 5:00:00 AM 2.24 36.032 0.055 6.62 4.3 13.4
12/28/2020 5:15:00 AM 2.23 36.014 0.055 6.62 4.02 13.4
12/28/2020 5:30:00 AM 2.25 36.05 0.055 6.62 4.06 13.41
12/28/2020 5:45:00 AM 2.27 36.086 0.055 6.62 3.97 13.41
12/28/2020 6:00:00 AM 2.29 36.122 0.055 6.62 4.13 13.4
12/28/2020 6:15:00 AM 2.3 36.14 0.055 6.62 4.12 13.41
12/28/2020 6:30:00 AM 2.32 36.176 0.055 6.62 3.99 13.4
12/28/2020 6:45:00 AM 2.33 36.194 0.055 6.62 4.13 13.41
12/28/2020 7:00:00 AM 2.34 36.212 0.055 6.63 4.03 13.4
12/28/2020 7:15:00 AM 2.35 36.23 0.055 6.63 4.05 13.4
12/28/2020 7:30:00 AM 2.37 36.266 0.056 6.63 4.26 13.4
12/28/2020 7:45:00 AM 2.38 36.284 0.056 6.63 3.99 13.39
12/28/2020 8:00:00 AM 2.39 36.302 0.056 6.63 3.97 13.4
12/28/2020 8:15:00 AM 2.4 36.32 0.056 6.63 3.76 13.4
12/28/2020 8:30:00 AM 2.41 36.338 0.056 6.63 3.86 13.41
12/28/2020 8:45:00 AM 2.43 36.374 0.056 6.63 3.85 13.41
12/28/2020 9:00:00 AM 2.45 36.41